Provisional Data: Lititz Run near Lititz, PA


Please select a monitoring station.
Please select start date.
Please select start date.

Toggle Unit: C/F Toggle Unit: C/F
Sample Time Temperature (C) Temperature (F) Specific Conductivity (mS/cm) pH   Turbidity (NTU+) DO (mg/L)
8/11/2023 12:00:00 AM 19.03 66.254 1.283 7.95 12.8 7.43
8/11/2023 12:15:00 AM 19 66.2 1.288 7.95 12.8 7.43
8/11/2023 12:30:00 AM 18.96 66.128 1.294 7.94 13.65 7.44
8/11/2023 12:45:00 AM 18.92 66.056 1.302 7.94 12.82 7.41
8/11/2023 1:00:00 AM 18.89 66.002 1.31 7.94 11.94 7.4
8/11/2023 1:15:00 AM 18.85 65.93 1.318 7.94 12.53 7.38
8/11/2023 1:30:00 AM 18.81 65.858 1.327 7.94 13.71 7.35
8/11/2023 1:45:00 AM 18.77 65.786 1.337 7.93 13.49 7.34
8/11/2023 2:00:00 AM 18.74 65.732 1.347 7.93 13.95 7.33
8/11/2023 2:15:00 AM 18.71 65.67799 1.356 7.93 13.56 7.31
8/11/2023 2:30:00 AM 18.68 65.624 1.362 7.93 12.77 7.32
8/11/2023 2:45:00 AM 18.64 65.552 1.367 7.93 13.24 7.32
8/11/2023 3:00:00 AM 18.62 65.516 1.37 7.93 12.38 7.31
8/11/2023 3:15:00 AM 18.59 65.462 1.372 7.93 12.15 7.35
8/11/2023 3:30:00 AM 18.57 65.426 1.373 7.93 11.72 7.35
8/11/2023 3:45:00 AM 18.54 65.372 1.375 7.93 11.89 7.36
8/11/2023 4:00:00 AM 18.52 65.336 1.376 7.93 11.64 7.36
8/11/2023 4:15:00 AM 18.5 65.3 1.377 7.93 13.26 7.36
8/11/2023 4:30:00 AM 18.48 65.264 1.378 7.94 12.62 7.38
8/11/2023 4:45:00 AM 18.45 65.21 1.379 7.94 12.2 7.38
8/11/2023 5:00:00 AM 18.43 65.174 1.38 7.94 12.03 7.4
8/11/2023 5:15:00 AM 18.4 65.12 1.38 7.94 13.96 7.41
8/11/2023 5:30:00 AM 18.38 65.084 1.381 7.94 16.89 7.41
8/11/2023 5:45:00 AM 18.35 65.03 1.381 7.94 17.47 7.43
8/11/2023 6:00:00 AM 18.31 64.958 1.381 7.94 26.93 7.44
8/11/2023 6:15:00 AM 18.28 64.904 1.38 7.94 17.25 7.46
8/11/2023 6:30:00 AM 18.24 64.832 1.378 7.95 14.2 7.48
8/11/2023 6:45:00 AM 18.19 64.742 1.375 7.95 12.03 7.52
8/11/2023 7:00:00 AM 18.16 64.688 1.371 7.95 11.56 7.55
8/11/2023 7:15:00 AM 18.12 64.616 1.365 7.95 10.77 7.56
8/11/2023 7:30:00 AM 18.1 64.58 1.359 7.96 10.92 7.63
8/11/2023 7:45:00 AM 18.07 64.526 1.351 7.96 10.62 7.66
8/11/2023 8:00:00 AM 18.06 64.508 1.341 7.97 9.7 7.71
8/11/2023 8:15:00 AM 18.04 64.472 1.331 7.97 9.34 7.75
8/11/2023 8:30:00 AM 18.04 64.472 1.318 7.97 8.75 7.81
8/11/2023 8:45:00 AM 18.03 64.454 1.303 7.98 8.72 7.87
8/11/2023 9:00:00 AM 17.02 62.636 1.214 7.53 7.65 7.5
8/11/2023 9:15:00 AM 17.92 64.256 1.262 7.93 8.07 7.96
8/11/2023 9:30:00 AM 18.08 64.544 1.256 7.99 7.45 8.1
8/11/2023 9:45:00 AM 18.15 64.67 1.242 8.01 7.35 8.21
8/11/2023 10:00:00 AM 18.23 64.814 1.226 8.02 7.2 8.33
8/11/2023 10:15:00 AM 18.3 64.94 1.209 8.03 7.27 8.45
8/11/2023 10:30:00 AM 18.37 65.066 1.191 8.04 7.32 8.54
8/11/2023 10:45:00 AM 18.47 65.246 1.176 8.05 7.42 8.67
8/11/2023 11:00:00 AM 18.54 65.372 1.165 8.06 7.57 8.76
8/11/2023 11:15:00 AM 18.65 65.57 1.155 8.07 7.6 8.86
8/11/2023 11:30:00 AM 18.74 65.732 1.15 8.08 7.07 8.9
8/11/2023 11:45:00 AM 18.83 65.894 1.149 8.08 7.33 8.95
8/11/2023 12:00:00 PM 18.93 66.074 1.149 8.08 7.52 9.01
8/11/2023 12:15:00 PM 19.04 66.272 1.151 8.09 7.56 9.07
8/11/2023 12:30:00 PM 19.2 66.56 1.154 8.1 7.68 9.14
8/11/2023 12:45:00 PM 19.38 66.884 1.156 8.11 7.53 9.2
8/11/2023 1:00:00 PM 19.54 67.172 1.158 8.11 7.09 9.23
8/11/2023 1:15:00 PM 19.7 67.46 1.163 8.12 6.88 9.24
8/11/2023 1:30:00 PM 19.87 67.766 1.168 8.13 6.79 9.25
8/11/2023 1:45:00 PM 20.08 68.144 1.173 8.14 6.45 9.29
8/11/2023 2:00:00 PM 20.3 68.54 1.183 8.15 6.37 9.37
8/11/2023 2:15:00 PM 20.41 68.738 1.197 8.16 6.01 9.36
8/11/2023 2:30:00 PM 20.51 68.918 1.217 8.16 6.09 9.29
8/11/2023 2:45:00 PM 20.66 69.188 1.238 8.16 6.21 9.29
8/11/2023 3:00:00 PM 20.87 69.566 1.26 8.17 6.53 9.34
8/11/2023 3:15:00 PM 21.03 69.854 1.282 8.17 6.86 9.35
8/11/2023 3:30:00 PM 21.19 70.142 1.301 8.17 6.99 9.33
8/11/2023 3:45:00 PM 21.32 70.376 1.319 8.18 6.63 9.25
8/11/2023 4:00:00 PM 21.51 70.718 1.333 8.18 7.11 9.2
8/11/2023 4:15:00 PM 21.67 71.006 1.345 8.17 6.91 9.13
8/11/2023 4:30:00 PM 21.77 71.186 1.353 8.18 6.92 9.05
8/11/2023 4:45:00 PM 21.84 71.312 1.36 8.19 6.37 8.96
8/11/2023 5:00:00 PM 21.87 71.366 1.367 8.18 6.82 8.86
8/11/2023 5:15:00 PM 21.91 71.438 1.373 8.17 7.28 8.79
8/11/2023 5:30:00 PM 21.95 71.51 1.38 8.17 7.03 8.69
8/11/2023 5:45:00 PM 21.99 71.582 1.386 8.16 7.31 8.61
8/11/2023 6:00:00 PM 22.01 71.618 1.389 8.16 7.65 8.52
8/11/2023 6:15:00 PM 22.03 71.654 1.392 8.16 7.76 8.44
8/11/2023 6:30:00 PM 21.11 69.998 1.337 7.81 8.02 8.01
8/11/2023 6:45:00 PM 21.89 71.402 1.386 8.1 8.96 8.23
8/11/2023 7:00:00 PM 21.98 71.564 1.392 8.13 8.29 8.19
8/11/2023 7:15:00 PM 21.95 71.51 1.39 8.13 7.14 8.13
8/11/2023 7:30:00 PM 21.89 71.402 1.385 8.13 7.36 8.08
8/11/2023 7:45:00 PM 21.8 71.24 1.379 8.12 7.76 8
8/11/2023 8:00:00 PM 21.71 71.078 1.373 8.11 8.37 7.92
8/11/2023 8:15:00 PM 21.6 70.88 1.367 8.11 7.74 7.87
8/11/2023 8:30:00 PM 21.5 70.7 1.361 8.1 8.37 7.84
8/11/2023 8:45:00 PM 21.39 70.502 1.356 8.1 9.54 7.79
8/11/2023 9:00:00 PM 21.28 70.304 1.351 8.09 10.34 7.75
8/11/2023 9:15:00 PM 21.19 70.142 1.348 8.09 10.44 7.71
8/11/2023 9:30:00 PM 21.09 69.962 1.346 8.08 10.85 7.7
8/11/2023 9:45:00 PM 21 69.8 1.343 8.08 10.18 7.66
8/11/2023 10:00:00 PM 20.9 69.62 1.341 8.07 11.83 7.64
8/11/2023 10:15:00 PM 20.81 69.458 1.339 8.07 13.01 7.62
8/11/2023 10:30:00 PM 20.71 69.278 1.335 8.06 12.57 7.63
8/11/2023 10:45:00 PM 20.61 69.098 1.332 8.06 16.29 7.61
8/11/2023 11:00:00 PM 20.51 68.918 1.33 8.05 13.41 7.6
8/11/2023 11:15:00 PM 20.42 68.756 1.329 8.05 12.58 7.58
8/11/2023 11:30:00 PM 20.31 68.558 1.327 8.04 12.63 7.57
8/11/2023 11:45:00 PM 20.21 68.378 1.327 8.04 13.27 7.55
8/12/2023 12:00:00 AM 20.11 68.198 1.326 8.03 13.49 7.53
8/12/2023 12:15:00 AM 20.01 68.018 1.326 8.03 25.11 7.51
8/12/2023 12:30:00 AM 19.91 67.838 1.327 8.03 14.56 7.49
8/12/2023 12:45:00 AM 19.81 67.658 1.33 8.02 14.13 7.51
8/12/2023 1:00:00 AM 19.71 67.478 1.332 8.02 13.93 7.5
8/12/2023 1:15:00 AM 19.62 67.316 1.334 8.01 13.83 7.5
8/12/2023 1:30:00 AM 18.74 65.732 1.285 7.68 13.01 7.18
8/12/2023 1:45:00 AM 19.35 66.83 1.334 7.96 14.12 7.43
8/12/2023 2:00:00 AM 19.37 66.866 1.345 7.99 14.46 7.46
8/12/2023 2:15:00 AM 19.32 66.776 1.35 7.99 16.6 7.44
8/12/2023 2:30:00 AM 19.26 66.668 1.354 7.99 16.04 7.43
8/12/2023 2:45:00 AM 19.21 66.578 1.358 7.99 15.09 7.42
8/12/2023 3:00:00 AM 19.16 66.488 1.362 7.99 14 7.42
8/12/2023 3:15:00 AM 19.12 66.416 1.367 7.99 14.81 7.41
8/12/2023 3:30:00 AM 19.07 66.326 1.372 7.98 14.59 7.42
8/12/2023 3:45:00 AM 19.03 66.254 1.375 7.99 13.48 7.43
8/12/2023 4:00:00 AM 18.99 66.182 1.377 7.98 13.88 7.4
8/12/2023 4:15:00 AM 18.95 66.11 1.379 7.98 13.73 7.44
8/12/2023 4:30:00 AM 18.91 66.038 1.381 7.98 14.22 7.43
8/12/2023 4:45:00 AM 18.87 65.966 1.382 7.98 16.93 7.43
8/12/2023 5:00:00 AM 18.83 65.894 1.382 7.98 16.3 7.43
8/12/2023 5:15:00 AM 18.79 65.82201 1.382 7.98 16.98 7.44
8/12/2023 5:30:00 AM 18.74 65.732 1.381 7.98 16.64 7.42
8/12/2023 5:45:00 AM 18.7 65.66 1.379 7.98 15.77 7.44
8/12/2023 6:00:00 AM 18.65 65.57 1.377 7.98 15.87 7.45
8/12/2023 6:15:00 AM 18.6 65.48 1.373 7.98 14.35 7.47
8/12/2023 6:30:00 AM 18.55 65.39 1.37 7.98 14.4 7.48
8/12/2023 6:45:00 AM 18.52 65.336 1.366 7.98 15.88 7.5
8/12/2023 7:00:00 AM 18.48 65.264 1.362 7.98 15.41 7.5
8/12/2023 7:15:00 AM 18.45 65.21 1.357 7.98 14.43 7.56
8/12/2023 7:30:00 AM 18.43 65.174 1.351 7.98 18.44 7.6
8/12/2023 7:45:00 AM 18.42 65.156 1.344 7.99 12.42 7.66
8/12/2023 8:00:00 AM 18.42 65.156 1.336 7.99 11.62 7.71
8/12/2023 8:15:00 AM 18.41 65.138 1.326 7.99 10.15 7.74
8/12/2023 8:30:00 AM 18.4 65.12 1.315 8 10.44 7.79
8/12/2023 8:45:00 AM 18.4 65.12 1.306 8 9.86 7.85
8/12/2023 9:00:00 AM 18.4 65.12 1.294 8.01 9.14 7.91
8/12/2023 9:15:00 AM 18.41 65.138 1.28 8.01 8.36 7.96
8/12/2023 9:30:00 AM 18.42 65.156 1.267 8.02 8.74 8.09
8/12/2023 9:45:00 AM 18.43 65.174 1.253 8.03 9.71 8.17
8/12/2023 10:00:00 AM 18.45 65.21 1.238 8.03 8.53 8.31
8/12/2023 10:15:00 AM 18.49 65.282 1.224 8.04 7.96 8.41
8/12/2023 10:30:00 AM 18.55 65.39 1.209 8.06 7.92 8.55
8/12/2023 10:45:00 AM 18.64 65.552 1.193 8.07 7.29 8.69
8/12/2023 11:00:00 AM 18.73 65.714 1.177 8.08 7.55 8.78
8/12/2023 11:15:00 AM 18.83 65.894 1.165 8.09 7.77 8.88
8/12/2023 11:30:00 AM 18.94 66.092 1.153 8.09 7.45 8.95
8/12/2023 11:45:00 AM 19.06 66.308 1.145 8.1 8.04 9.01
8/12/2023 12:00:00 PM 19.2 66.56 1.141 8.11 8.17 9.07
8/12/2023 12:15:00 PM 19.35 66.83 1.141 8.11 7.92 9.12
8/12/2023 12:30:00 PM 19.52 67.136 1.143 8.11 7.82 9.18
8/12/2023 12:45:00 PM 19.71 67.478 1.145 8.12 7.99 9.22
8/12/2023 1:00:00 PM 19.91 67.838 1.145 8.13 7.87 9.29
8/12/2023 1:15:00 PM 20.06 68.108 1.142 8.14 7.88 9.28
8/12/2023 1:30:00 PM 20.15 68.27 1.136 8.14 7.44 9.21
8/12/2023 1:45:00 PM 20.33 68.594 1.131 8.14 7.55 9.24
8/12/2023 2:00:00 PM 20.5 68.9 1.127 8.15 7.39 9.32
8/12/2023 2:15:00 PM 20.55 68.99 1.128 8.15 7 9.29
8/12/2023 2:30:00 PM 20.56 69.008 1.137 8.15 7.23 9.2
8/12/2023 2:45:00 PM 20.56 69.008 1.15 8.14 12.03 9.08
8/12/2023 3:00:00 PM 20.61 69.098 1.163 8.14 7.69 8.95
8/12/2023 3:15:00 PM 20.73 69.314 1.177 8.14 7.88 8.9
8/12/2023 3:30:00 PM 20.95 69.71 1.185 8.15 9.74 8.94
8/12/2023 3:45:00 PM 21.06 69.908 1.208 8.16 9.5 8.95
8/12/2023 4:00:00 PM 21.16 70.088 1.23 8.16 10.22 8.91
8/12/2023 4:15:00 PM 21.33 70.394 1.251 8.17 12.4 8.88
8/12/2023 4:30:00 PM 21.6 70.88 1.269 8.17 14.18 8.85
8/12/2023 4:45:00 PM 21.84 71.312 1.285 8.17 14.26 8.8
8/12/2023 5:00:00 PM 22.04 71.672 1.295 8.16 22.19 8.7
8/12/2023 5:15:00 PM 22.2 71.96 1.293 8.15 43.91 8.57
8/12/2023 5:30:00 PM 22.28 72.104 1.225 8.13 62.14 8.39
8/12/2023 5:45:00 PM 22.32 72.176 1.211 8.11 62.46 8.3
8/12/2023 6:00:00 PM 22.31 72.158 1.213 8.09 52.1 8.23
8/12/2023 6:15:00 PM 22.2 71.96 1.223 8.07 42.23 8.15
8/12/2023 6:30:00 PM 22.06 71.708 1.233 8.05 34.28 8.08
8/12/2023 6:45:00 PM 21.93 71.474 1.235 8.03 29.46 7.99
8/12/2023 7:00:00 PM 21.86 71.348 1.221 8.01 25.5 7.88
8/12/2023 7:15:00 PM 21.84 71.312 1.188 7.99 23.19 7.72
8/12/2023 7:30:00 PM 21.84 71.312 1.139 7.98 20.87 7.57
8/12/2023 7:45:00 PM 21.84 71.312 1.079 7.96 19.67 7.43
8/12/2023 8:00:00 PM 21.82 71.276 1.02 7.95 18.72 7.32
8/12/2023 8:15:00 PM 21.77 71.186 0.964 7.93 18.05 7.26
8/12/2023 8:30:00 PM 21.69 71.042 0.917 7.93 17.54 7.21
8/12/2023 8:45:00 PM 21.62 70.916 0.879 7.92 17.4 7.14
8/12/2023 9:00:00 PM 21.55 70.79 0.847 7.91 17 7.1
8/12/2023 9:15:00 PM 21.5 70.7 0.823 7.89 16.76 7.04
8/12/2023 9:30:00 PM 21.48 70.664 0.806 7.88 16.03 6.96
8/12/2023 9:45:00 PM 21.48 70.664 0.794 7.87 19.41 6.88
8/12/2023 10:00:00 PM 21.5 70.7 0.788 7.85 18.74 6.78
8/12/2023 10:15:00 PM 21.54 70.772 0.785 7.84 17.59 6.69
8/12/2023 10:30:00 PM 21.59 70.862 0.784 7.83 17.65 6.59
8/12/2023 10:45:00 PM 21.64 70.952 0.791 7.81 17.37 6.5
8/12/2023 11:00:00 PM 21.69 71.042 0.8 7.8 17.33 6.42
8/12/2023 11:15:00 PM 21.74 71.132 0.814 7.79 16.82 6.36
8/12/2023 11:30:00 PM 21.78 71.204 0.828 7.78 17.21 6.35
8/12/2023 11:45:00 PM 21.81 71.258 0.848 7.77 23.87 6.31
8/13/2023 12:00:00 AM 21.83 71.294 0.869 7.77 19.78 6.23
8/13/2023 12:15:00 AM 21.83 71.294 0.893 7.77 15.89 6.22
8/13/2023 12:30:00 AM 21.82 71.276 0.919 7.77 15.16 6.24
8/13/2023 12:45:00 AM 21.79 71.222 0.945 7.77 15.9 6.22
8/13/2023 1:00:00 AM 21.75 71.15 0.97 7.78 15.5 6.21
8/13/2023 1:15:00 AM 21.7 71.06 0.992 7.78 14.37 6.23
8/13/2023 1:30:00 AM 21.65 70.97 1.01 7.78 14.78 6.22
8/13/2023 1:45:00 AM 21.59 70.862 1.027 7.78 15.19 6.25
8/13/2023 2:00:00 AM 21.52 70.736 1.043 7.78 15.27 6.26
8/13/2023 2:15:00 AM 21.46 70.628 1.056 7.79 15.5 6.26
8/13/2023 2:30:00 AM 21.39 70.502 1.068 7.79 13.77 6.31
8/13/2023 2:45:00 AM 21.32 70.376 1.078 7.79 12.99 6.33
8/13/2023 3:00:00 AM 21.24 70.232 1.088 7.8 13.23 6.35
8/13/2023 3:15:00 AM 21.17 70.106 1.098 7.8 13.38 6.37
8/13/2023 3:30:00 AM 21.09 69.962 1.108 7.8 14.62 6.42
8/13/2023 3:45:00 AM 21.01 69.818 1.117 7.8 14.77 6.47
8/13/2023 4:00:00 AM 20.93 69.674 1.125 7.81 16.22 6.51
8/13/2023 4:15:00 AM 20.85 69.53 1.134 7.8 14.16 6.54
8/13/2023 4:30:00 AM 20.76 69.368 1.14 7.81 14.67 6.58
8/13/2023 4:45:00 AM 20.68 69.224 1.146 7.82 15.51 6.62
8/13/2023 5:00:00 AM 20.6 69.08 1.152 7.83 13.87 6.65
8/13/2023 5:15:00 AM 20.52 68.936 1.157 7.83 13.15 6.69
8/13/2023 5:30:00 AM 20.44 68.792 1.162 7.84 13.54 6.71
8/13/2023 5:45:00 AM 20.36 68.648 1.165 7.84 13.78 6.76
8/13/2023 6:00:00 AM 20.28 68.504 1.169 7.85 15.44 6.8
8/13/2023 6:15:00 AM 20.2 68.36 1.169 7.85 13.95 6.86
8/13/2023 6:30:00 AM 20.11 68.198 1.17 7.86 13.07 6.91
8/13/2023 6:45:00 AM 20.03 68.054 1.171 7.87 12.56 6.96
8/13/2023 7:00:00 AM 19.95 67.91 1.171 7.87 11.51 7.02
8/13/2023 7:15:00 AM 19.87 67.766 1.171 7.88 11.13 7.08
8/13/2023 7:30:00 AM 19.79 67.622 1.169 7.88 10.99 7.14
8/13/2023 7:45:00 AM 19.73 67.514 1.164 7.89 9.56 7.22
8/13/2023 8:00:00 AM 19.65 67.37 1.158 7.89 9.29 7.28
8/13/2023 8:15:00 AM 19.58 67.244 1.151 7.9 8.97 7.34
8/13/2023 8:30:00 AM 19.53 67.154 1.142 7.91 8.88 7.43
8/13/2023 8:45:00 AM 19.48 67.064 1.133 7.92 7.63 7.48
8/13/2023 9:00:00 AM 19.44 66.992 1.122 7.92 7.16 7.58
8/13/2023 9:15:00 AM 19.41 66.938 1.11 7.93 7.25 7.67
8/13/2023 9:30:00 AM 19.39 66.902 1.097 7.94 6.46 7.76
8/13/2023 9:45:00 AM 19.39 66.902 1.083 7.96 6.16 7.88
8/13/2023 10:00:00 AM 19.4 66.92 1.07 7.97 6.55 8.01
8/13/2023 10:15:00 AM 19.42 66.956 1.057 7.98 6.49 8.08
8/13/2023 10:30:00 AM 19.43 66.974 1.047 7.99 7.07 8.23
8/13/2023 10:45:00 AM 19.5 67.1 1.043 7.99 7.12 8.35
8/13/2023 11:00:00 AM 19.59 67.262 1.041 8 7.19 8.45
8/13/2023 11:15:00 AM 19.63 67.334 1.042 8.01 7.41 8.51
8/13/2023 11:30:00 AM 19.68 67.424 1.045 8.01 7.24 8.54
8/13/2023 11:45:00 AM 19.77 67.586 1.047 8.01 7.18 8.58
8/13/2023 12:00:00 PM 19.92 67.856 1.045 8.02 6.92 8.68
8/13/2023 12:15:00 PM 20.03 68.054 1.041 8.02 6.56 8.74
8/13/2023 12:30:00 PM 20.11 68.198 1.033 8.03 6.63 8.76
8/13/2023 12:45:00 PM 20.24 68.432 1.024 8.03 6.84 8.81
8/13/2023 1:00:00 PM 20.36 68.648 1.017 8.04 6.99 8.83
8/13/2023 1:15:00 PM 19.65 67.37 0.971 7.71 6.38 8.49
8/13/2023 1:30:00 PM 20.54 68.972 1.004 8.01 6.63 8.9
8/13/2023 1:45:00 PM 20.78 69.404 1.011 8.06 6.49 8.99
8/13/2023 2:00:00 PM 20.91 69.638 1.019 8.06 6.83 8.94
8/13/2023 2:15:00 PM 21.05 69.89 1.034 8.07 6.22 8.94
8/13/2023 2:30:00 PM 21.23 70.214 1.055 8.08 6.64 8.99
8/13/2023 2:45:00 PM 21.38 70.484 1.081 8.09 6.57 9.03
8/13/2023 3:00:00 PM 21.5 70.7 1.11 8.1 7.1 9.03
8/13/2023 3:15:00 PM 21.65 70.97 1.139 8.1 7.3 9.02
8/13/2023 3:30:00 PM 21.86 71.348 1.167 8.11 6.51 9.02
8/13/2023 3:45:00 PM 22.03 71.654 1.191 8.12 7 8.96
8/13/2023 4:00:00 PM 22.17 71.906 1.211 8.12 8.01 8.85
8/13/2023 4:15:00 PM 22.31 72.158 1.228 8.12 7.14 8.79
8/13/2023 4:30:00 PM 22.43 72.374 1.243 8.12 6.21 8.75
8/13/2023 4:45:00 PM 22.49 72.482 1.255 8.12 5.7 8.66
8/13/2023 5:00:00 PM 22.52 72.536 1.265 8.12 9.15 8.54
8/13/2023 5:15:00 PM 22.53 72.554 1.274 8.11 7.32 8.48
8/13/2023 5:30:00 PM 22.57 72.626 1.279 8.12 5.87 8.44
8/13/2023 5:45:00 PM 22.6 72.68 1.282 8.11 6.15 8.36
8/13/2023 6:00:00 PM 22.61 72.698 1.284 8.11 6.96 8.27
8/13/2023 6:15:00 PM 22.61 72.698 1.283 8.11 6.43 8.2
8/13/2023 6:30:00 PM 22.61 72.698 1.282 8.11 6.71 8.13
8/13/2023 6:45:00 PM 21.64 70.952 1.229 7.76 6.12 7.72
8/13/2023 7:00:00 PM 22.41 72.338 1.272 8.05 6.01 7.95
8/13/2023 7:15:00 PM 22.46 72.42799 1.274 8.09 7.01 7.92
8/13/2023 7:30:00 PM 22.4 72.32 1.272 8.09 6.34 7.88
8/13/2023 7:45:00 PM 22.33 72.194 1.268 8.08 5.87 7.84
8/13/2023 8:00:00 PM 22.26 72.068 1.266 8.08 5.74 7.78
8/13/2023 8:15:00 PM 22.19 71.942 1.263 8.07 6.48 7.73
8/13/2023 8:30:00 PM 22.11 71.798 1.262 8.07 7.36 7.63
8/13/2023 8:45:00 PM 22.03 71.654 1.26 8.06 8.54 7.62
8/13/2023 9:00:00 PM 21.94 71.492 1.259 8.06 9.08 7.57
8/13/2023 9:15:00 PM 21.85 71.33 1.259 8.05 9.38 7.55
8/13/2023 9:30:00 PM 21.76 71.168 1.258 8.05 9.82 7.52
8/13/2023 9:45:00 PM 21.67 71.006 1.257 8.05 11.15 7.5
8/13/2023 10:00:00 PM 21.58 70.844 1.257 8.04 10.26 7.47
8/13/2023 10:15:00 PM 21.48 70.664 1.256 8.04 10.92 7.46
8/13/2023 10:30:00 PM 21.38 70.484 1.255 8.03 10.87 7.45
8/13/2023 10:45:00 PM 21.29 70.32201 1.252 8.03 11.21 7.44
8/13/2023 11:00:00 PM 21.19 70.142 1.249 8.01 12.1 7.42
8/13/2023 11:15:00 PM 21.08 69.944 1.248 8.01 12.25 7.43
8/13/2023 11:30:00 PM 20.98 69.764 1.246 8.01 12.19 7.42
8/13/2023 11:45:00 PM 20.87 69.566 1.245 8.01 13.77 7.41
8/14/2023 12:00:00 AM 20.77 69.386 1.245 8 13.64 7.39
8/14/2023 12:15:00 AM 20.66 69.188 1.246 8 13 7.37
8/14/2023 12:30:00 AM 20.56 69.008 1.248 8 13.56 7.35
8/14/2023 12:45:00 AM 20.46 68.828 1.252 7.99 13.35 7.34
8/14/2023 1:00:00 AM 20.36 68.648 1.257 7.99 13.09 7.35
8/14/2023 1:15:00 AM 20.28 68.504 1.262 7.98 12.36 7.34
8/14/2023 1:30:00 AM 20.2 68.36 1.266 7.98 12.76 7.31
8/14/2023 1:45:00 AM 20.12 68.216 1.27 7.98 13.62 7.32
8/14/2023 2:00:00 AM 20.04 68.07201 1.275 7.97 14.41 7.32
8/14/2023 2:15:00 AM 19.97 67.946 1.28 7.97 13.35 7.31
8/14/2023 2:30:00 AM 19.9 67.82 1.285 7.97 13.13 7.31
8/14/2023 2:45:00 AM 19.84 67.712 1.29 7.97 13.31 7.3
8/14/2023 3:00:00 AM 19.79 67.622 1.296 7.97 14.71 7.3
8/14/2023 3:15:00 AM 19.73 67.514 1.302 7.96 17.81 7.31
8/14/2023 3:30:00 AM 19.67 67.406 1.305 7.96 16.17 7.28
8/14/2023 3:45:00 AM 19.62 67.316 1.31 7.96 16.2 7.29
8/14/2023 4:00:00 AM 19.58 67.244 1.314 7.96 14 7.29
8/14/2023 4:15:00 AM 19.53 67.154 1.318 7.96 13.9 7.3
8/14/2023 4:30:00 AM 19.48 67.064 1.321 7.96 15.6 7.31
8/14/2023 4:45:00 AM 19.43 66.974 1.325 7.96 14.3 7.33
8/14/2023 5:00:00 AM 19.39 66.902 1.326 7.96 14.47 7.34
8/14/2023 5:15:00 AM 19.35 66.83 1.326 7.96 14.6 7.33
8/14/2023 5:30:00 AM 19.31 66.758 1.326 7.96 14.13 7.33
8/14/2023 5:45:00 AM 19.27 66.686 1.326 7.96 13.94 7.34
8/14/2023 6:00:00 AM 19.23 66.614 1.325 7.96 14.11 7.35
8/14/2023 6:15:00 AM 19.2 66.56 1.324 7.96 14.72 7.35
8/14/2023 6:30:00 AM 19.16 66.488 1.322 7.96 14.41 7.38
8/14/2023 6:45:00 AM 19.12 66.416 1.318 7.96 13.73 7.39
8/14/2023 7:00:00 AM 19.09 66.362 1.311 7.96 12.75 7.39
8/14/2023 7:15:00 AM 19.05 66.29 1.306 7.96 11.61 7.45
8/14/2023 7:30:00 AM 19.02 66.236 1.297 7.96 11.6 7.5
8/14/2023 7:45:00 AM 18.99 66.182 1.288 7.96 11.58 7.54
8/14/2023 8:00:00 AM 18.97 66.146 1.279 7.97 10.42 7.59
8/14/2023 8:15:00 AM 18.94 66.092 1.267 7.97 11.01 7.64
8/14/2023 8:30:00 AM 18.92 66.056 1.252 7.97 10.32 7.71
8/14/2023 8:45:00 AM 18.9 66.02 1.239 7.98 9.63 7.78
8/14/2023 9:00:00 AM 18.88 65.984 1.225 7.98 9.15 7.83
8/14/2023 9:15:00 AM 18.86 65.948 1.21 7.98 9.17 7.9
8/14/2023 9:30:00 AM 18.84 65.912 1.196 7.99 8.94 7.97
8/14/2023 9:45:00 AM 18.82 65.876 1.181 7.99 9.06 8.03
8/14/2023 10:00:00 AM 18.8 65.84 1.165 7.99 8.44 8.1
8/14/2023 10:15:00 AM 18.78 65.804 1.151 8 8.67 8.21
8/14/2023 10:30:00 AM 18.76 65.768 1.135 8 9.24 8.3
8/14/2023 10:45:00 AM 18.75 65.75 1.122 8.01 8.76 8.4
8/14/2023 11:00:00 AM 18.74 65.732 1.111 8.02 10.12 8.49
8/14/2023 11:15:00 AM 18.76 65.768 1.103 8.02 9.14 8.61
8/14/2023 11:30:00 AM 18.82 65.876 1.099 8.04 8.25 8.76
8/14/2023 11:45:00 AM 18.9 66.02 1.097 8.05 8.3 8.92
8/14/2023 12:00:00 PM 19 66.2 1.098 8.06 7.78 9.08
8/14/2023 12:15:00 PM 19.11 66.398 1.099 8.08 8 9.15
8/14/2023 12:30:00 PM 19.21 66.578 1.1 8.09 7.5 9.22
8/14/2023 12:45:00 PM 19.37 66.866 1.1 8.1 7.39 9.3
8/14/2023 1:00:00 PM 19.54 67.172 1.1 8.11 6.92 9.34
8/14/2023 1:15:00 PM 19.66 67.388 1.1 8.11 7.12 9.32
8/14/2023 1:30:00 PM 19.75 67.55 1.1 8.1 6.64 9.25
8/14/2023 1:45:00 PM 19.82 67.676 1.103 8.11 6.66 9.21
8/14/2023 2:00:00 PM 19.93 67.874 1.11 8.12 6.58 9.33
8/14/2023 2:15:00 PM 19.99 67.982 1.119 8.13 6.75 9.39
8/14/2023 2:30:00 PM 20.01 68.018 1.135 8.12 7.13 9.31
8/14/2023 2:45:00 PM 20.04 68.07201 1.154 8.12 7.26 9.19
8/14/2023 3:00:00 PM 20.12 68.216 1.174 8.11 6.89 9.09
8/14/2023 3:15:00 PM 20.23 68.414 1.192 8.12 7.42 9.08
8/14/2023 3:30:00 PM 20.35 68.63 1.21 8.12 7.27 9.1
8/14/2023 3:45:00 PM 20.44 68.792 1.226 8.12 6.77 9.12
8/14/2023 4:00:00 PM 20.56 69.008 1.237 8.13 6.49 9.18
8/14/2023 4:15:00 PM 20.69 69.242 1.246 8.14 6.01 9.24
8/14/2023 4:30:00 PM 20.82 69.476 1.253 8.15 6.33 9.2
8/14/2023 4:45:00 PM 20.99 69.782 1.259 8.15 6.07 9.16
8/14/2023 5:00:00 PM 21.16 70.088 1.264 8.16 7.49 9.11
8/14/2023 5:15:00 PM 21.31 70.358 1.268 8.16 7.26 8.99
8/14/2023 5:30:00 PM 21.44 70.592 1.271 8.16 6.63 8.89
8/14/2023 5:45:00 PM 21.53 70.754 1.275 8.16 6.67 8.82
8/14/2023 6:00:00 PM 21.59 70.862 1.278 8.16 6.67 8.73
8/14/2023 6:15:00 PM 21.61 70.898 1.282 8.15 6.77 8.62
8/14/2023 6:30:00 PM 21.59 70.862 1.284 8.14 7.1 8.51
8/14/2023 6:45:00 PM 21.52 70.736 1.287 8.13 8.28 8.4
8/14/2023 7:00:00 PM 21.45 70.61 1.287 8.13 10.05 8.31
8/14/2023 7:15:00 PM 21.38 70.484 1.287 8.12 7.29 8.22
8/14/2023 7:30:00 PM 21.33 70.394 1.287 8.11 6.15 8.15
8/14/2023 7:45:00 PM 21.28 70.304 1.286 8.1 6.31 8.08
8/14/2023 8:00:00 PM 21.25 70.25 1.285 8.1 6.94 8.01
8/14/2023 8:15:00 PM 21.22 70.196 1.282 8.09 8.08 7.96
8/14/2023 8:30:00 PM 21.19 70.142 1.28 8.08 9.64 7.9
8/14/2023 8:45:00 PM 21.15 70.07 1.276 8.08 12.67 7.85
8/14/2023 9:00:00 PM 21.1 69.98 1.272 8.07 9.82 7.81
8/14/2023 9:15:00 PM 21.06 69.908 1.271 8.07 11.03 7.76
8/14/2023 9:30:00 PM 21.01 69.818 1.267 8.06 9.81 7.75
8/14/2023 9:45:00 PM 20.96 69.728 1.264 8.06 9.35 7.72
8/14/2023 10:00:00 PM 20.91 69.638 1.263 8.05 9.36 7.68
8/14/2023 10:15:00 PM 20.87 69.566 1.262 8.05 10.34 7.67
8/14/2023 10:30:00 PM 20.84 69.512 1.261 8.04 9.41 7.63
8/14/2023 10:45:00 PM 20.8 69.44 1.262 8.04 10.45 7.6
8/14/2023 11:00:00 PM 20.76 69.368 1.262 8.03 13.34 7.57
8/14/2023 11:15:00 PM 20.72 69.296 1.263 8.03 15.9 7.55
8/14/2023 11:30:00 PM 20.68 69.224 1.261 8.02 15.81 7.52
8/14/2023 11:45:00 PM 20.63 69.134 1.259 8.01 16.47 7.47
8/15/2023 12:00:00 AM 20.57 69.026 1.256 8.01 14.08 7.43
8/15/2023 12:15:00 AM 20.52 68.936 1.254 8 13.12 7.41
8/15/2023 12:30:00 AM 20.46 68.828 1.253 7.99 12.77 7.38
8/15/2023 12:45:00 AM 20.41 68.738 1.254 7.99 13.09 7.36
8/15/2023 1:00:00 AM 20.37 68.666 1.258 7.99 13.76 7.33
8/15/2023 1:15:00 AM 20.33 68.594 1.263 7.98 13.43 7.29
8/15/2023 1:30:00 AM 20.3 68.54 1.268 7.98 13.37 7.25
8/15/2023 1:45:00 AM 20.27 68.486 1.275 7.98 14.49 7.23
8/15/2023 2:00:00 AM 20.25 68.45 1.282 7.97 13.89 7.23
8/15/2023 2:15:00 AM 20.24 68.432 1.289 7.97 13.55 7.23
8/15/2023 2:30:00 AM 20.22 68.396 1.297 7.97 14.73 7.21
8/15/2023 2:45:00 AM 20.21 68.378 1.304 7.97 14.95 7.21
8/15/2023 3:00:00 AM 20.2 68.36 1.31 7.96 20.28 7.2
8/15/2023 3:15:00 AM 20.19 68.342 1.316 7.96 15.9 7.17
8/15/2023 3:30:00 AM 20.17 68.306 1.322 7.96 14.88 7.16
8/15/2023 3:45:00 AM 20.14 68.252 1.327 7.96 13.6 7.15
8/15/2023 4:00:00 AM 20.13 68.234 1.331 7.96 16.56 7.13
8/15/2023 4:15:00 AM 20.11 68.198 1.335 7.96 14.3 7.15
8/15/2023 4:30:00 AM 20.08 68.144 1.34 7.96 13.52 7.14
8/15/2023 4:45:00 AM 20.05 68.09 1.343 7.96 14.63 7.14
8/15/2023 5:00:00 AM 20.03 68.054 1.346 7.95 16.86 7.11
8/15/2023 5:15:00 AM 20 68 1.348 7.95 16.33 7.11
8/15/2023 5:30:00 AM 19.97 67.946 1.348 7.95 23.47 7.13
8/15/2023 5:45:00 AM 19.94 67.892 1.348 7.95 17.92 7.14
8/15/2023 6:00:00 AM 19.91 67.838 1.348 7.94 22.44 7.11
8/15/2023 6:15:00 AM 19.87 67.766 1.347 7.94 18.37 7.1
8/15/2023 6:30:00 AM 19.85 67.73 1.347 7.94 15.69 7.13
8/15/2023 6:45:00 AM 19.82 67.676 1.344 7.94 14.71 7.16
8/15/2023 7:00:00 AM 19.8 67.64 1.34 7.93 12.73 7.17
8/15/2023 7:15:00 AM 19.78 67.604 1.335 7.94 12.38 7.19
8/15/2023 7:30:00 AM 19.76 67.568 1.327 7.94 12.14 7.25
8/15/2023 7:45:00 AM 19.75 67.55 1.315 7.94 11.98 7.3
8/15/2023 8:00:00 AM 19.74 67.532 1.303 7.95 10.46 7.38
8/15/2023 8:15:00 AM 19.73 67.514 1.29 7.95 9.88 7.42
8/15/2023 8:30:00 AM 19.73 67.514 1.273 7.96 9.98 7.5
8/15/2023 8:45:00 AM 19.73 67.514 1.259 7.96 9.56 7.57
8/15/2023 9:00:00 AM 19.74 67.532 1.242 7.97 8.83 7.65
8/15/2023 9:15:00 AM 19.77 67.586 1.225 7.98 8.52 7.79
8/15/2023 9:30:00 AM 19.8 67.64 1.21 7.99 7.87 7.91
8/15/2023 9:45:00 AM 19.83 67.694 1.194 8 7.83 7.98
8/15/2023 10:00:00 AM 19.85 67.73 1.18 8.01 8.61 8.05
8/15/2023 10:15:00 AM 19.9 67.82 1.168 8.01 8.04 8.13
8/15/2023 10:30:00 AM 19.95 67.91 1.156 8.02 8.46 8.23
8/15/2023 10:45:00 AM 19.99 67.982 1.145 8.02 8.19 8.29
8/15/2023 11:00:00 AM 20 68 1.136 8.03 8.58 8.29
8/15/2023 11:15:00 AM 20.04 68.07201 1.129 8.03 7.69 8.38
8/15/2023 11:30:00 AM 20.08 68.144 1.12 8.03 7.6 8.45
8/15/2023 11:45:00 AM 20.13 68.234 1.111 8.04 7.25 8.55
8/15/2023 12:00:00 PM 20.15 68.27 1.102 8.05 7.24 8.6
8/15/2023 12:15:00 PM 20.2 68.36 1.093 8.06 7.13 8.68
8/15/2023 12:30:00 PM 20.31 68.558 1.086 8.07 6.81 8.82
8/15/2023 12:45:00 PM 20.45 68.81 1.081 8.08 6.77 8.94
8/15/2023 1:00:00 PM 20.6 69.08 1.077 8.09 6.93 9.02
8/15/2023 1:15:00 PM 20.7 69.26 1.076 8.09 6.85 9.01
8/15/2023 1:30:00 PM 20.85 69.53 1.077 8.1 6.64 9.02
8/15/2023 1:45:00 PM 21.1 69.98 1.082 8.11 6.32 9.1
8/15/2023 2:00:00 PM 21.37 70.466 1.09 8.12 6.06 9.2
8/15/2023 2:15:00 PM 21.58 70.844 1.102 8.13 5.85 9.11
8/15/2023 2:30:00 PM 21.72 71.096 1.116 8.13 6.1 9.12
8/15/2023 2:45:00 PM 21.86 71.348 1.135 8.12 6.37 8.98
8/15/2023 3:00:00 PM 22.04 71.672 1.154 8.12 6.1 8.86
8/15/2023 3:15:00 PM 22.2 71.96 1.174 8.13 6.28 8.93
8/15/2023 3:30:00 PM 22.27 72.086 1.196 8.13 5.85 8.83
8/15/2023 3:45:00 PM 22.36 72.248 1.216 8.12 6 8.73
8/15/2023 4:00:00 PM 22.47 72.446 1.236 8.12 6.22 8.72
8/15/2023 4:15:00 PM 22.54 72.57201 1.252 8.12 6.38 8.57
8/15/2023 4:30:00 PM 22.62 72.716 1.266 8.12 6.69 8.57
8/15/2023 4:45:00 PM 22.69 72.842 1.276 8.12 6.76 8.52
8/15/2023 5:00:00 PM 22.76 72.968 1.282 8.12 7 8.48
8/15/2023 5:15:00 PM 22.85 73.13 1.285 8.12 7.24 8.45
8/15/2023 5:30:00 PM 22.9 73.22 1.288 8.12 6.88 8.35
8/15/2023 5:45:00 PM 22.94 73.292 1.289 8.12 6.11 8.3
8/15/2023 6:00:00 PM 22.96 73.328 1.288 8.12 6.75 8.23
8/15/2023 6:15:00 PM 22.97 73.346 1.287 8.11 6.56 8.19
8/15/2023 6:30:00 PM 22.95 73.31 1.287 8.11 6.26 8.12
8/15/2023 6:45:00 PM 22.92 73.256 1.285 8.11 6.41 8.05
8/15/2023 7:00:00 PM 22.89 73.202 1.283 8.1 6.18 7.95
8/15/2023 7:15:00 PM 22.84 73.112 1.282 8.1 6.57 7.91
8/15/2023 7:30:00 PM 22.8 73.04 1.28 8.1 7.81 7.87
8/15/2023 7:45:00 PM 22.75 72.95 1.279 8.09 7.55 7.79
8/15/2023 8:00:00 PM 22.68 72.824 1.277 8.08 7.95 7.73
8/15/2023 8:15:00 PM 22.61 72.698 1.276 8.08 7.5 7.67
8/15/2023 8:30:00 PM 22.53 72.554 1.275 8.07 9.24 7.61
8/15/2023 8:45:00 PM 22.46 72.42799 1.277 8.07 8.92 7.55
8/15/2023 9:00:00 PM 22.38 72.284 1.28 8.06 8.9 7.5
8/15/2023 9:15:00 PM 22.32 72.176 1.286 8.05 9.29 7.43
8/15/2023 9:30:00 PM 22.25 72.05 1.294 8.04 12.38 7.4
8/15/2023 9:45:00 PM 22.19 71.942 1.304 8.04 10.84 7.35
8/15/2023 10:00:00 PM 22.13 71.834 1.312 8.03 10.57 7.3
8/15/2023 10:15:00 PM 22.08 71.744 1.319 8.03 9.99 7.3
8/15/2023 10:30:00 PM 22.02 71.636 1.324 8.03 11.25 7.29
8/15/2023 10:45:00 PM 21.95 71.51 1.325 8.02 11.25 7.27
8/15/2023 11:00:00 PM 21.88 71.384 1.323 8.02 12.2 7.25
8/15/2023 11:15:00 PM 21.8 71.24 1.318 8.02 12.85 7.2
8/15/2023 11:30:00 PM 21.72 71.096 1.312 8.01 14.73 7.21
8/15/2023 11:45:00 PM 21.63 70.934 1.304 8.01 14.01 7.22
8/16/2023 12:00:00 AM 21.54 70.772 1.297 7.99 12.89 7.21
8/16/2023 12:15:00 AM 21.45 70.61 1.294 7.99 13.49 7.15
8/16/2023 12:30:00 AM 21.35 70.43 1.29 7.99 13.62 7.18
8/16/2023 12:45:00 AM 21.27 70.286 1.289 7.99 14.13 7.15
8/16/2023 1:00:00 AM 21.17 70.106 1.292 7.98 13.98 7.14
8/16/2023 1:15:00 AM 21.09 69.962 1.295 7.97 15.01 7.12
8/16/2023 1:30:00 AM 21.01 69.818 1.298 7.97 13.93 7.13
8/16/2023 1:45:00 AM 20.93 69.674 1.303 7.97 13.73 7.09
8/16/2023 2:00:00 AM 20.87 69.566 1.31 7.96 12.17 7.09
8/16/2023 2:15:00 AM 20.8 69.44 1.319 7.96 12.69 7.08
8/16/2023 2:30:00 AM 20.75 69.35 1.325 7.96 17.46 7.04
8/16/2023 2:45:00 AM 20.69 69.242 1.333 7.95 12.66 7.06
8/16/2023 3:00:00 AM 20.65 69.17 1.339 7.95 14.24 7.04
8/16/2023 3:15:00 AM 20.6 69.08 1.346 7.95 13.77 7.03
8/16/2023 3:30:00 AM 20.55 68.99 1.352 7.95 14.17 7.04
8/16/2023 3:45:00 AM 20.5 68.9 1.356 7.95 12.98 7.03
8/16/2023 4:00:00 AM 20.46 68.828 1.36 7.95 13.13 7.03
8/16/2023 4:15:00 AM 20.41 68.738 1.364 7.95 12.15 7.03
8/16/2023 4:30:00 AM 20.36 68.648 1.365 7.95 13.12 7.06
8/16/2023 4:45:00 AM 20.31 68.558 1.366 7.95 11.84 7.02
8/16/2023 5:00:00 AM 20.26 68.468 1.369 7.95 12.09 7.03
8/16/2023 5:15:00 AM 20.21 68.378 1.371 7.95 12.41 7.03
8/16/2023 5:30:00 AM 20.17 68.306 1.371 7.94 12.98 7.02
8/16/2023 5:45:00 AM 20.12 68.216 1.371 7.94 13.01 7.03
8/16/2023 6:00:00 AM 20.07 68.126 1.371 7.94 12.43 7.04
8/16/2023 6:15:00 AM 20.01 68.018 1.37 7.94 15.09 7.07
8/16/2023 6:30:00 AM 19.97 67.946 1.369 7.94 13.15 7.04
8/16/2023 6:45:00 AM 19.93 67.874 1.366 7.94 13.06 7.05
8/16/2023 7:00:00 AM 19.88 67.784 1.363 7.94 11.72 7.07
8/16/2023 7:15:00 AM 19.84 67.712 1.359 7.95 12.37 7.14
8/16/2023 7:30:00 AM 19.8 67.64 1.354 7.95 11.43 7.16
8/16/2023 7:45:00 AM 19.76 67.568 1.347 7.95 10.83 7.19
8/16/2023 8:00:00 AM 19.73 67.514 1.34 7.96 9.84 7.25
8/16/2023 8:15:00 AM 19.7 67.46 1.332 7.96 9.32 7.28
8/16/2023 8:30:00 AM 19.67 67.406 1.323 7.96 8.48 7.32
8/16/2023 8:45:00 AM 19.64 67.352 1.313 7.96 8.27 7.35
8/16/2023 9:00:00 AM 19.62 67.316 1.303 7.97 8.58 7.44
8/16/2023 9:15:00 AM 19.62 67.316 1.289 7.98 7.86 7.52
8/16/2023 9:30:00 AM 19.64 67.352 1.275 7.98 7.86 7.57
8/16/2023 9:45:00 AM 19.67 67.406 1.26 7.99 8.21 7.7
8/16/2023 10:00:00 AM 19.71 67.478 1.243 8 7.88 7.82
8/16/2023 10:15:00 AM 19.76 67.568 1.225 8 7.71 7.94
8/16/2023 10:30:00 AM 19.81 67.658 1.207 8.01 7.7 8.06
8/16/2023 10:45:00 AM 19.87 67.766 1.19 8.02 7.69 8.16
8/16/2023 11:00:00 AM 19.93 67.874 1.173 8.03 8.43 8.29
8/16/2023 11:15:00 AM 20 68 1.159 8.05 8.2 8.37
8/16/2023 11:30:00 AM 20.03 68.054 1.149 8.05 7.94 8.47
8/16/2023 11:45:00 AM 20.05 68.09 1.144 8.05 7.26 8.53
8/16/2023 12:00:00 PM 18.85 65.93 1.072 7.56 7.17 8.08
8/16/2023 12:15:00 PM 19.9 67.82 1.131 7.98 7.22 8.55
8/16/2023 12:30:00 PM 20.11 68.198 1.14 8.05 7.04 8.7
8/16/2023 12:45:00 PM 20.22 68.396 1.142 8.07 7.28 8.83
8/16/2023 1:00:00 PM 20.31 68.558 1.142 8.08 6.75 8.91
8/16/2023 1:15:00 PM 20.38 68.684 1.141 8.08 7.19 8.93
8/16/2023 1:30:00 PM 20.48 68.864 1.139 8.09 6.11 8.94
8/16/2023 1:45:00 PM 20.61 69.098 1.138 8.1 6.75 9.03
8/16/2023 2:00:00 PM 20.77 69.386 1.139 8.11 6.05 9.13
8/16/2023 2:15:00 PM 20.89 69.602 1.145 8.13 6.21 9.18
8/16/2023 2:30:00 PM 20.94 69.692 1.154 8.13 6.64 9.14
8/16/2023 2:45:00 PM 21.05 69.89 1.168 8.13 5.88 9.12
8/16/2023 3:00:00 PM 21.18 70.124 1.187 8.14 6.77 9.18
8/16/2023 3:15:00 PM 21.3 70.34 1.206 8.15 6.36 9.17
8/16/2023 3:30:00 PM 21.44 70.592 1.227 8.15 5.82 9.18
8/16/2023 3:45:00 PM 21.55 70.79 1.248 8.15 5.91 9.16
8/16/2023 4:00:00 PM 21.68 71.024 1.268 8.16 6.05 9.16
8/16/2023 4:15:00 PM 21.8 71.24 1.284 8.17 5.75 9.11
8/16/2023 4:30:00 PM 21.94 71.492 1.297 8.17 5.6 9.06
8/16/2023 4:45:00 PM 22.05 71.69 1.304 8.17 5.72 9.01
8/16/2023 5:00:00 PM 22.14 71.852 1.308 8.17 5.74 8.92
8/16/2023 5:15:00 PM 22.21 71.978 1.31 8.17 5.5 8.87
8/16/2023 5:30:00 PM 22.25 72.05 1.31 8.17 5.25 8.81
8/16/2023 5:45:00 PM 22.27 72.086 1.308 8.17 5.52 8.75
8/16/2023 6:00:00 PM 22.27 72.086 1.307 8.16 5.81 8.68
8/16/2023 6:15:00 PM 22.25 72.05 1.307 8.16 5.2 8.61
8/16/2023 6:30:00 PM 22.23 72.014 1.308 8.16 5.3 8.54
8/16/2023 6:45:00 PM 22.21 71.978 1.31 8.15 5.39 8.45
8/16/2023 7:00:00 PM 22.18 71.924 1.314 8.15 5.22 8.38
8/16/2023 7:15:00 PM 22.16 71.888 1.318 8.14 5.61 8.3
8/16/2023 7:30:00 PM 22.13 71.834 1.325 8.13 7.29 8.19
8/16/2023 7:45:00 PM 22.1 71.78 1.333 8.12 7.14 8.1
8/16/2023 8:00:00 PM 22.06 71.708 1.34 8.12 8.19 8.05
8/16/2023 8:15:00 PM 22.02 71.636 1.347 8.11 7.4 7.97
8/16/2023 8:30:00 PM 21.96 71.528 1.356 8.11 7.68 7.91
8/16/2023 8:45:00 PM 21.9 71.42 1.362 8.1 9.79 7.84
8/16/2023 9:00:00 PM 21.84 71.312 1.367 8.09 9.57 7.77
8/16/2023 9:15:00 PM 21.77 71.186 1.369 8.09 9.02 7.75
8/16/2023 9:30:00 PM 21.71 71.078 1.368 8.08 10.22 7.72
8/16/2023 9:45:00 PM 21.63 70.934 1.363 8.08 9.78 7.68
8/16/2023 10:00:00 PM 21.55 70.79 1.355 8.07 10.53 7.67
8/16/2023 10:15:00 PM 21.47 70.646 1.344 8.07 9.94 7.62
8/16/2023 10:30:00 PM 21.37 70.466 1.332 8.06 10.71 7.59
8/16/2023 10:45:00 PM 21.27 70.286 1.318 8.06 11.87 7.56
8/16/2023 11:00:00 PM 21.17 70.106 1.307 8.05 12.7 7.55
8/16/2023 11:15:00 PM 21.06 69.908 1.298 8.04 13 7.54
8/16/2023 11:30:00 PM 20.95 69.71 1.291 8.03 15.33 7.53
8/16/2023 11:45:00 PM 20.84 69.512 1.286 8.03 15.97 7.5
8/17/2023 12:00:00 AM 20.74 69.332 1.283 8.02 15.14 7.49
8/17/2023 12:15:00 AM 20.64 69.152 1.282 8.02 16.04 7.45
8/17/2023 12:30:00 AM 20.54 68.972 1.282 8.01 13.98 7.44
8/17/2023 12:45:00 AM 20.45 68.81 1.284 8.01 13.78 7.44
8/17/2023 1:00:00 AM 20.36 68.648 1.287 8 13 7.42
8/17/2023 1:15:00 AM 20.28 68.504 1.291 8 12.82 7.39
8/17/2023 1:30:00 AM 20.2 68.36 1.294 7.99 13.8 7.37
8/17/2023 1:45:00 AM 20.12 68.216 1.297 7.99 12.76 7.35
8/17/2023 2:00:00 AM 20.05 68.09 1.301 7.98 13.94 7.32
8/17/2023 2:15:00 AM 19.98 67.964 1.305 7.98 13.64 7.31
8/17/2023 2:30:00 AM 19.91 67.838 1.31 7.97 13.88 7.32
8/17/2023 2:45:00 AM 19.85 67.73 1.313 7.97 13.3 7.31
8/17/2023 3:00:00 AM 19.79 67.622 1.314 7.97 13.55 7.3
8/17/2023 3:15:00 AM 19.73 67.514 1.316 7.97 14.49 7.31
8/17/2023 3:30:00 AM 19.67 67.406 1.317 7.97 13.91 7.3
8/17/2023 3:45:00 AM 19.61 67.298 1.319 7.96 12.41 7.3
8/17/2023 4:00:00 AM 19.56 67.208 1.32 7.96 12.45 7.28
8/17/2023 4:15:00 AM 19.5 67.1 1.321 7.96 12.5 7.29
8/17/2023 4:30:00 AM 19.45 67.01 1.323 7.96 11.25 7.28
8/17/2023 4:45:00 AM 19.39 66.902 1.325 7.96 12.59 7.3
8/17/2023 5:00:00 AM 19.34 66.812 1.326 7.96 15.37 7.29
8/17/2023 5:15:00 AM 19.29 66.722 1.327 7.96 16.87 7.3
8/17/2023 5:30:00 AM 19.25 66.65 1.329 7.96 17.25 7.27
8/17/2023 5:45:00 AM 19.2 66.56 1.33 7.96 21.04 7.28
8/17/2023 6:00:00 AM 19.15 66.47 1.332 7.96 22.23 7.3
8/17/2023 6:15:00 AM 19.1 66.38 1.332 7.96 19.23 7.31
8/17/2023 6:30:00 AM 19.06 66.308 1.333 7.96 22.04 7.32
8/17/2023 6:45:00 AM 19.01 66.218 1.332 7.96 17.06 7.34
8/17/2023 7:00:00 AM 18.98 66.164 1.331 7.96 14.4 7.37
8/17/2023 7:15:00 AM 18.94 66.092 1.328 7.96 14.02 7.41
8/17/2023 7:30:00 AM 18.91 66.038 1.324 7.96 12.97 7.43
8/17/2023 7:45:00 AM 18.88 65.984 1.318 7.97 11.88 7.48
8/17/2023 8:00:00 AM 18.87 65.966 1.311 7.97 11.1 7.51
8/17/2023 8:15:00 AM 18.86 65.948 1.303 7.97 9.76 7.54
8/17/2023 8:30:00 AM 18.86 65.948 1.294 7.98 10.13 7.62
8/17/2023 8:45:00 AM 18.86 65.948 1.284 7.98 9.63 7.71
8/17/2023 9:00:00 AM 18.87 65.966 1.273 7.99 9.36 7.78
8/17/2023 9:15:00 AM 18.9 66.02 1.261 8 9.54 7.89
8/17/2023 9:30:00 AM 18.94 66.092 1.247 8.01 8.88 8.01
8/17/2023 9:45:00 AM 18.99 66.182 1.232 8.02 9.02 8.11
8/17/2023 10:00:00 AM 19.05 66.29 1.218 8.02 9.21 8.22
8/17/2023 10:15:00 AM 19.12 66.416 1.202 8.04 12.54 8.3
8/17/2023 10:30:00 AM 19.17 66.506 1.185 8.05 8.72 8.37
8/17/2023 10:45:00 AM 19.16 66.488 1.178 7.82 7.8 8.72
8/17/2023 11:00:00 AM 19.21 66.578 1.163 7.85 7.98 8.77
8/17/2023 11:15:00 AM 19.23 66.614 1.151 7.85 7.32 8.82
8/17/2023 11:30:00 AM 19.29 66.722 1.142 7.85 7.47 9
8/17/2023 11:45:00 AM 19.31 66.758 1.136 7.84 6.97 9.14
8/17/2023 12:00:00 PM 19.35 66.83 1.134 7.85 7.23 9.24
8/17/2023 12:15:00 PM 19.4 66.92 1.134 7.85 6.76 9.27
8/17/2023 12:30:00 PM 19.5 67.1 1.134 7.86 7.11 9.3
8/17/2023 12:45:00 PM 19.69 67.442 1.135 7.87 6.75 9.38
8/17/2023 1:00:00 PM 19.81 67.658 1.134 7.88 6.6 9.4
8/17/2023 1:15:00 PM 19.93 67.874 1.134 7.89 5.68 9.42
8/17/2023 1:30:00 PM 20 68 1.134 7.87 6.68 9.33
8/17/2023 1:45:00 PM 20.12 68.216 1.137 7.89 6.02 9.35
8/17/2023 2:00:00 PM 20.31 68.558 1.144 7.91 5.88 9.48
8/17/2023 2:15:00 PM 20.47 68.846 1.158 7.92 5.71 9.57
8/17/2023 2:30:00 PM 20.59 69.062 1.177 7.93 5.78 9.58
8/17/2023 2:45:00 PM 20.67 69.206 1.205 7.93 5.61 9.5
8/17/2023 3:00:00 PM 20.84 69.512 1.23 7.94 5.03 9.51
8/17/2023 3:15:00 PM 21.02 69.836 1.257 7.94 5.04 9.52
8/17/2023 3:30:00 PM 21.18 70.124 1.283 7.95 5.07 9.48
8/17/2023 3:45:00 PM 21.32 70.376 1.314 7.95 5.69 9.35
8/17/2023 4:00:00 PM 21.44 70.592 1.34 7.95 5.16 9.26
8/17/2023 4:15:00 PM 21.6 70.88 1.366 7.96 5.14 9.25
8/17/2023 4:30:00 PM 21.74 71.132 6.896 7.97 4.9 9.06
8/17/2023 4:45:00 PM 21.82 71.276 5.803 7.97 4.91 8.98
8/17/2023 5:00:00 PM 21.86 71.348 5.396 7.97 5.17 8.87
8/17/2023 5:15:00 PM 21.87 71.366 5.136 7.96 5.1 8.79
8/17/2023 5:30:00 PM 21.89 71.402 4.938 7.96 4.93 8.77
8/17/2023 5:45:00 PM 21.92 71.456 4.971 7.96 4.9 8.71
8/17/2023 6:00:00 PM 21.93 71.474 4.918 7.96 5.07 8.6
8/17/2023 6:15:00 PM 21.93 71.474 4.936 7.96 4.88 8.52
8/17/2023 6:30:00 PM 21.94 71.492 4.755 7.95 5.18 8.46
8/17/2023 6:45:00 PM 21.96 71.528 4.749 7.95 5.15 8.38
8/17/2023 7:00:00 PM 21.98 71.564 4.815 7.95 4.78 8.3
8/17/2023 7:15:00 PM 21.99 71.582 4.695 7.94 5.59 8.23
8/17/2023 7:30:00 PM 21.99 71.582 4.722 7.94 5.34 8.15
8/17/2023 7:45:00 PM 21.97 71.546 4.683 7.93 5.03 8.09
8/17/2023 8:00:00 PM 21.94 71.492 4.671 7.93 5.18 8.03
8/17/2023 8:15:00 PM 21.9 71.42 4.65 7.92 5.95 7.97
8/17/2023 8:30:00 PM 21.84 71.312 4.698 7.91 6.28 7.91
8/17/2023 8:45:00 PM 21.79 71.222 4.539 7.91 7.7 7.86
8/17/2023 9:00:00 PM 21.73 71.114 4.503 7.9 8.47 7.82
8/17/2023 9:15:00 PM 21.68 71.024 4.544 7.9 8.65 7.78
8/17/2023 9:30:00 PM 21.62 70.916 4.526 7.89 8.83 7.76
8/17/2023 9:45:00 PM 21.56 70.808 4.579 7.89 9.37 7.72
8/17/2023 10:00:00 PM 21.5 70.7 4.582 7.88 8.82 7.69
8/17/2023 10:15:00 PM 21.44 70.592 4.6 7.88 9.53 7.66
8/17/2023 10:30:00 PM 21.38 70.484 4.483 7.87 12.81 7.62
8/17/2023 10:45:00 PM 21.3 70.34 4.453 7.86 13.04 7.6
8/17/2023 11:00:00 PM 21.23 70.214 4.391 7.86 12.44 7.57
8/17/2023 11:15:00 PM 21.16 70.088 4.535 7.85 11.99 7.53
8/17/2023 11:30:00 PM 21.09 69.962 4.405 7.85 11.55 7.52
8/17/2023 11:45:00 PM 21.01 69.818 4.47 7.84 12.22 7.5
8/18/2023 12:00:00 AM 20.93 69.674 4.552 7.83 12.89 7.48
8/18/2023 12:15:00 AM 20.86 69.548 4.549 7.83 12.66 7.45
8/18/2023 12:30:00 AM 20.8 69.44 4.487 7.82 12.65 7.42
8/18/2023 12:45:00 AM 20.74 69.332 4.496 7.82 12.64 7.41
8/18/2023 1:00:00 AM 20.68 69.224 4.546 7.81 12.78 7.39
8/18/2023 1:15:00 AM 20.62 69.116 4.554 7.81 12.74 7.37
8/18/2023 1:30:00 AM 20.58 69.044 4.626 7.8 13.59 7.34
8/18/2023 1:45:00 AM 20.54 68.972 4.675 7.8 14.05 7.31
8/18/2023 2:00:00 AM 20.5 68.9 4.525 7.79 13.53 7.3
8/18/2023 2:15:00 AM 20.46 68.828 4.484 7.79 13.71 7.28
8/18/2023 2:30:00 AM 20.44 68.792 4.556 7.78 13.73 7.26
8/18/2023 2:45:00 AM 20.41 68.738 4.549 7.78 13.34 7.24
8/18/2023 3:00:00 AM 20.37 68.666 4.465 7.78 13.75 7.24
8/18/2023 3:15:00 AM 20.34 68.612 4.454 7.77 13.1 7.21
8/18/2023 3:30:00 AM 20.31 68.558 4.439 7.77 13.87 7.2
8/18/2023 3:45:00 AM 20.29 68.522 4.427 7.77 13.68 7.19
8/18/2023 4:00:00 AM 20.27 68.486 4.419 7.76 12.74 7.19
8/18/2023 4:15:00 AM 20.25 68.45 4.564 7.77 12.62 7.18
8/18/2023 4:30:00 AM 20.22 68.396 4.548 7.77 12.23 7.18
8/18/2023 4:45:00 AM 20.19 68.342 4.441 7.76 11.76 7.18
8/18/2023 5:00:00 AM 20.15 68.27 4.526 7.77 12.43 7.19
8/18/2023 5:15:00 AM 20.11 68.198 1.391 7.77 12.92 7.26
8/18/2023 5:30:00 AM 20.06 68.108 4.554 7.77 14.09 7.19
8/18/2023 5:45:00 AM 20.01 68.018 4.583 7.77 12.42 7.2
8/18/2023 6:00:00 AM 19.97 67.946 4.545 7.77 12.51 7.2
8/18/2023 6:15:00 AM 19.91 67.838 3.286 7.77 11.89 7.24
8/18/2023 6:30:00 AM 19.86 67.748 4.769 7.78 11.17 7.23
8/18/2023 6:45:00 AM 19.8 67.64 3.852 7.78 10.3 7.27
8/18/2023 7:00:00 AM 19.75 67.55 4.885 7.78 9.66 7.27
8/18/2023 7:15:00 AM 19.71 67.478 4.827 7.78 8.94 7.29
8/18/2023 7:30:00 AM 19.68 67.424 5.883 7.78 9.06 7.32
8/18/2023 7:45:00 AM 19.65 67.37 5.886 7.79 8.65 7.36
8/18/2023 8:00:00 AM 19.63 67.334 4.571 7.79 7.86 7.46
8/18/2023 8:15:00 AM 19.61 67.298 5.605 7.8 7.84 7.48
8/18/2023 8:30:00 AM 19.6 67.28 5.397 7.8 8.19 7.54
8/18/2023 8:45:00 AM 19.57 67.226 4.717 7.8 8.27 7.6
8/18/2023 9:00:00 AM 19.55 67.19 4.563 7.81 9.01 7.64
8/18/2023 9:15:00 AM 19.55 67.19 6.286 7.81 9.34 7.66
8/18/2023 9:30:00 AM 19.55 67.19 6.09 7.82 8.85 7.74
8/18/2023 9:45:00 AM 19.55 67.19 6.056 7.83 8.62 7.84
8/18/2023 10:00:00 AM 19.57 67.226 5.848 7.84 8.08 7.97
8/18/2023 10:15:00 AM 19.61 67.298 5.754 7.84 7.32 8.09
8/18/2023 10:30:00 AM 19.66 67.388 5.639 7.85 7.67 8.23
8/18/2023 10:45:00 AM 19.75 67.55 5.627 7.86 7.53 8.36
8/18/2023 11:00:00 AM 19.82 67.676 5.674 7.87 7.26 8.46
8/18/2023 11:15:00 AM 19.9 67.82 5.766 7.88 7.31 8.55
8/18/2023 11:30:00 AM 19.91 67.838 5.707 7.89 7.43 8.58
8/18/2023 11:45:00 AM 19.9 67.82 5.639 7.89 7.7 8.58
8/18/2023 12:00:00 PM 19.93 67.874 5.52 7.89 7.17 8.62
8/18/2023 12:15:00 PM 20.05 68.09 5.649 7.9 7.42 8.77
8/18/2023 12:30:00 PM 20.12 68.216 5.65 7.91 6.97 8.88
8/18/2023 12:45:00 PM 20.19 68.342 5.635 7.92 7.03 8.96
8/18/2023 1:00:00 PM 20.25 68.45 5.585 7.92 6.88 9.02
8/18/2023 1:15:00 PM 20.25 68.45 5.653 7.93 7.17 8.99
8/18/2023 1:30:00 PM 20.41 68.738 5.603 7.92 7.31 9.08
8/18/2023 1:45:00 PM 20.52 68.936 5.588 7.95 7.02 9.15
8/18/2023 2:00:00 PM 20.63 69.134 5.989 7.95 6.6 9.17
8/18/2023 2:15:00 PM 20.73 69.314 5.892 7.95 6.28 9.21
8/18/2023 2:30:00 PM 20.84 69.512 5.884 7.97 6.6 9.26
8/18/2023 2:45:00 PM 20.98 69.764 5.806 7.98 6.38 9.33
8/18/2023 3:00:00 PM 21.06 69.908 5.926 7.98 6.6 9.31
8/18/2023 3:15:00 PM 21.16 70.088 5.939 7.99 6.35 9.28
8/18/2023 3:30:00 PM 21.28 70.304 5.946 7.99 6.42 9.27
8/18/2023 3:45:00 PM 21.42 70.556 5.989 8 6.24 9.26
8/18/2023 4:00:00 PM 21.52 70.736 6.001 8 6.15 9.23
8/18/2023 4:15:00 PM 21.59 70.862 5.953 8 6.31 9.16
8/18/2023 4:30:00 PM 21.63 70.934 5.862 8 6.56 9.09
8/18/2023 4:45:00 PM 21.69 71.042 5.901 8 6.89 9.04
8/18/2023 5:00:00 PM 21.72 71.096 5.902 8 6.82 8.97
8/18/2023 5:15:00 PM 21.71 71.078 5.833 8 7.44 8.88
8/18/2023 5:30:00 PM 21.66 70.988 5.926 8 6.8 8.8
8/18/2023 5:45:00 PM 21.61 70.898 5.978 7.99 5.98 8.74
8/18/2023 6:00:00 PM 21.57 70.826 5.958 7.99 5.7 8.68
8/18/2023 6:15:00 PM 21.52 70.736 5.966 7.99 5.92 8.6
8/18/2023 6:30:00 PM 21.48 70.664 5.924 7.98 5.51 8.54
8/18/2023 6:45:00 PM 21.43 70.574 5.918 7.98 5.83 8.48
8/18/2023 7:00:00 PM 21.4 70.52 5.914 7.98 5.83 8.42
8/18/2023 7:15:00 PM 21.36 70.448 5.978 7.97 5.47 8.36
8/18/2023 7:30:00 PM 21.31 70.358 5.883 7.97 5.53 8.31
8/18/2023 7:45:00 PM 21.27 70.286 5.916 7.96 5.63 8.25
8/18/2023 8:00:00 PM 21.22 70.196 5.921 7.96 5.68 8.2
8/18/2023 8:15:00 PM 21.17 70.106 5.912 7.95 6.16 8.14
8/18/2023 8:30:00 PM 21.12 70.016 5.951 7.95 7.29 8.08
8/18/2023 8:45:00 PM 21.07 69.926 5.914 7.94 7.8 8.04
8/18/2023 9:00:00 PM 21.02 69.836 5.826 7.94 8.6 8
8/18/2023 9:15:00 PM 20.96 69.728 5.813 7.93 8.5 7.97
8/18/2023 9:30:00 PM 20.89 69.602 5.794 7.93 8.72 7.93
8/18/2023 9:45:00 PM 20.82 69.476 5.824 7.93 8.44 7.9
8/18/2023 10:00:00 PM 20.74 69.332 5.783 7.92 8.7 7.88
8/18/2023 10:15:00 PM 20.67 69.206 5.769 7.92 9.36 7.86
8/18/2023 10:30:00 PM 20.58 69.044 5.75 7.91 9.73 7.85
8/18/2023 10:45:00 PM 20.49 68.882 5.728 7.91 9.85 7.83
8/18/2023 11:00:00 PM 20.39 68.702 5.783 7.9 10.92 7.81
8/18/2023 11:15:00 PM 20.28 68.504 5.767 7.9 12.82 7.79
8/18/2023 11:30:00 PM 20.15 68.27 5.776 7.89 11.51 7.77
8/18/2023 11:45:00 PM 20.03 68.054 5.747 7.88 10.6 7.76
8/19/2023 12:00:00 AM 19.9 67.82 5.674 7.88 11.73 7.75
8/19/2023 12:15:00 AM 19.78 67.604 5.646 7.87 12.94 7.73
8/19/2023 12:30:00 AM 19.65 67.37 5.68 7.86 13.59 7.7
8/19/2023 12:45:00 AM 19.52 67.136 5.672 7.85 14.69 7.68
8/19/2023 1:00:00 AM 19.4 66.92 5.748 7.85 15.15 7.67
8/19/2023 1:15:00 AM 19.28 66.704 5.736 7.84 13.98 7.65
8/19/2023 1:30:00 AM 19.16 66.488 5.708 7.83 14.19 7.64
8/19/2023 1:45:00 AM 19.05 66.29 5.724 7.83 14.83 7.64
8/19/2023 2:00:00 AM 18.96 66.128 5.661 7.82 13.56 7.62
8/19/2023 2:15:00 AM 18.85 65.93 5.64 7.82 14.2 7.62
8/19/2023 2:30:00 AM 18.77 65.786 5.679 7.82 13.18 7.62
8/19/2023 2:45:00 AM 18.68 65.624 5.713 7.81 12.27 7.61
8/19/2023 3:00:00 AM 18.59 65.462 5.722 7.81 14.09 7.6
8/19/2023 3:15:00 AM 18.51 65.318 5.784 7.81 13.56 7.6
8/19/2023 3:30:00 AM 18.43 65.174 5.776 7.81 12.72 7.61
8/19/2023 3:45:00 AM 18.35 65.03 5.802 7.81 13.18 7.61
8/19/2023 4:00:00 AM 18.28 64.904 5.766 7.8 12.65 7.61
8/19/2023 4:15:00 AM 18.21 64.778 5.742 7.8 12.95 7.61
8/19/2023 4:30:00 AM 18.13 64.634 5.776 7.8 14.05 7.62
8/19/2023 4:45:00 AM 18.06 64.508 5.751 7.8 14.51 7.63
8/19/2023 5:00:00 AM 17.98 64.364 5.72 7.8 16.55 7.63
8/19/2023 5:15:00 AM 17.91 64.238 5.742 7.8 17.06 7.64
8/19/2023 5:30:00 AM 17.84 64.112 5.702 7.8 16.39 7.65
8/19/2023 5:45:00 AM 17.75 63.95 5.723 7.8 16.6 7.67
8/19/2023 6:00:00 AM 17.68 63.824 5.707 7.8 16.16 7.67
8/19/2023 6:15:00 AM 17.61 63.698 5.723 7.8 15.58 7.68
8/19/2023 6:30:00 AM 17.54 63.572 5.74 7.79 15.88 7.69
8/19/2023 6:45:00 AM 17.48 63.464 5.706 7.79 15.08 7.72
8/19/2023 7:00:00 AM 17.41 63.338 5.678 7.79 14.71 7.75
8/19/2023 7:15:00 AM 17.36 63.248 5.693 7.8 14.18 7.79
8/19/2023 7:30:00 AM 17.31 63.158 5.682 7.8 12.51 7.82
8/19/2023 7:45:00 AM 17.27 63.086 5.703 7.8 11.55 7.87
8/19/2023 8:00:00 AM 17.24 63.032 5.654 7.81 11.02 7.91
8/19/2023 8:15:00 AM 17.22 62.996 5.628 7.81 9.69 7.96
8/19/2023 8:30:00 AM 17.21 62.978 5.633 7.81 9.39 8
8/19/2023 8:45:00 AM 17.2 62.96 5.603 7.82 9.01 8.05
8/19/2023 9:00:00 AM 17.2 62.96 5.563 7.82 8.83 8.13
8/19/2023 9:15:00 AM 17.23 63.014 5.527 7.83 8.77 8.2
8/19/2023 9:30:00 AM 17.26 63.068 5.51 7.84 8.58 8.28
8/19/2023 9:45:00 AM 17.32 63.176 5.459 7.84 8.47 8.38
8/19/2023 10:00:00 AM 17.39 63.302 5.442 7.85 8.18 8.51
8/19/2023 10:15:00 AM 17.46 63.428 5.4 7.86 8.54 8.63
8/19/2023 10:30:00 AM 17.54 63.572 5.362 7.87 8.44 8.74
8/19/2023 10:45:00 AM 17.63 63.734 5.338 7.88 8.73 8.85
8/19/2023 11:00:00 AM 17.74 63.932 5.283 7.89 8.66 8.96
8/19/2023 11:15:00 AM 17.84 64.112 5.222 7.9 8.27 9.05
8/19/2023 11:30:00 AM 17.94 64.292 5.176 7.91 8.32 9.12
8/19/2023 11:45:00 AM 18.04 64.472 5.123 7.91 7.95 9.2
8/19/2023 12:00:00 PM 18.14 64.652 5.109 7.92 8.01 9.27
8/19/2023 12:15:00 PM 18.26 64.868 5.066 7.92 7.66 9.32
8/19/2023 12:30:00 PM 18.39 65.102 5.039 7.93 7.53 9.4
8/19/2023 12:45:00 PM 18.54 65.372 5.028 7.93 7.82 9.45
8/19/2023 1:00:00 PM 18.71 65.67799 5.017 7.94 7.72 9.51
8/19/2023 1:15:00 PM 18.88 65.984 5.015 7.95 7.27 9.58
8/19/2023 1:30:00 PM 19.07 66.326 4.972 7.96 6.95 9.64
8/19/2023 1:45:00 PM 19.25 66.65 4.914 7.97 7.24 9.71
8/19/2023 2:00:00 PM 19.42 66.956 4.898 7.98 6.8 9.76
8/19/2023 2:15:00 PM 19.6 67.28 4.885 7.99 7.38 9.79
8/19/2023 2:30:00 PM 19.75 67.55 4.837 8 11.17 9.8
8/19/2023 2:45:00 PM 19.89 67.802 4.725 8 6.65 9.79
8/19/2023 3:00:00 PM 20.04 68.07201 4.716 8.01 7.14 9.78
8/19/2023 3:15:00 PM 20.2 68.36 4.775 8.01 6.84 9.75
8/19/2023 3:30:00 PM 20.34 68.612 4.808 8.02 6.43 9.73
8/19/2023 3:45:00 PM 20.48 68.864 4.833 8.02 6.5 9.68
8/19/2023 4:00:00 PM 20.6 69.08 4.817 8.02 6.49 9.62
8/19/2023 4:15:00 PM 20.73 69.314 4.82 8.02 6.32 9.55
8/19/2023 4:30:00 PM 20.85 69.53 4.866 8.02 6.64 9.48
8/19/2023 4:45:00 PM 20.96 69.728 4.92 8.03 7.26 9.41
8/19/2023 5:00:00 PM 21.05 69.89 4.924 8.03 8.07 9.34
8/19/2023 5:15:00 PM 21.14 70.052 4.89 8.02 6.39 9.26
8/19/2023 5:30:00 PM 21.19 70.142 4.927 8.03 6.81 9.18
8/19/2023 5:45:00 PM 21.23 70.214 4.905 8.03 6.22 9.1
8/19/2023 6:00:00 PM 21.24 70.232 4.882 8.03 5.88 9.02
8/19/2023 6:15:00 PM 21.24 70.232 4.909 8.02 5.77 8.93
8/19/2023 6:30:00 PM 21.23 70.214 4.834 8.02 5.58 8.86
8/19/2023 6:45:00 PM 21.23 70.214 4.864 8.02 6.36 8.79
8/19/2023 7:00:00 PM 21.2 70.16 4.895 8.01 5.98 8.71
8/19/2023 7:15:00 PM 21.17 70.106 4.884 8.01 6.06 8.64
8/19/2023 7:30:00 PM 21.14 70.052 4.891 8.01 5.94 8.57
8/19/2023 7:45:00 PM 21.1 69.98 4.89 8 7.37 8.51
8/19/2023 8:00:00 PM 21.06 69.908 4.833 8 6.17 8.44
8/19/2023 8:15:00 PM 21 69.8 4.874 7.99 7.15 8.38
8/19/2023 8:30:00 PM 20.94 69.692 4.899 7.99 8.19 8.31
8/19/2023 8:45:00 PM 20.86 69.548 4.918 7.98 9.57 8.26
8/19/2023 9:00:00 PM 20.79 69.422 4.915 7.98 9.58 8.2
8/19/2023 9:15:00 PM 20.71 69.278 4.893 7.97 10.28 8.17
8/19/2023 9:30:00 PM 20.63 69.134 4.89 7.97 10.03 8.12
8/19/2023 9:45:00 PM 20.54 68.972 4.886 7.96 10.23 8.09
8/19/2023 10:00:00 PM 20.45 68.81 4.904 7.96 10.28 8.06
8/19/2023 10:15:00 PM 20.35 68.63 4.899 7.94 11.3 8.05
8/19/2023 10:30:00 PM 20.26 68.468 4.86 7.94 10.87 8.02
8/19/2023 10:45:00 PM 20.17 68.306 5.02 7.94 10.75 7.99
8/19/2023 11:00:00 PM 20.07 68.126 4.77 7.93 11.6 7.96
8/19/2023 11:15:00 PM 19.97 67.946 4.656 7.92 12.19 7.94
8/19/2023 11:30:00 PM 19.87 67.766 4.545 7.92 13.26 7.91
8/19/2023 11:45:00 PM 19.77 67.586 5.54 7.91 13.19 7.9
8/20/2023 12:00:00 AM 19.66 67.388 4.935 7.9 12.63 7.85
8/20/2023 12:15:00 AM 19.56 67.208 5.251 7.9 13.32 7.84
8/20/2023 12:30:00 AM 19.46 67.028 4.293 7.88 14.55 7.82
8/20/2023 12:45:00 AM 19.35 66.83 4.832 7.88 15 7.79
8/20/2023 1:00:00 AM 19.24 66.632 4.834 7.87 15.22 7.78
8/20/2023 1:15:00 AM 19.13 66.434 5.62 7.86 14.05 7.76
8/20/2023 1:30:00 AM 19.02 66.236 4.793 7.86 13.5 7.74
8/20/2023 1:45:00 AM 18.93 66.074 4.139 7.85 13.47 7.72
8/20/2023 2:00:00 AM 18.84 65.912 3.948 7.84 13.58 7.72
8/20/2023 2:15:00 AM 18.74 65.732 4.587 7.84 13.57 7.74
8/20/2023 2:30:00 AM 18.65 65.57 4.338 7.83 21.05 7.71
8/20/2023 2:45:00 AM 18.57 65.426 4.218 7.83 20.24 7.7
8/20/2023 3:00:00 AM 18.5 65.3 5.143 7.82 19.54 7.66
8/20/2023 3:15:00 AM 18.43 65.174 4.586 7.82 17.43 7.66
8/20/2023 3:30:00 AM 18.35 65.03 7.231 7.82 16.96 7.67
8/20/2023 3:45:00 AM 18.28 64.904 4.799 7.82 16.81 7.7
8/20/2023 4:00:00 AM 18.21 64.778 4.811 7.82 15.35 7.68
8/20/2023 4:15:00 AM 18.14 64.652 6.964 7.81 14.36 7.67
8/20/2023 4:30:00 AM 18.07 64.526 5.885 7.81 15.24 7.68
8/20/2023 4:45:00 AM 18.01 64.418 4.809 7.81 14.2 7.67
8/20/2023 5:00:00 AM 17.94 64.292 6.006 7.81 15.85 7.74
8/20/2023 5:15:00 AM 17.87 64.166 5.578 7.81 15.71 7.69
8/20/2023 5:30:00 AM 17.8 64.04 4.186 7.81 18.37 7.76
8/20/2023 5:45:00 AM 17.74 63.932 3.724 7.81 16.72 7.75
8/20/2023 6:00:00 AM 17.68 63.824 6.692 7.81 16.8 7.74
8/20/2023 6:15:00 AM 17.61 63.698 4.498 7.8 16.04 7.77
8/20/2023 6:30:00 AM 17.54 63.572 5.061 7.8 16.47 7.78
8/20/2023 6:45:00 AM 17.49 63.482 5.812 7.8 16.48 7.76
8/20/2023 7:00:00 AM 17.43 63.374 3.709 7.8 14.84 7.79
8/20/2023 7:15:00 AM 17.38 63.284 6.371 7.8 13.94 7.88
8/20/2023 7:30:00 AM 17.34 63.212 4.874 7.81 13.06 7.82
8/20/2023 7:45:00 AM 17.31 63.158 3.893 7.81 11.54 7.95
8/20/2023 8:00:00 AM 17.29 63.122 4.937 7.81 11.86 8
8/20/2023 8:15:00 AM 17.28 63.104 4.271 7.81 10.11 8.01
8/20/2023 8:30:00 AM 17.28 63.104 3.823 7.81 9.81 8.01
8/20/2023 8:45:00 AM 17.28 63.104 7.605 7.82 9.21 8.11
8/20/2023 9:00:00 AM 17.29 63.122 4.573 7.82 8.8 8.15
8/20/2023 9:15:00 AM 17.33 63.194 5.892 7.83 8.54 8.22
8/20/2023 9:30:00 AM 17.39 63.302 5.678 7.83 8.88 8.32
8/20/2023 9:45:00 AM 17.46 63.428 3.668 7.84 8.71 8.46
8/20/2023 10:00:00 AM 17.56 63.608 4.414 7.85 9.24 8.54
8/20/2023 10:15:00 AM 17.66 63.788 7.423 7.86 10.07 8.66
8/20/2023 10:30:00 AM 17.79 64.022 4.531 7.87 10.4 8.79
8/20/2023 10:45:00 AM 17.92 64.256 3.708 7.88 8.88 8.87
8/20/2023 11:00:00 AM 18.04 64.472 4.955 7.89 8.85 8.95
8/20/2023 11:15:00 AM 18.18 64.724 3.42 7.9 8.33 9.06
8/20/2023 11:30:00 AM 18.31 64.958 3.767 7.91 8.3 9.21
8/20/2023 11:45:00 AM 18.44 65.192 5.283 7.92 8.23 9.33
8/20/2023 12:00:00 PM 18.54 65.372 4.165 7.92 8.31 9.42
8/20/2023 12:15:00 PM 18.66 65.588 4.3 7.93 8.09 9.47
8/20/2023 12:30:00 PM 18.82 65.876 3.638 7.94 7.97 9.56
8/20/2023 12:45:00 PM 18.99 66.182 4.64 7.95 7.5 9.57
8/20/2023 1:00:00 PM 19.15 66.47 4.062 7.95 7.33 9.67
8/20/2023 1:15:00 PM 19.31 66.758 3.646 7.96 7.06 9.69
8/20/2023 1:30:00 PM 19.47 67.046 6.035 7.97 11.12 9.73
8/20/2023 1:45:00 PM 19.66 67.388 4.387 7.98 8.75 9.78
8/20/2023 2:00:00 PM 19.84 67.712 3.538 7.99 7.03 9.89
8/20/2023 2:15:00 PM 19.99 67.982 5.796 8 7.01 9.87
8/20/2023 2:30:00 PM 20.16 68.288 4.712 8 6.95 9.94
8/20/2023 2:45:00 PM 20.31 68.558 3.527 8.01 7.17 9.92
8/20/2023 3:00:00 PM 20.45 68.81 4.523 8.02 7.33 9.85
8/20/2023 3:15:00 PM 20.61 69.098 3.478 8.02 7.07 9.9
8/20/2023 3:30:00 PM 20.75 69.35 4.656 8.03 7.11 9.84
8/20/2023 3:45:00 PM 20.9 69.62 5.007 8.03 7.4 9.76
8/20/2023 4:00:00 PM 21.04 69.872 4.351 8.04 7.27 9.82
8/20/2023 4:15:00 PM 21.18 70.124 3.519 8.04 6.95 9.74
8/20/2023 4:30:00 PM 21.3 70.34 4.384 8.04 7.05 9.65
8/20/2023 4:45:00 PM 21.42 70.556 7.605 8.04 7.53 9.57
8/20/2023 5:00:00 PM 21.53 70.754 4.023 8.04 6.84 9.5
8/20/2023 5:15:00 PM 21.64 70.952 5.066 8.03 7.09 9.44
8/20/2023 5:30:00 PM 21.73 71.114 3.251 8.05 7.46 9.36
8/20/2023 5:45:00 PM 21.8 71.24 8.043 8.05 6.73 9.18
8/20/2023 6:00:00 PM 21.85 71.33 5.699 8.05 6.51 9.16
8/20/2023 6:15:00 PM 21.87 71.366 4.119 8.04 6.75 8.99
8/20/2023 6:30:00 PM 21.89 71.402 4.084 8.04 7.1 8.97
8/20/2023 6:45:00 PM 21.91 71.438 4.475 8.04 7.05 8.87
8/20/2023 7:00:00 PM 21.93 71.474 8.03 8.04 6.82 8.79
8/20/2023 7:15:00 PM 21.94 71.492 9.095 8.03 8.9 8.66
8/20/2023 7:30:00 PM 21.93 71.474 4.464 8.03 8.59 8.58
8/20/2023 7:45:00 PM 21.92 71.456 6.495 8.02 7.03 8.56
8/20/2023 8:00:00 PM 21.89 71.402 4.699 8.02 6.85 8.49
8/20/2023 8:15:00 PM 21.85 71.33 3.301 8.01 7.3 8.43
8/20/2023 8:30:00 PM 21.8 71.24 3.779 8 8.58 8.35
8/20/2023 8:45:00 PM 21.75 71.15 6.433 8 9.22 8.15
8/20/2023 9:00:00 PM 21.68 71.024 6.381 7.99 10.28 8.19
8/20/2023 9:15:00 PM 21.62 70.916 5.376 7.98 10.49 8.1
8/20/2023 9:30:00 PM 21.54 70.772 4.283 7.97 10.27 7.95
8/20/2023 9:45:00 PM 21.47 70.646 6.308 7.96 10.44 7.92
8/20/2023 10:00:00 PM 21.4 70.52 4.774 7.95 12.01 7.89
8/20/2023 10:15:00 PM 21.32 70.376 5.544 7.94 16.15 7.91
8/20/2023 10:30:00 PM 21.24 70.232 6.807 7.94 12.8 7.78
8/20/2023 10:45:00 PM 21.16 70.088 3.263 7.93 12.93 7.85
8/20/2023 11:00:00 PM 21.07 69.926 5.351 7.92 12.97 7.83
8/20/2023 11:15:00 PM 20.98 69.764 4.278 7.92 13.3 7.75
8/20/2023 11:30:00 PM 20.89 69.602 7.966 7.91 13.48 7.73
8/20/2023 11:45:00 PM 20.8 69.44 6.359 7.9 14.09 7.77
8/21/2023 12:00:00 AM 20.71 69.278 4.538 7.89 14.38 7.71
8/21/2023 12:15:00 AM 20.61 69.098 4.388 7.89 13.94 7.71
8/21/2023 12:30:00 AM 20.51 68.918 4.452 7.88 14.79 7.57
8/21/2023 12:45:00 AM 20.43 68.774 4.074 7.87 14.77 7.59
8/21/2023 1:00:00 AM 20.34 68.612 3.736 7.87 14.29 7.61
8/21/2023 1:15:00 AM 20.25 68.45 4.038 7.86 14.36 7.6
8/21/2023 1:30:00 AM 20.16 68.288 4.727 7.85 14.28 7.56
8/21/2023 1:45:00 AM 20.08 68.144 5.623 7.85 13.46 7.55
8/21/2023 2:00:00 AM 20.01 68.018 7.948 7.84 15.77 7.49
8/21/2023 2:15:00 AM 19.94 67.892 5.875 7.83 13.46 7.43
8/21/2023 2:30:00 AM 19.87 67.766 5.076 7.83 12.05 7.46
8/21/2023 2:45:00 AM 19.8 67.64 5.156 7.82 12.32 7.48
8/21/2023 3:00:00 AM 19.75 67.55 3.615 7.82 11.91 7.41
8/21/2023 3:15:00 AM 19.69 67.442 3.751 7.82 11.62 7.48
8/21/2023 3:30:00 AM 19.64 67.352 5.743 7.81 13.21 7.33
8/21/2023 3:45:00 AM 19.59 67.262 3.596 7.81 13.69 7.44
8/21/2023 4:00:00 AM 19.55 67.19 5.419 7.81 13.62 7.38
8/21/2023 4:15:00 AM 19.5 67.1 5.236 7.81 14.28 7.38
8/21/2023 4:30:00 AM 19.46 67.028 5.039 7.8 15.32 7.37
8/21/2023 4:45:00 AM 19.4 66.92 8.222 7.8 16.71 7.31
8/21/2023 5:00:00 AM 19.36 66.848 5.004 7.8 16.91 7.4
8/21/2023 5:15:00 AM 19.31 66.758 6.036 7.8 17.45 7.29
8/21/2023 5:30:00 AM 19.27 66.686 3.775 7.79 18.45 7.37
8/21/2023 5:45:00 AM 19.23 66.614 7.389 7.79 17.22 7.34
8/21/2023 6:00:00 AM 19.18 66.524 3.796 7.79 17.78 7.31
8/21/2023 6:15:00 AM 19.14 66.452 4.7 7.79 17.43 7.4
8/21/2023 6:30:00 AM 19.1 66.38 6.512 7.79 15.31 7.42
8/21/2023 6:45:00 AM 19.05 66.29 8.495 7.79 14.73 7.4
8/21/2023 7:00:00 AM 19.02 66.236 6.684 7.79 13.58 7.41
8/21/2023 7:15:00 AM 18.99 66.182 5.488 7.79 12.33 7.44
8/21/2023 7:30:00 AM 18.96 66.128 3.903 7.8 12.1 7.53
8/21/2023 7:45:00 AM 18.95 66.11 7.957 7.8 11.43 7.5
8/21/2023 8:00:00 AM 18.93 66.074 5.436 7.8 11.18 7.58
8/21/2023 8:15:00 AM 18.92 66.056 5.867 7.8 10.29 7.68
8/21/2023 8:30:00 AM 18.92 66.056 4.888 7.81 9.48 7.74
8/21/2023 8:45:00 AM 18.92 66.056 6.569 7.81 9.38 7.8
8/21/2023 9:00:00 AM 18.93 66.074 7.309 7.81 9 7.83
8/21/2023 9:15:00 AM 18.95 66.11 5.405 7.82 8.69 7.9
8/21/2023 9:30:00 AM 18.98 66.164 5.636 7.82 8.32 8.01
8/21/2023 9:45:00 AM 19.02 66.236 7.06 7.83 8.27 8.11
8/21/2023 10:00:00 AM 19.07 66.326 7.147 7.84 8.22 8.23
8/21/2023 10:15:00 AM 19.12 66.416 3.774 7.85 8.24 8.39
8/21/2023 10:30:00 AM 19.2 66.56 4.296 7.86 8.44 8.54
8/21/2023 10:45:00 AM 19.29 66.722 4.14 7.87 8.37 8.67
8/21/2023 11:00:00 AM 19.4 66.92 4.256 7.88 8.32 8.81
8/21/2023 11:15:00 AM 19.46 67.028 3.953 7.89 7.95 8.85
8/21/2023 11:30:00 AM 19.5 67.1 4.744 7.89 7.77 8.89
8/21/2023 11:45:00 AM 19.54 67.172 4.814 7.89 7.12 8.89
8/21/2023 12:00:00 PM 19.59 67.262 4.869 7.9 6.79 8.92
8/21/2023 12:15:00 PM 19.67 67.406 4.503 7.9 6.48 9.04
8/21/2023 12:30:00 PM 19.73 67.514 4.143 7.91 6.86 9.14
8/21/2023 12:45:00 PM 19.8 67.64 5.459 7.92 6.45 9.28
8/21/2023 1:00:00 PM 19.84 67.712 4.225 7.93 6.82 9.36
8/21/2023 1:15:00 PM 19.89 67.802 4.826 7.94 6.78 9.41
8/21/2023 1:30:00 PM 19.98 67.964 4.225 7.94 6.69 9.48
8/21/2023 1:45:00 PM 20.08 68.144 5.293 7.95 6.41 9.52
8/21/2023 2:00:00 PM 20.2 68.36 4.512 7.96 6.35 9.52
8/21/2023 2:15:00 PM 20.32 68.576 5.404 7.97 6.65 9.61
8/21/2023 2:30:00 PM 20.42 68.756 5.076 7.98 7.11 9.68
8/21/2023 2:45:00 PM 20.53 68.954 5.587 7.98 6.88 9.69
8/21/2023 3:00:00 PM 20.62 69.116 4.026 7.98 6.47 9.71
8/21/2023 3:15:00 PM 20.76 69.368 4.486 8 6.92 9.73
8/21/2023 3:30:00 PM 20.9 69.62 6.249 8.01 6.3 9.68
8/21/2023 3:45:00 PM 21.02 69.836 5.932 8.01 6.65 9.63
8/21/2023 4:00:00 PM 21.15 70.07 6.746 8.01 7.71 9.55
8/21/2023 4:15:00 PM 21.26 70.268 4.244 8.01 6.93 9.51
8/21/2023 4:30:00 PM 21.38 70.484 4.752 8.02 7.4 9.42
8/21/2023 4:45:00 PM 21.51 70.718 4.98 8.02 7.06 9.37
8/21/2023 5:00:00 PM 21.61 70.898 3.866 8.02 6.35 9.33
8/21/2023 5:15:00 PM 21.67 71.006 6.918 8.02 10.52 9.25
8/21/2023 5:30:00 PM 21.7 71.06 5.22 8.02 6.54 9.22
8/21/2023 5:45:00 PM 21.74 71.132 4.696 8.02 6.78 9.11
8/21/2023 6:00:00 PM 21.77 71.186 5.461 8.02 6.49 9.04
8/21/2023 6:15:00 PM 21.82 71.276 4.381 8.02 6.34 8.96
8/21/2023 6:30:00 PM 21.85 71.33 4.969 8.02 5.91 8.89
8/21/2023 6:45:00 PM 21.87 71.366 6.031 8.01 5.95 8.8
8/21/2023 7:00:00 PM 21.87 71.366 5.613 8.01 6.59 8.77
8/21/2023 7:15:00 PM 21.87 71.366 5.205 8.01 5.97 8.68
8/21/2023 7:30:00 PM 21.86 71.348 5.22 8 6.11 8.54
8/21/2023 7:45:00 PM 21.84 71.312 5.303 8 6.52 8.53
8/21/2023 8:00:00 PM 21.82 71.276 4.67 7.99 6.65 8.41
8/21/2023 8:15:00 PM 21.78 71.204 6.397 7.99 7.6 8.34
8/21/2023 8:30:00 PM 21.75 71.15 3.547 7.98 8.34 8.29
8/21/2023 8:45:00 PM 21.71 71.078 6.133 7.97 9.74 8.21
8/21/2023 9:00:00 PM 21.68 71.024 6.375 7.97 9.97 8.14
8/21/2023 9:15:00 PM 21.65 70.97 4.287 7.96 10.49 8.12
8/21/2023 9:30:00 PM 21.62 70.916 5.796 7.95 9.76 8.05
8/21/2023 9:45:00 PM 21.6 70.88 6.243 7.95 10.01 7.94
8/21/2023 10:00:00 PM 21.56 70.808 5.036 7.94 10.63 7.93
8/21/2023 10:15:00 PM 21.53 70.754 5.996 7.93 10.07 7.91
8/21/2023 10:30:00 PM 21.49 70.682 4.627 7.93 11.22 7.89
8/21/2023 10:45:00 PM 21.44 70.592 4.617 7.92 11.5 7.82
8/21/2023 11:00:00 PM 21.4 70.52 4.073 7.91 12.24 7.78
8/21/2023 11:15:00 PM 21.35 70.43 4.261 7.91 12.53 7.79
8/21/2023 11:30:00 PM 21.3 70.34 4.405 7.9 13.97 7.77
8/21/2023 11:45:00 PM 21.24 70.232 5.177 7.89 14.34 7.72
8/22/2023 12:00:00 AM 21.19 70.142 5.7 7.88 14.15 7.63
8/22/2023 12:15:00 AM 21.13 70.034 4.656 7.88 14.47 7.63
8/22/2023 12:30:00 AM 21.07 69.926 5.783 7.87 15.04 7.57
8/22/2023 12:45:00 AM 21 69.8 5.99 7.86 14.25 7.54
8/22/2023 1:00:00 AM 20.94 69.692 5.388 7.85 14.79 7.46
8/22/2023 1:15:00 AM 20.88 69.584 5.728 7.84 12.96 7.43
8/22/2023 1:30:00 AM 20.82 69.476 4.664 7.83 16.1 7.43
8/22/2023 1:45:00 AM 20.75 69.35 5.984 7.83 12.97 7.39
8/22/2023 2:00:00 AM 20.7 69.26 4.869 7.82 12.81 7.35
8/22/2023 2:15:00 AM 20.65 69.17 4.997 7.82 12.98 7.32
8/22/2023 2:30:00 AM 20.6 69.08 4.088 7.81 12.97 7.33
8/22/2023 2:45:00 AM 20.55 68.99 4.952 7.81 13.17 7.28
8/22/2023 3:00:00 AM 20.5 68.9 4.188 7.8 13.2 7.26
8/22/2023 3:15:00 AM 20.46 68.828 4.543 7.8 13.53 7.23
8/22/2023 3:30:00 AM 20.41 68.738 4.37 7.79 12.67 7.22
8/22/2023 3:45:00 AM 20.37 68.666 5.986 7.79 12.4 7.22
8/22/2023 4:00:00 AM 20.32 68.576 4.081 7.79 13.77 7.21
8/22/2023 4:15:00 AM 20.27 68.486 4.726 7.79 12.96 7.2
8/22/2023 4:30:00 AM 20.23 68.414 4.34 7.79 14.18 7.19
8/22/2023 4:45:00 AM 20.18 68.324 4.75 7.79 15.41 7.17
8/22/2023 5:00:00 AM 20.14 68.252 3.924 7.79 15.39 7.19
8/22/2023 5:15:00 AM 20.09 68.162 6.037 7.79 14.33 7.21
8/22/2023 5:30:00 AM 20.04 68.07201 4.877 7.79 13.83 7.2
8/22/2023 5:45:00 AM 19.99 67.982 5.485 7.79 14.49 7.19
8/22/2023 6:00:00 AM 19.94 67.892 5.086 7.79 14.71 7.18
8/22/2023 6:15:00 AM 19.9 67.82 5.311 7.79 15.25 7.19
8/22/2023 6:30:00 AM 19.85 67.73 5.403 7.79 13.5 7.21
8/22/2023 6:45:00 AM 19.8 67.64 5.983 7.79 12.67 7.21
8/22/2023 7:00:00 AM 19.75 67.55 5.296 7.79 11.61 7.23
8/22/2023 7:15:00 AM 19.71 67.478 4.706 7.79 11.37 7.3
8/22/2023 7:30:00 AM 19.66 67.388 4.977 7.79 10.08 7.3
8/22/2023 7:45:00 AM 19.61 67.298 4.981 7.8 9.52 7.37
8/22/2023 8:00:00 AM 19.57 67.226 5.236 7.8 9.66 7.43
8/22/2023 8:15:00 AM 19.54 67.172 5.07 7.8 9.05 7.47
8/22/2023 8:30:00 AM 19.5 67.1 4.468 7.8 9.04 7.51
8/22/2023 8:45:00 AM 19.47 67.046 5.708 7.81 9.89 7.57
8/22/2023 9:00:00 AM 19.43 66.974 4.927 7.82 9.66 7.66
8/22/2023 9:15:00 AM 19.41 66.938 5.52 7.82 9.07 7.75
8/22/2023 9:30:00 AM 19.39 66.902 4.511 7.83 8.28 7.87
8/22/2023 9:45:00 AM 19.38 66.884 5.45 7.84 8.45 7.97
8/22/2023 10:00:00 AM 19.39 66.902 5.399 7.85 8.18 8.1
8/22/2023 10:15:00 AM 19.41 66.938 5.456 7.86 7.98 8.23
8/22/2023 10:30:00 AM 19.45 67.01 4.904 7.87 7.9 8.38
8/22/2023 10:45:00 AM 19.51 67.118 4.83 7.88 7.72 8.51
8/22/2023 11:00:00 AM 19.56 67.208 4.976 7.89 7.81 8.62
8/22/2023 11:15:00 AM 19.62 67.316 4.938 7.89 7.56 8.7
8/22/2023 11:30:00 AM 19.67 67.406 4.929 7.9 7.88 8.78
8/22/2023 11:45:00 AM 19.74 67.532 4.905 7.91 8.6 8.87
8/22/2023 12:00:00 PM 19.8 67.64 4.856 7.91 9.12 8.95
8/22/2023 12:15:00 PM 19.88 67.784 4.84 7.92 8.43 9.03
8/22/2023 12:30:00 PM 19.95 67.91 4.832 7.93 8.78 9.12
8/22/2023 12:45:00 PM 20.04 68.07201 4.831 7.93 9.25 9.18
8/22/2023 1:00:00 PM 20.13 68.234 4.815 7.94 8.57 9.27
8/22/2023 1:15:00 PM 20.21 68.378 4.803 7.95 8.05 9.34
8/22/2023 1:30:00 PM 20.32 68.576 4.802 7.96 7.78 9.43
8/22/2023 1:45:00 PM 20.45 68.81 4.775 7.97 7.3 9.55
8/22/2023 2:00:00 PM 20.59 69.062 4.782 7.98 7.43 9.64
8/22/2023 2:15:00 PM 20.72 69.296 4.825 7.99 6.96 9.69
8/22/2023 2:30:00 PM 20.83 69.494 4.821 8 7.26 9.71
8/22/2023 2:45:00 PM 20.95 69.71 4.828 8.01 7.17 9.72
8/22/2023 3:00:00 PM 21.08 69.944 4.853 8.01 7.59 9.71
8/22/2023 3:15:00 PM 21.21 70.17799 4.853 8.02 6.74 9.7
8/22/2023 3:30:00 PM 21.33 70.394 5.037 8.03 6.68 9.67
8/22/2023 3:45:00 PM 21.43 70.574 4.904 8.03 6.41 9.62
8/22/2023 4:00:00 PM 21.53 70.754 5.319 8.03 6.85 9.55
8/22/2023 4:15:00 PM 21.6 70.88 5.152 8.04 7.12 9.49
8/22/2023 4:30:00 PM 21.68 71.024 5.287 8.04 6.67 9.43
8/22/2023 4:45:00 PM 21.75 71.15 4.501 8.04 6.35 9.37
8/22/2023 5:00:00 PM 21.8 71.24 4.725 8.04 6.23 9.29
8/22/2023 5:15:00 PM 21.84 71.312 5.74 8.04 5.98 9.17
8/22/2023 5:30:00 PM 21.87 71.366 5.245 8.04 6.1 9.08
8/22/2023 5:45:00 PM 21.9 71.42 4.968 8.04 6.12 9.04
8/22/2023 6:00:00 PM 21.9 71.42 4.51 8.04 6.08 8.94
8/22/2023 6:15:00 PM 21.91 71.438 5.663 8.03 5.99 8.82
8/22/2023 6:30:00 PM 21.91 71.438 5.487 8.03 5.9 8.78
8/22/2023 6:45:00 PM 21.9 71.42 5.855 8.03 6.03 8.71
8/22/2023 7:00:00 PM 21.89 71.402 6.464 8.03 6.16 8.59
8/22/2023 7:15:00 PM 21.86 71.348 5.036 8.03 6.15 8.58
8/22/2023 7:30:00 PM 21.82 71.276 5.851 8.03 5.97 8.47
8/22/2023 7:45:00 PM 21.77 71.186 5.72 8.03 5.85 8.45
8/22/2023 8:00:00 PM 21.72 71.096 5.183 8.02 6.36 8.4
8/22/2023 8:15:00 PM 21.65 70.97 5.352 8.02 7.23 8.32
8/22/2023 8:30:00 PM 21.59 70.862 5.762 8.02 8.02 8.26
8/22/2023 8:45:00 PM 21.52 70.736 4.872 8.01 8.96 8.23
8/22/2023 9:00:00 PM 21.46 70.628 5.688 8.01 9.33 8.14
8/22/2023 9:15:00 PM 21.39 70.502 4.652 8 10.5 8.12
8/22/2023 9:30:00 PM 21.32 70.376 5.555 8 10.93 8.06
8/22/2023 9:45:00 PM 21.24 70.232 4.981 7.99 10.36 8.02
8/22/2023 10:00:00 PM 21.16 70.088 5.369 7.98 10.04 8.01
8/22/2023 10:15:00 PM 21.07 69.926 5.055 7.97 11.56 7.98
8/22/2023 10:30:00 PM 20.97 69.746 4.891 7.97 14.17 7.95
8/22/2023 10:45:00 PM 20.88 69.584 5.386 7.96 12.26 7.91
8/22/2023 11:00:00 PM 20.78 69.404 4.725 7.95 11.77 7.89
8/22/2023 11:15:00 PM 20.67 69.206 5.19 7.94 11.08 7.86
8/22/2023 11:30:00 PM 20.56 69.008 4.799 7.93 11.78 7.83
8/22/2023 11:45:00 PM 20.44 68.792 4.971 7.92 12.41 7.8
8/23/2023 12:00:00 AM 20.32 68.576 5.121 7.91 13.63 7.76
8/23/2023 12:15:00 AM 20.2 68.36 5.144 7.9 12.9 7.72
8/23/2023 12:30:00 AM 20.08 68.144 5.326 7.89 15.19 7.7
8/23/2023 12:45:00 AM 19.95 67.91 5.146 7.88 13.48 7.66
8/23/2023 1:00:00 AM 19.83 67.694 5.162 7.88 13.59 7.64
8/23/2023 1:15:00 AM 19.71 67.478 5.097 7.86 13.37 7.62
8/23/2023 1:30:00 AM 19.6 67.28 5.331 7.86 13.38 7.58
8/23/2023 1:45:00 AM 19.49 67.082 5.178 7.85 12.17 7.57
8/23/2023 2:00:00 AM 19.37 66.866 5.199 7.84 12.48 7.56
8/23/2023 2:15:00 AM 19.26 66.668 5.21 7.84 12.32 7.54
8/23/2023 2:30:00 AM 19.16 66.488 5.2 7.83 11.72 7.53
8/23/2023 2:45:00 AM 19.06 66.308 5.227 7.83 12.11 7.52
8/23/2023 3:00:00 AM 18.97 66.146 5.251 7.82 13.09 7.5
8/23/2023 3:15:00 AM 18.88 65.984 5.265 7.82 15.6 7.49
8/23/2023 3:30:00 AM 18.8 65.84 5.28 7.81 16.26 7.49
8/23/2023 3:45:00 AM 18.73 65.714 5.279 7.81 14.34 7.49
8/23/2023 4:00:00 AM 18.65 65.57 5.283 7.81 13.55 7.49
8/23/2023 4:15:00 AM 18.58 65.444 5.316 7.81 13.58 7.5
8/23/2023 4:30:00 AM 18.5 65.3 5.316 7.81 13.49 7.5
8/23/2023 4:45:00 AM 18.42 65.156 5.105 7.81 13.85 7.52
8/23/2023 5:00:00 AM 18.35 65.03 5.335 7.8 13.54 7.51
8/23/2023 5:15:00 AM 18.29 64.922 5.342 7.8 14.68 7.51
8/23/2023 5:30:00 AM 18.23 64.814 5.332 7.8 14.78 7.5
8/23/2023 5:45:00 AM 18.15 64.67 5.344 7.8 14.69 7.53
8/23/2023 6:00:00 AM 18.09 64.562 5.342 7.8 13.05 7.55
8/23/2023 6:15:00 AM 18.02 64.436 5.355 7.8 12.77 7.57
8/23/2023 6:30:00 AM 17.95 64.31 5.343 7.8 13.02 7.59
8/23/2023 6:45:00 AM 17.89 64.202 5.212 7.8 12.51 7.62
8/23/2023 7:00:00 AM 17.83 64.094 5.366 7.81 12.08 7.64
8/23/2023 7:15:00 AM 17.78 64.004 5.366 7.81 11.38 7.67
8/23/2023 7:30:00 AM 17.73 63.914 5.369 7.81 10.7 7.7
8/23/2023 7:45:00 AM 17.69 63.842 5.356 7.81 10.21 7.73
8/23/2023 8:00:00 AM 17.66 63.788 5.352 7.81 9.65 7.77
8/23/2023 8:15:00 AM 17.64 63.752 5.338 7.81 9.48 7.81
8/23/2023 8:30:00 AM 17.64 63.752 5.294 7.82 9.27 7.87
8/23/2023 8:45:00 AM 17.65 63.77 5.287 7.82 9.04 7.97
8/23/2023 9:00:00 AM 17.67 63.806 5.262 7.83 8.4 8.05
8/23/2023 9:15:00 AM 17.7 63.86 5.255 7.83 8.44 8.15
8/23/2023 9:30:00 AM 17.75 63.95 5.242 7.84 8.28 8.24
8/23/2023 9:45:00 AM 17.82 64.076 5.242 7.85 8.21 8.37
8/23/2023 10:00:00 AM 17.89 64.202 5.208 7.86 8.16 8.52
8/23/2023 10:15:00 AM 17.96 64.328 5.166 7.87 7.96 8.63
8/23/2023 10:30:00 AM 18.04 64.472 5.149 7.88 8.26 8.73
8/23/2023 10:45:00 AM 18.15 64.67 5.095 7.89 8.8 8.87
8/23/2023 11:00:00 AM 18.24 64.832 5.084 7.9 8.2 8.99
8/23/2023 11:15:00 AM 18.26 64.868 5.05 7.9 8.43 9.06
8/23/2023 11:30:00 AM 18.33 64.994 5.024 7.91 8.02 9.16
8/23/2023 11:45:00 AM 18.44 65.192 4.982 7.92 7.55 9.26
8/23/2023 12:00:00 PM 18.54 65.372 4.927 7.93 7.29 9.36
8/23/2023 12:15:00 PM 18.61 65.498 4.916 7.93 7.29 9.42
8/23/2023 12:30:00 PM 18.68 65.624 4.901 7.94 6.86 9.41
8/23/2023 12:45:00 PM 18.8 65.84 4.888 7.94 6.49 9.47
8/23/2023 1:00:00 PM 18.95 66.11 4.874 7.96 6.33 9.61
8/23/2023 1:15:00 PM 19.02 66.236 4.87 7.97 6.46 9.67
8/23/2023 1:30:00 PM 19.06 66.308 4.866 7.97 6.72 9.67
8/23/2023 1:45:00 PM 19.09 66.362 4.858 7.97 6.71 9.67
8/23/2023 2:00:00 PM 19.15 66.47 4.865 7.98 6.76 9.72
8/23/2023 2:15:00 PM 19.25 66.65 4.846 7.99 6.64 9.76
8/23/2023 2:30:00 PM 19.33 66.794 4.883 7.99 6.6 9.78
8/23/2023 2:45:00 PM 19.38 66.884 4.893 8 6.4 9.76
8/23/2023 3:00:00 PM 19.44 66.992 4.9 8 8.51 9.69
8/23/2023 3:15:00 PM 19.52 67.136 4.917 8 7.94 9.65
8/23/2023 3:30:00 PM 19.6 67.28 4.929 8.01 7.21 9.62
8/23/2023 3:45:00 PM 19.69 67.442 4.949 8.01 6.79 9.58
8/23/2023 4:00:00 PM 19.78 67.604 4.988 8.01 7.36 9.52
8/23/2023 4:15:00 PM 19.86 67.748 5.011 8.01 7.57 9.46
8/23/2023 4:30:00 PM 19.95 67.91 5.01 8.02 6.98 9.43
8/23/2023 4:45:00 PM 20.06 68.108 5.095 8.02 7.46 9.46
8/23/2023 5:00:00 PM 20.16 68.288 5.112 8.03 7.78 9.45
8/23/2023 5:15:00 PM 20.25 68.45 5.098 8.03 7.46 9.4
8/23/2023 5:30:00 PM 20.34 68.612 5.107 8.04 7.41 9.36
8/23/2023 5:45:00 PM 20.42 68.756 5.121 8.05 7.3 9.31
8/23/2023 6:00:00 PM 20.49 68.882 5.128 8.05 6.87 9.28
8/23/2023 6:15:00 PM 20.55 68.99 5.107 8.06 6.85 9.23
8/23/2023 6:30:00 PM 20.6 69.08 5.107 8.05 6.86 9.14
8/23/2023 6:45:00 PM 20.62 69.116 5.058 8.05 7.13 9.06
8/23/2023 7:00:00 PM 20.62 69.116 5.053 8.05 7.26 8.96
8/23/2023 7:15:00 PM 20.62 69.116 5.075 8.04 7.61 8.87
8/23/2023 7:30:00 PM 20.61 69.098 5.089 8.03 7.21 8.78
8/23/2023 7:45:00 PM 20.59 69.062 5.13 8.03 7.35 8.69
8/23/2023 8:00:00 PM 20.56 69.008 5.189 8.02 7.49 8.59
8/23/2023 8:15:00 PM 20.52 68.936 5.194 8.01 8.65 8.5
8/23/2023 8:30:00 PM 20.5 68.9 5.185 8 9.16 8.42
8/23/2023 8:45:00 PM 20.47 68.846 5.191 7.99 10.44 8.34
8/23/2023 9:00:00 PM 20.44 68.792 5.166 7.98 10.42 8.27
8/23/2023 9:15:00 PM 20.41 68.738 5.193 7.97 10.7 8.2
8/23/2023 9:30:00 PM 20.38 68.684 5.424 7.96 10.01 8.13
8/23/2023 9:45:00 PM 20.35 68.63 5.435 7.95 10.06 8.07
8/23/2023 10:00:00 PM 20.31 68.558 5.443 7.94 10.25 8.03
8/23/2023 10:15:00 PM 20.28 68.504 5.432 7.93 10.23 7.98
8/23/2023 10:30:00 PM 20.24 68.432 5.411 7.93 10.61 7.94
8/23/2023 10:45:00 PM 20.19 68.342 5.431 7.92 10.37 7.91
8/23/2023 11:00:00 PM 20.14 68.252 5.422 7.91 10.97 7.89
8/23/2023 11:15:00 PM 20.09 68.162 5.42 7.91 11.53 7.88
8/23/2023 11:30:00 PM 20.04 68.07201 5.421 7.9 11.16 7.87
8/23/2023 11:45:00 PM 19.99 67.982 5.411 7.9 12.3 7.85
8/24/2023 12:00:00 AM 19.93 67.874 5.406 7.89 12.05 7.82
8/24/2023 12:15:00 AM 19.88 67.784 5.399 7.89 12.28 7.79
8/24/2023 12:30:00 AM 19.83 67.694 5.403 7.88 12.6 7.76
8/24/2023 12:45:00 AM 19.78 67.604 5.403 7.87 12.84 7.74
8/24/2023 1:00:00 AM 19.73 67.514 5.399 7.87 12.41 7.72
8/24/2023 1:15:00 AM 19.68 67.424 5.409 7.86 12.71 7.69
8/24/2023 1:30:00 AM 19.64 67.352 5.409 7.86 12.29 7.65
8/24/2023 1:45:00 AM 19.59 67.262 5.365 7.85 11.77 7.62
8/24/2023 2:00:00 AM 19.55 67.19 5.43 7.84 11.55 7.59
8/24/2023 2:15:00 AM 19.51 67.118 5.442 7.84 11.26 7.56
8/24/2023 2:30:00 AM 19.47 67.046 5.457 7.83 14.9 7.53
8/24/2023 2:45:00 AM 19.44 66.992 5.457 7.83 12.32 7.51
8/24/2023 3:00:00 AM 19.4 66.92 5.483 7.83 11.83 7.49
8/24/2023 3:15:00 AM 19.38 66.884 5.481 7.82 12.64 7.47
8/24/2023 3:30:00 AM 19.35 66.83 5.495 7.82 13.94 7.46
8/24/2023 3:45:00 AM 19.32 66.776 5.499 7.82 13.54 7.44
8/24/2023 4:00:00 AM 19.29 66.722 5.515 7.82 13.61 7.43
8/24/2023 4:15:00 AM 19.27 66.686 5.514 7.81 14.03 7.42
8/24/2023 4:30:00 AM 19.25 66.65 5.513 7.81 13.68 7.42
8/24/2023 4:45:00 AM 19.23 66.614 5.528 7.81 13.64 7.4
8/24/2023 5:00:00 AM 19.21 66.578 5.535 7.81 13.4 7.4
8/24/2023 5:15:00 AM 19.2 66.56 5.522 7.81 14.48 7.39
8/24/2023 5:30:00 AM 19.18 66.524 5.51 7.81 13.9 7.39
8/24/2023 5:45:00 AM 19.16 66.488 5.524 7.81 13.47 7.4
8/24/2023 6:00:00 AM 19.15 66.47 5.513 7.8 13.01 7.39
8/24/2023 6:15:00 AM 19.13 66.434 5.507 7.8 14.12 7.4
8/24/2023 6:30:00 AM 19.11 66.398 5.525 7.8 13.59 7.39
8/24/2023 6:45:00 AM 19.1 66.38 5.528 7.8 13.63 7.4
8/24/2023 7:00:00 AM 19.08 66.344 5.513 7.8 13.09 7.4
8/24/2023 7:15:00 AM 19.06 66.308 5.513 7.8 12.5 7.41
8/24/2023 7:30:00 AM 19.05 66.29 5.548 7.8 13.21 7.42
8/24/2023 7:45:00 AM 19.03 66.254 5.536 7.8 12.38 7.43
8/24/2023 8:00:00 AM 19.01 66.218 5.533 7.8 12.07 7.43
8/24/2023 8:15:00 AM 18.99 66.182 5.505 7.81 11.01 7.45
8/24/2023 8:30:00 AM 18.97 66.146 5.492 7.8 10.96 7.48
8/24/2023 8:45:00 AM 18.96 66.128 5.491 7.81 9.78 7.5
8/24/2023 9:00:00 AM 18.94 66.092 5.513 7.81 9.66 7.52
8/24/2023 9:15:00 AM 18.92 66.056 5.49 7.81 9.2 7.54
8/24/2023 9:30:00 AM 18.89 66.002 5.419 7.81 8.73 7.57
8/24/2023 9:45:00 AM 18.87 65.966 5.395 7.81 10.79 7.61
8/24/2023 10:00:00 AM 18.85 65.93 5.411 7.82 9.6 7.69
8/24/2023 10:15:00 AM 18.83 65.894 5.391 7.82 8.9 7.77
8/24/2023 10:30:00 AM 18.82 65.876 5.355 7.83 9.24 7.85
8/24/2023 10:45:00 AM 18.81 65.858 5.321 7.83 10.85 7.95
8/24/2023 11:00:00 AM 18.81 65.858 5.298 7.84 11.52 8.07
8/24/2023 11:15:00 AM 18.79 65.82201 5.249 7.84 10.31 8.1
8/24/2023 11:30:00 AM 18.79 65.82201 5.248 7.84 10.08 8.17
8/24/2023 11:45:00 AM 18.79 65.82201 5.232 7.85 9.84 8.26
8/24/2023 12:00:00 PM 18.79 65.82201 5.224 7.85 9.39 8.31
8/24/2023 12:15:00 PM 18.79 65.82201 5.199 7.86 10.16 8.35
8/24/2023 12:30:00 PM 18.78 65.804 5.124 7.86 8.56 8.44
8/24/2023 12:45:00 PM 18.78 65.804 5.16 7.87 8.35 8.5
8/24/2023 1:00:00 PM 18.79 65.82201 5.153 7.87 7.02 8.57
8/24/2023 1:15:00 PM 18.81 65.858 5.139 7.88 7.14 8.63
8/24/2023 1:30:00 PM 18.82 65.876 5.164 7.88 6.97 8.63
8/24/2023 1:45:00 PM 18.84 65.912 5.122 7.88 6.78 8.6
8/24/2023 2:00:00 PM 18.87 65.966 5.144 7.88 7.03 8.61
8/24/2023 2:15:00 PM 18.92 66.056 5.157 7.89 6.95 8.71
8/24/2023 2:30:00 PM 18.96 66.128 5.139 7.89 7.29 8.8
8/24/2023 2:45:00 PM 19.01 66.218 5.162 7.9 7.01 8.88
8/24/2023 3:00:00 PM 19.09 66.362 5.174 7.91 7.16 9
8/24/2023 3:15:00 PM 19.22 66.596 5.185 7.92 6.8 9.11
8/24/2023 3:30:00 PM 19.33 66.794 5.214 7.93 6.61 9.17
8/24/2023 3:45:00 PM 19.48 67.064 5.248 7.94 6.67 9.23
8/24/2023 4:00:00 PM 19.63 67.334 5.268 7.95 6.97 9.26
8/24/2023 4:15:00 PM 19.77 67.586 5.302 7.95 6.72 9.27
8/24/2023 4:30:00 PM 19.91 67.838 5.315 7.95 6.95 9.19
8/24/2023 4:45:00 PM 20.05 68.09 5.347 7.95 6.77 9.09
8/24/2023 5:00:00 PM 20.16 68.288 5.334 7.96 6.51 9.06
8/24/2023 5:15:00 PM 20.24 68.432 5.352 7.96 6.96 9.03
8/24/2023 5:30:00 PM 20.26 68.468 5.372 7.96 6.71 8.96
8/24/2023 5:45:00 PM 20.26 68.468 5.375 7.96 6.96 8.89
8/24/2023 6:00:00 PM 20.23 68.414 5.347 7.96 6.32 8.81
8/24/2023 6:15:00 PM 20.22 68.396 5.335 7.96 6.62 8.75
8/24/2023 6:30:00 PM 20.21 68.378 5.338 7.95 6.29 8.7
8/24/2023 6:45:00 PM 20.21 68.378 5.374 7.95 5.98 8.64
8/24/2023 7:00:00 PM 20.21 68.378 5.368 7.95 5.46 8.57
8/24/2023 7:15:00 PM 20.21 68.378 5.371 7.94 5.96 8.51
8/24/2023 7:30:00 PM 20.22 68.396 5.37 7.94 6.03 8.45
8/24/2023 7:45:00 PM 20.23 68.414 5.377 7.94 6.13 8.38
8/24/2023 8:00:00 PM 20.24 68.432 5.378 7.94 6.29 8.33
8/24/2023 8:15:00 PM 20.25 68.45 5.386 7.93 6.86 8.28
8/24/2023 8:30:00 PM 20.25 68.45 5.415 7.93 7.99 8.22
8/24/2023 8:45:00 PM 20.26 68.468 5.406 7.92 8.82 8.18
8/24/2023 9:00:00 PM 20.26 68.468 5.427 7.92 9.5 8.15
8/24/2023 9:15:00 PM 20.25 68.45 5.413 7.92 11.2 8.13
8/24/2023 9:30:00 PM 20.25 68.45 5.435 7.92 11.31 8.13
8/24/2023 9:45:00 PM 20.25 68.45 5.431 7.92 13.72 8.11
8/24/2023 10:00:00 PM 20.25 68.45 5.43 7.93 12.17 8.11
8/24/2023 10:15:00 PM 20.23 68.414 5.408 7.93 11.55 8.1
8/24/2023 10:30:00 PM 20.22 68.396 5.435 7.92 11.82 8.07
8/24/2023 10:45:00 PM 20.19 68.342 5.43 7.92 12.25 8.03
8/24/2023 11:00:00 PM 20.17 68.306 5.43 7.92 13.14 8
8/24/2023 11:15:00 PM 20.14 68.252 5.433 7.91 14.13 7.96
8/24/2023 11:30:00 PM 20.11 68.198 5.414 7.91 14.81 7.92
8/24/2023 11:45:00 PM 20.07 68.126 5.411 7.9 13.71 7.88
8/25/2023 12:00:00 AM 20.04 68.07201 5.401 7.89 14.13 7.83
8/25/2023 12:15:00 AM 20 68 5.418 7.88 13.1 7.78
8/25/2023 12:30:00 AM 19.96 67.92799 5.417 7.87 12.2 7.73
8/25/2023 12:45:00 AM 19.91 67.838 5.396 7.86 12.4 7.68
8/25/2023 1:00:00 AM 19.86 67.748 5.388 7.85 11.76 7.65
8/25/2023 1:15:00 AM 19.81 67.658 5.369 7.85 12.51 7.6
8/25/2023 1:30:00 AM 19.76 67.568 5.376 7.84 12.46 7.56
8/25/2023 1:45:00 AM 19.72 67.496 5.403 7.83 12.18 7.51
8/25/2023 2:00:00 AM 19.67 67.406 5.426 7.82 14.03 7.49
8/25/2023 2:15:00 AM 19.63 67.334 5.448 7.82 13.7 7.45
8/25/2023 2:30:00 AM 19.59 67.262 5.472 7.81 13.81 7.41
8/25/2023 2:45:00 AM 19.56 67.208 5.47 7.81 13.41 7.39
8/25/2023 3:00:00 AM 19.53 67.154 5.484 7.8 13.72 7.37
8/25/2023 3:15:00 AM 19.51 67.118 5.452 7.8 13.76 7.36
8/25/2023 3:30:00 AM 19.49 67.082 5.429 7.79 14.63 7.34
8/25/2023 3:45:00 AM 19.47 67.046 5.469 7.79 16.42 7.32
8/25/2023 4:00:00 AM 19.45 67.01 5.489 7.79 15.73 7.3
8/25/2023 4:15:00 AM 19.44 66.992 5.505 7.79 15.15 7.3
8/25/2023 4:30:00 AM 19.43 66.974 5.508 7.78 17.27 7.27
8/25/2023 4:45:00 AM 19.42 66.956 5.499 7.78 19 7.28
8/25/2023 5:00:00 AM 19.41 66.938 5.549 7.79 19.68 7.33
8/25/2023 5:15:00 AM 19.4 66.92 5.545 7.79 19.02 7.33
8/25/2023 5:30:00 AM 19.39 66.902 5.555 7.79 23.82 7.31
8/25/2023 5:45:00 AM 19.38 66.884 5.605 7.78 22.8 7.28
8/25/2023 6:00:00 AM 19.37 66.866 5.599 7.78 22.29 7.29
8/25/2023 6:15:00 AM 19.37 66.866 5.615 7.78 21.66 7.3
8/25/2023 6:30:00 AM 19.36 66.848 5.596 7.78 20.04 7.32
8/25/2023 6:45:00 AM 19.35 66.83 5.592 7.78 19.76 7.32
8/25/2023 7:00:00 AM 19.34 66.812 5.583 7.78 83.77 7.33
8/25/2023 7:15:00 AM 19.32 66.776 5.586 7.77 82.37 7.35
8/25/2023 7:30:00 AM 19.25 66.65 5.534 7.74 88.5 7.4
8/25/2023 7:45:00 AM 19.13 66.434 5.465 7.73 73.98 7.48
8/25/2023 8:00:00 AM 18.99 66.182 5.384 7.72 56.52 7.49
8/25/2023 8:15:00 AM 18.84 65.912 5.324 7.7 47.78 7.53
8/25/2023 8:30:00 AM 18.72 65.696 5.278 7.7 36.56 7.56
8/25/2023 8:45:00 AM 18.66 65.588 5.264 7.69 32.54 7.61
8/25/2023 9:00:00 AM 18.66 65.588 5.227 7.69 26 7.65
8/25/2023 9:15:00 AM 18.67 65.606 5.148 7.69 24.08 7.69
8/25/2023 9:30:00 AM 18.68 65.624 5.067 7.7 20.44 7.71
8/25/2023 9:45:00 AM 18.7 65.66 4.97 7.7 19.11 7.79
8/25/2023 10:00:00 AM 18.71 65.67799 4.857 7.71 17.64 7.93
8/25/2023 10:15:00 AM 18.7 65.66 4.758 7.72 16.33 8.01
8/25/2023 10:30:00 AM 18.69 65.642 4.658 7.72 15.74 8.1
8/25/2023 10:45:00 AM 18.73 65.714 4.584 7.73 15.2 8.21
8/25/2023 11:00:00 AM 18.79 65.82201 4.489 7.73 14.15 8.27
8/25/2023 11:15:00 AM 18.85 65.93 4.427 7.73 13.77 8.25
8/25/2023 11:30:00 AM 18.92 66.056 4.363 7.73 13.39 8.19
8/25/2023 11:45:00 AM 19.07 66.326 4.322 7.72 13.7 8.18
8/25/2023 12:00:00 PM 19.29 66.722 4.253 7.73 12.97 8.25
8/25/2023 12:15:00 PM 19.43 66.974 4.219 7.73 12.99 8.21
8/25/2023 12:30:00 PM 19.56 67.208 4.22 7.71 13.69 8.1
8/25/2023 12:45:00 PM 19.73 67.514 4.212 7.71 13.33 8.1
8/25/2023 1:00:00 PM 19.89 67.802 4.218 7.71 12.5 8.08
8/25/2023 1:15:00 PM 20.07 68.126 4.233 7.71 12.49 8.11
8/25/2023 1:30:00 PM 20.22 68.396 4.262 7.72 11.44 8.12
8/25/2023 1:45:00 PM 20.38 68.684 4.298 7.73 11.02 8.19
8/25/2023 2:00:00 PM 20.57 69.026 4.35 7.74 10.38 8.28
8/25/2023 2:15:00 PM 20.75 69.35 4.407 7.75 10.8 8.37
8/25/2023 2:30:00 PM 20.91 69.638 4.484 7.76 11.36 8.37
8/25/2023 2:45:00 PM 21.08 69.944 4.544 7.77 10.51 8.4
8/25/2023 3:00:00 PM 21.22 70.196 4.592 7.77 9.55 8.34
8/25/2023 3:15:00 PM 21.36 70.448 4.644 7.78 10.06 8.32
8/25/2023 3:30:00 PM 21.5 70.7 4.759 7.79 8.75 8.35
8/25/2023 3:45:00 PM 21.58 70.844 4.805 7.79 8.42 8.34
8/25/2023 4:00:00 PM 21.65 70.97 4.826 7.8 7.69 8.34
8/25/2023 4:15:00 PM 21.71 71.078 4.85 7.81 7.71 8.38
8/25/2023 4:30:00 PM 21.75 71.15 4.906 7.82 7.48 8.39
8/25/2023 4:45:00 PM 21.79 71.222 4.944 7.83 7.27 8.37
8/25/2023 5:00:00 PM 21.83 71.294 4.946 7.83 7.14 8.36
8/25/2023 5:15:00 PM 21.89 71.402 4.955 7.84 6.88 8.34
8/25/2023 5:30:00 PM 21.95 71.51 4.979 7.84 6.67 8.31
8/25/2023 5:45:00 PM 22.02 71.636 4.975 7.84 6.82 8.26
8/25/2023 6:00:00 PM 22.05 71.69 5 7.84 6.66 8.2
8/25/2023 6:15:00 PM 22.05 71.69 4.931 7.84 6.36 8.16
8/25/2023 6:30:00 PM 22.03 71.654 5.054 7.84 6.35 8.1
8/25/2023 6:45:00 PM 21.99 71.582 5.076 7.84 5.96 8.05
8/25/2023 7:00:00 PM 21.95 71.51 5.078 7.84 5.87 8.03
8/25/2023 7:15:00 PM 21.91 71.438 5.113 7.84 6.03 7.99
8/25/2023 7:30:00 PM 21.86 71.348 5.119 7.84 6.15 7.96
8/25/2023 7:45:00 PM 21.82 71.276 5.126 7.84 5.99 7.91
8/25/2023 8:00:00 PM 21.79 71.222 5.118 7.83 6.49 7.86
8/25/2023 8:15:00 PM 21.76 71.168 5.12 7.83 6.96 7.82
8/25/2023 8:30:00 PM 21.72 71.096 5.142 7.83 7.73 7.79
8/25/2023 8:45:00 PM 21.68 71.024 5.188 7.82 10.68 7.74
8/25/2023 9:00:00 PM 21.63 70.934 5.192 7.82 9.21 7.69
8/25/2023 9:15:00 PM 21.57 70.826 5.179 7.81 10.37 7.65
8/25/2023 9:30:00 PM 21.52 70.736 5.194 7.81 9.65 7.61
8/25/2023 9:45:00 PM 21.46 70.628 5.208 7.81 9.49 7.59
8/25/2023 10:00:00 PM 21.41 70.538 5.214 7.8 9.97 7.57
8/25/2023 10:15:00 PM 21.36 70.448 5.215 7.8 10.02 7.56
8/25/2023 10:30:00 PM 21.31 70.358 5.226 7.8 10.23 7.55
8/25/2023 10:45:00 PM 21.26 70.268 5.219 7.8 10.76 7.52
8/25/2023 11:00:00 PM 21.2 70.16 5.225 7.79 10.27 7.5
8/25/2023 11:15:00 PM 21.14 70.052 6.449 7.79 10.61 7.45
8/25/2023 11:30:00 PM 21.08 69.944 6.609 7.79 10.73 7.43
8/25/2023 11:45:00 PM 21.02 69.836 6.525 7.79 10.98 7.4
8/26/2023 12:00:00 AM 20.95 69.71 6.002 7.78 11.74 7.4
8/26/2023 12:15:00 AM 20.89 69.602 6.596 7.78 11.43 7.35
8/26/2023 12:30:00 AM 20.82 69.476 7.207 7.78 11.95 7.32
8/26/2023 12:45:00 AM 20.75 69.35 6.887 7.77 13.71 7.31
8/26/2023 1:00:00 AM 20.68 69.224 7.424 7.77 13.25 7.28
8/26/2023 1:15:00 AM 20.62 69.116 7.447 7.77 12.55 7.25
8/26/2023 1:30:00 AM 20.56 69.008 7.401 7.76 12.7 7.23
8/26/2023 1:45:00 AM 20.51 68.918 7.416 7.76 13.38 7.21
8/26/2023 2:00:00 AM 20.46 68.828 7.413 7.76 12.81 7.19
8/26/2023 2:15:00 AM 20.41 68.738 7.344 7.75 14.15 7.18
8/26/2023 2:30:00 AM 20.36 68.648 7.373 7.75 13.77 7.16
8/26/2023 2:45:00 AM 20.32 68.576 7.449 7.75 13.77 7.14
8/26/2023 3:00:00 AM 20.28 68.504 7.183 7.75 14.76 7.15
8/26/2023 3:15:00 AM 20.25 68.45 7.233 7.74 13.82 7.13
8/26/2023 3:30:00 AM 20.22 68.396 7.25 7.74 12.67 7.12
8/26/2023 3:45:00 AM 20.19 68.342 7.18 7.74 12.31 7.11
8/26/2023 4:00:00 AM 20.16 68.288 7.237 7.74 12.35 7.1
8/26/2023 4:15:00 AM 20.12 68.216 8.075 7.74 13.78 7.09
8/26/2023 4:30:00 AM 20.09 68.162 8.054 7.74 13.34 7.09
8/26/2023 4:45:00 AM 20.05 68.09 8.037 7.74 15.1 7.1
8/26/2023 5:00:00 AM 20.01 68.018 8.096 7.74 15.53 7.1
8/26/2023 5:15:00 AM 19.97 67.946 8.106 7.74 15.51 7.1
8/26/2023 5:30:00 AM 19.93 67.874 8.104 7.74 15.68 7.11
8/26/2023 5:45:00 AM 19.9 67.82 8.086 7.74 15.4 7.11
8/26/2023 6:00:00 AM 19.86 67.748 8.09 7.74 15.85 7.11
8/26/2023 6:15:00 AM 19.82 67.676 8.138 7.74 15.65 7.12
8/26/2023 6:30:00 AM 19.78 67.604 8.132 7.75 14.49 7.13
8/26/2023 6:45:00 AM 19.75 67.55 8.059 7.74 13.49 7.15
8/26/2023 7:00:00 AM 19.72 67.496 8.067 7.75 12.51 7.17
8/26/2023 7:15:00 AM 19.7 67.46 8.033 7.75 12.28 7.2
8/26/2023 7:30:00 AM 19.69 67.442 7.986 7.75 11.54 7.23
8/26/2023 7:45:00 AM 19.67 67.406 7.949 7.75 10.49 7.28
8/26/2023 8:00:00 AM 19.67 67.406 7.967 7.76 10.17 7.33
8/26/2023 8:15:00 AM 19.67 67.406 7.982 7.76 10.02 7.38
8/26/2023 8:30:00 AM 19.69 67.442 7.933 7.76 9.87 7.45
8/26/2023 8:45:00 AM 19.71 67.478 7.941 7.77 10.03 7.52
8/26/2023 9:00:00 AM 19.75 67.55 7.927 7.77 10.27 7.59
8/26/2023 9:15:00 AM 19.79 67.622 7.884 7.78 10.22 7.64
8/26/2023 9:30:00 AM 19.83 67.694 7.838 7.79 10.13 7.69
8/26/2023 9:45:00 AM 19.89 67.802 7.834 7.8 9.48 7.8
8/26/2023 10:00:00 AM 19.97 67.946 7.771 7.81 8.64 7.92
8/26/2023 10:15:00 AM 20.06 68.108 7.706 7.83 8.07 8.06
8/26/2023 10:30:00 AM 20.14 68.252 7.693 7.84 7.55 8.18
8/26/2023 10:45:00 AM 20.24 68.432 7.629 7.85 7.72 8.3
8/26/2023 11:00:00 AM 20.31 68.558 7.617 7.86 7.53 8.39
8/26/2023 11:15:00 AM 20.38 68.684 7.567 7.87 7.51 8.5
8/26/2023 11:30:00 AM 20.45 68.81 7.528 7.88 7.66 8.61
8/26/2023 11:45:00 AM 20.51 68.918 7.46 7.88 7.76 8.69
8/26/2023 12:00:00 PM 20.57 69.026 7.396 7.89 7.64 8.74
8/26/2023 12:15:00 PM 20.65 69.17 7.368 7.9 7.09 8.8
8/26/2023 12:30:00 PM 20.73 69.314 7.356 7.9 7.49 8.9
8/26/2023 12:45:00 PM 20.76 69.368 7.33 7.91 6.99 8.9
8/26/2023 1:00:00 PM 20.85 69.53 7.306 7.91 7.25 8.98
8/26/2023 1:15:00 PM 20.96 69.728 7.278 7.93 7.51 9.11
8/26/2023 1:30:00 PM 21.09 69.962 7.267 7.94 7.03 9.22
8/26/2023 1:45:00 PM 21.17 70.106 7.264 7.95 6.95 9.25
8/26/2023 2:00:00 PM 21.27 70.286 7.244 7.96 6.84 9.29
8/26/2023 2:15:00 PM 21.43 70.574 7.222 7.97 6.64 9.34
8/26/2023 2:30:00 PM 21.55 70.79 7.178 7.98 6.89 9.34
8/26/2023 2:45:00 PM 21.65 70.97 7.148 7.98 6.76 9.32
8/26/2023 3:00:00 PM 21.72 71.096 7.135 7.99 6.91 9.32
8/26/2023 3:15:00 PM 21.81 71.258 7.147 7.99 6.44 9.3
8/26/2023 3:30:00 PM 21.87 71.366 7.185 8 6.31 9.24
8/26/2023 3:45:00 PM 21.94 71.492 7.223 8 6.26 9.15
8/26/2023 4:00:00 PM 22.06 71.708 7.297 8 6.16 9.17
8/26/2023 4:15:00 PM 22.16 71.888 7.336 8.01 6.03 9.15
8/26/2023 4:30:00 PM 22.23 72.014 7.418 8.01 6.04 9.09
8/26/2023 4:45:00 PM 22.3 72.14 7.416 8.01 6.02 8.98
8/26/2023 5:00:00 PM 22.39 72.302 7.438 8.01 6.16 8.91
8/26/2023 5:15:00 PM 22.5 72.5 7.469 8 6.27 8.83
8/26/2023 5:30:00 PM 22.58 72.644 7.483 8.01 6.03 8.75
8/26/2023 5:45:00 PM 22.64 72.752 7.526 8.01 5.83 8.65
8/26/2023 6:00:00 PM 22.65 72.77 7.482 8 5.94 8.55
8/26/2023 6:15:00 PM 22.65 72.77 7.506 8 5.97 8.45
8/26/2023 6:30:00 PM 22.64 72.752 7.51 8 5.67 8.37
8/26/2023 6:45:00 PM 22.61 72.698 7.523 7.99 5.59 8.3
8/26/2023 7:00:00 PM 22.56 72.608 7.537 7.99 5.61 8.23
8/26/2023 7:15:00 PM 22.5 72.5 7.546 7.98 5.63 8.15
8/26/2023 7:30:00 PM 22.45 72.41 7.553 7.98 6.08 8.08
8/26/2023 7:45:00 PM 22.4 72.32 7.581 7.97 5.62 8.01
8/26/2023 8:00:00 PM 22.35 72.23 7.587 7.96 6.58 7.94
8/26/2023 8:15:00 PM 22.3 72.14 7.541 7.96 6.99 7.87
8/26/2023 8:30:00 PM 22.25 72.05 7.518 7.95 7.9 7.81
8/26/2023 8:45:00 PM 22.2 71.96 7.554 7.95 8.53 7.74
8/26/2023 9:00:00 PM 22.16 71.888 7.602 7.94 8.98 7.68
8/26/2023 9:15:00 PM 22.1 71.78 7.628 7.93 8.73 7.63
8/26/2023 9:30:00 PM 22.05 71.69 7.651 7.93 8.97 7.58
8/26/2023 9:45:00 PM 21.99 71.582 7.67 7.92 10.71 7.55
8/26/2023 10:00:00 PM 21.93 71.474 7.674 7.92 10.49 7.52
8/26/2023 10:15:00 PM 21.86 71.348 7.674 7.91 10.08 7.5
8/26/2023 10:30:00 PM 21.8 71.24 7.679 7.91 10.61 7.48
8/26/2023 10:45:00 PM 21.74 71.132 7.695 7.9 10.69 7.46
8/26/2023 11:00:00 PM 21.68 71.024 7.715 7.9 10.05 7.44
8/26/2023 11:15:00 PM 21.62 70.916 7.714 7.89 10.51 7.41
8/26/2023 11:30:00 PM 21.54 70.772 7.725 7.89 11.55 7.39
8/26/2023 11:45:00 PM 21.47 70.646 7.74 7.88 12.31 7.35
8/27/2023 12:00:00 AM 21.39 70.502 7.755 7.87 14.01 7.31
8/27/2023 12:15:00 AM 21.3 70.34 7.75 7.87 12.99 7.3
8/27/2023 12:30:00 AM 21.22 70.196 7.771 7.86 12.47 7.29
8/27/2023 12:45:00 AM 21.12 70.016 7.776 7.86 13.38 7.26
8/27/2023 1:00:00 AM 21.03 69.854 7.762 7.84 13.86 7.25
8/27/2023 1:15:00 AM 20.94 69.692 7.814 7.84 12.51 7.22
8/27/2023 1:30:00 AM 20.85 69.53 7.854 7.84 11.86 7.2
8/27/2023 1:45:00 AM 20.75 69.35 7.869 7.84 11.95 7.19
8/27/2023 2:00:00 AM 20.66 69.188 7.879 7.83 12.2 7.18
8/27/2023 2:15:00 AM 20.57 69.026 7.901 7.83 13.34 7.17
8/27/2023 2:30:00 AM 20.49 68.882 7.902 7.82 14.69 7.16
8/27/2023 2:45:00 AM 20.42 68.756 7.908 7.82 15.13 7.15
8/27/2023 3:00:00 AM 20.34 68.612 7.916 7.81 13.39 7.14
8/27/2023 3:15:00 AM 20.27 68.486 7.952 7.81 13.67 7.13
8/27/2023 3:30:00 AM 20.21 68.378 7.911 7.81 13.46 7.12
8/27/2023 3:45:00 AM 20.14 68.252 7.927 7.81 15.13 7.13
8/27/2023 4:00:00 AM 20.08 68.144 7.915 7.81 13.18 7.13
8/27/2023 4:15:00 AM 20.01 68.018 7.933 7.8 13.59 7.13
8/27/2023 4:30:00 AM 19.95 67.91 7.932 7.8 13.95 7.14
8/27/2023 4:45:00 AM 19.88 67.784 7.867 7.8 14.09 7.14
8/27/2023 5:00:00 AM 19.82 67.676 7.878 7.8 14.25 7.14
8/27/2023 5:15:00 AM 19.76 67.568 7.871 7.8 15.14 7.15
8/27/2023 5:30:00 AM 19.71 67.478 7.843 7.79 16.8 7.15
8/27/2023 5:45:00 AM 19.65 67.37 7.863 7.8 17.32 7.15
8/27/2023 6:00:00 AM 19.6 67.28 7.871 7.79 16.86 7.15
8/27/2023 6:15:00 AM 19.54 67.172 7.861 7.8 16.17 7.17
8/27/2023 6:30:00 AM 19.48 67.064 7.87 7.8 14.43 7.19
8/27/2023 6:45:00 AM 19.43 66.974 7.85 7.79 14.03 7.21
8/27/2023 7:00:00 AM 19.38 66.884 7.854 7.79 13.4 7.23
8/27/2023 7:15:00 AM 19.33 66.794 7.851 7.8 13.19 7.25
8/27/2023 7:30:00 AM 19.3 66.74 7.851 7.8 13.54 7.28
8/27/2023 7:45:00 AM 19.26 66.668 7.875 7.8 12.31 7.32
8/27/2023 8:00:00 AM 19.24 66.632 7.855 7.8 11.87 7.36
8/27/2023 8:15:00 AM 19.22 66.596 7.817 7.8 10.64 7.4
8/27/2023 8:30:00 AM 19.21 66.578 7.801 7.8 10.06 7.44
8/27/2023 8:45:00 AM 19.21 66.578 7.794 7.81 9.4 7.49
8/27/2023 9:00:00 AM 19.22 66.596 7.669 7.81 8.94 7.55
8/27/2023 9:15:00 AM 19.24 66.632 7.696 7.82 9.39 7.61
8/27/2023 9:30:00 AM 19.27 66.686 7.695 7.82 8.32 7.69
8/27/2023 9:45:00 AM 19.32 66.776 7.648 7.83 7.96 7.78
8/27/2023 10:00:00 AM 19.4 66.92 7.592 7.84 7.85 7.9
8/27/2023 10:15:00 AM 19.49 67.082 7.554 7.85 7.8 8.04
8/27/2023 10:30:00 AM 19.59 67.262 7.529 7.86 8 8.15
8/27/2023 10:45:00 AM 19.69 67.442 7.517 7.87 8.16 8.28
8/27/2023 11:00:00 AM 19.8 67.64 7.483 7.88 8.25 8.39
8/27/2023 11:15:00 AM 19.9 67.82 7.417 7.89 8.1 8.47
8/27/2023 11:30:00 AM 20 68 7.401 7.89 8.64 8.55
8/27/2023 11:45:00 AM 20.1 68.18 7.356 7.9 8.12 8.62
8/27/2023 12:00:00 PM 20.2 68.36 7.309 7.91 8.22 8.68
8/27/2023 12:15:00 PM 20.31 68.558 7.294 7.91 8.24 8.76
8/27/2023 12:30:00 PM 20.44 68.792 7.25 7.92 7.79 8.83
8/27/2023 12:45:00 PM 20.56 69.008 7.201 7.92 7.49 8.88
8/27/2023 1:00:00 PM 20.7 69.26 7.222 7.93 7.27 8.95
8/27/2023 1:15:00 PM 20.84 69.512 7.194 7.94 7.11 8.99
8/27/2023 1:30:00 PM 20.98 69.764 7.169 7.94 6.97 9.03
8/27/2023 1:45:00 PM 21.14 70.052 7.159 7.95 7.28 9.12
8/27/2023 2:00:00 PM 21.27 70.286 7.115 7.96 7.31 9.16
8/27/2023 2:15:00 PM 21.32 70.376 7.169 7.96 7.06 9.1
8/27/2023 2:30:00 PM 21.35 70.43 7.127 7.96 12.6 9.01
8/27/2023 2:45:00 PM 21.42 70.556 7.17 7.97 6.51 9.01
8/27/2023 3:00:00 PM 21.55 70.79 7.083 7.98 6.6 9.09
8/27/2023 3:15:00 PM 21.64 70.952 7.12 7.99 6.54 9.14
8/27/2023 3:30:00 PM 21.73 71.114 7.114 8 6.48 9.17
8/27/2023 3:45:00 PM 21.85 71.33 7.121 8.01 6.47 9.19
8/27/2023 4:00:00 PM 21.94 71.492 7.144 8.01 7.13 9.2
8/27/2023 4:15:00 PM 22.07 71.726 7.207 8.02 7.57 9.18
8/27/2023 4:30:00 PM 22.25 72.05 7.215 8.02 7.83 9.19
8/27/2023 4:45:00 PM 22.38 72.284 7.25 8.03 7.43 9.13
8/27/2023 5:00:00 PM 22.48 72.464 7.3 8.03 7.45 9.01
8/27/2023 5:15:00 PM 22.56 72.608 7.369 8.03 7.22 8.9
8/27/2023 5:30:00 PM 22.64 72.752 7.417 8.03 7.12 8.82
8/27/2023 5:45:00 PM 22.71 72.878 7.451 8.03 7.08 8.71
8/27/2023 6:00:00 PM 22.79 73.022 7.47 8.03 7.54 8.65
8/27/2023 6:15:00 PM 22.83 73.094 7.486 8.02 7.47 8.58
8/27/2023 6:30:00 PM 22.87 73.166 7.487 8.03 6.75 8.52
8/27/2023 6:45:00 PM 22.87 73.166 7.488 8.02 6.89 8.43
8/27/2023 7:00:00 PM 22.86 73.148 7.502 8.02 6.69 8.35
8/27/2023 7:15:00 PM 22.85 73.13 7.565 8.01 6.72 8.26
8/27/2023 7:30:00 PM 22.84 73.112 7.565 8.01 6.6 8.18
8/27/2023 7:45:00 PM 22.84 73.112 7.577 8.01 7.12 8.09
8/27/2023 8:00:00 PM 22.84 73.112 7.584 8 6.91 8.02
8/27/2023 8:15:00 PM 22.82 73.076 7.559 8 7.54 7.95
8/27/2023 8:30:00 PM 22.79 73.022 7.619 7.99 8.8 7.87
8/27/2023 8:45:00 PM 22.75 72.95 7.631 7.98 8.78 7.8
8/27/2023 9:00:00 PM 22.7 72.86 7.646 7.98 9.26 7.73
8/27/2023 9:15:00 PM 22.64 72.752 7.664 7.97 9.16 7.68
8/27/2023 9:30:00 PM 22.58 72.644 7.692 7.96 9.08 7.64
8/27/2023 9:45:00 PM 22.51 72.518 7.751 7.95 9.51 7.6
8/27/2023 10:00:00 PM 22.44 72.392 7.74 7.95 9.86 7.55
8/27/2023 10:15:00 PM 22.36 72.248 7.761 7.94 9.72 7.54
8/27/2023 10:30:00 PM 22.29 72.122 7.75 7.93 10.09 7.51
8/27/2023 10:45:00 PM 22.21 71.978 7.721 7.93 9.97 7.48
8/27/2023 11:00:00 PM 22.13 71.834 7.756 7.92 10.75 7.44
8/27/2023 11:15:00 PM 22.05 71.69 7.778 7.91 11.52 7.41
8/27/2023 11:30:00 PM 21.96 71.528 7.796 7.9 12.14 7.4
8/27/2023 11:45:00 PM 21.87 71.366 7.81 7.89 11.41 7.37
8/28/2023 12:00:00 AM 21.77 71.186 7.859 7.89 11.89 7.35
8/28/2023 12:15:00 AM 21.67 71.006 7.904 7.88 12.25 7.34
8/28/2023 12:30:00 AM 21.56 70.808 7.993 7.88 12.86 7.35
8/28/2023 12:45:00 AM 21.46 70.628 8.04 7.87 13.49 7.33
8/28/2023 1:00:00 AM 21.37 70.466 8.087 7.86 13.93 7.29
8/28/2023 1:15:00 AM 21.29 70.32201 8.103 7.86 14.25 7.26
8/28/2023 1:30:00 AM 21.2 70.16 8.097 7.85 13.93 7.24
8/28/2023 1:45:00 AM 21.11 69.998 8.134 7.84 13.71 7.23
8/28/2023 2:00:00 AM 21.03 69.854 8.138 7.84 13.4 7.2
8/28/2023 2:15:00 AM 20.95 69.71 8.129 7.83 13.8 7.17
8/28/2023 2:30:00 AM 20.87 69.566 8.129 7.83 13.43 7.15
8/28/2023 2:45:00 AM 20.8 69.44 8.183 7.82 13.75 7.13
8/28/2023 3:00:00 AM 20.74 69.332 8.203 7.82 15.07 7.11
8/28/2023 3:15:00 AM 20.68 69.224 8.197 7.81 14.63 7.12
8/28/2023 3:30:00 AM 20.62 69.116 8.191 7.81 16.01 7.1
8/28/2023 3:45:00 AM 20.56 69.008 8.208 7.8 15.03 7.1
8/28/2023 4:00:00 AM 20.49 68.882 8.221 7.8 17.35 7.12
8/28/2023 4:15:00 AM 20.43 68.774 8.233 7.79 21.35 7.12
8/28/2023 4:30:00 AM 20.38 68.684 8.282 7.79 20.65 7.11
8/28/2023 4:45:00 AM 20.33 68.594 8.315 7.78 19.13 7.11
8/28/2023 5:00:00 AM 20.28 68.504 8.308 7.78 17.6 7.11
8/28/2023 5:15:00 AM 20.24 68.432 8.325 7.78 15.7 7.1
8/28/2023 5:30:00 AM 20.2 68.36 8.328 7.77 15.05 7.09
8/28/2023 5:45:00 AM 20.16 68.288 8.254 7.77 15.25 7.08
8/28/2023 6:00:00 AM 20.11 68.198 8.266 7.77 15.51 7.08
8/28/2023 6:15:00 AM 20.06 68.108 8.235 7.77 13.69 7.08
8/28/2023 6:30:00 AM 20.01 68.018 8.23 7.77 13.62 7.1
8/28/2023 6:45:00 AM 19.96 67.92799 8.237 7.77 12.68 7.13
8/28/2023 7:00:00 AM 19.92 67.856 8.224 7.77 12.28 7.15
8/28/2023 7:15:00 AM 19.88 67.784 8.183 7.77 11.87 7.18
8/28/2023 7:30:00 AM 19.84 67.712 8.153 7.78 11.04 7.2
8/28/2023 7:45:00 AM 19.81 67.658 8.156 7.78 10.68 7.23
8/28/2023 8:00:00 AM 19.77 67.586 8.123 7.78 9.72 7.28
8/28/2023 8:15:00 AM 19.75 67.55 8.079 7.78 9.63 7.32
8/28/2023 8:30:00 AM 19.73 67.514 8.08 7.79 8.79 7.38
8/28/2023 8:45:00 AM 19.71 67.478 8.031 7.79 8.27 7.44
8/28/2023 9:00:00 AM 19.7 67.46 7.949 7.79 8.2 7.51
8/28/2023 9:15:00 AM 19.71 67.478 7.913 7.8 8.61 7.62
8/28/2023 9:30:00 AM 19.69 67.442 7.825 7.81 8.66 7.72
8/28/2023 9:45:00 AM 19.69 67.442 7.734 7.82 7.78 7.89
8/28/2023 10:00:00 AM 19.68 67.424 7.645 7.84 7.99 8.04
8/28/2023 10:15:00 AM 19.66 67.388 7.626 7.85 7.57 8.16
8/28/2023 10:30:00 AM 19.66 67.388 7.504 7.86 7.45 8.31
8/28/2023 10:45:00 AM 19.67 67.406 7.431 7.87 7.49 8.45
8/28/2023 11:00:00 AM 19.66 67.388 7.381 7.87 7.27 8.54
8/28/2023 11:15:00 AM 19.65 67.37 7.314 7.87 7.64 8.63
8/28/2023 11:30:00 AM 19.66 67.388 7.268 7.87 7.19 8.66
8/28/2023 11:45:00 AM 19.7 67.46 7.254 7.87 6.95 8.69
8/28/2023 12:00:00 PM 19.76 67.568 7.223 7.86 7.13 8.66
8/28/2023 12:15:00 PM 19.84 67.712 7.223 7.86 6.82 8.62
8/28/2023 12:30:00 PM 19.94 67.892 7.214 7.86 6.37 8.63
8/28/2023 12:45:00 PM 20.04 68.07201 7.256 7.85 6.67 8.65
8/28/2023 1:00:00 PM 20.13 68.234 7.279 7.85 6.51 8.66
8/28/2023 1:15:00 PM 20.19 68.342 7.301 7.85 6.52 8.62
8/28/2023 1:30:00 PM 20.25 68.45 7.319 7.84 6.48 8.56
8/28/2023 1:45:00 PM 20.32 68.576 7.299 7.84 6.84 8.52
8/28/2023 2:00:00 PM 20.4 68.72 7.315 7.84 6.73 8.52
8/28/2023 2:15:00 PM 20.46 68.828 7.326 7.84 6.33 8.54
8/28/2023 2:30:00 PM 20.51 68.918 7.31 7.85 6.56 8.55
8/28/2023 2:45:00 PM 20.56 69.008 7.362 7.85 6.33 8.64
8/28/2023 3:00:00 PM 20.63 69.134 7.395 7.87 6.07 8.75
8/28/2023 3:15:00 PM 20.71 69.278 7.472 7.88 6.29 8.85
8/28/2023 3:30:00 PM 20.79 69.422 7.547 7.89 6.08 8.88
8/28/2023 3:45:00 PM 20.89 69.602 7.57 7.9 6.62 8.9
8/28/2023 4:00:00 PM 20.99 69.782 7.607 7.91 6.29 8.94
8/28/2023 4:15:00 PM 21.11 69.998 7.673 7.92 6.18 8.97
8/28/2023 4:30:00 PM 21.21 70.17799 7.679 7.93 6.05 8.98
8/28/2023 4:45:00 PM 21.29 70.32201 7.691 7.94 5.78 8.96
8/28/2023 5:00:00 PM 21.36 70.448 7.714 7.94 5.8 8.94
8/28/2023 5:15:00 PM 21.42 70.556 7.747 7.95 5.67 8.91
8/28/2023 5:30:00 PM 21.48 70.664 7.751 7.96 5.77 8.9
8/28/2023 5:45:00 PM 21.52 70.736 7.753 7.96 6 8.87
8/28/2023 6:00:00 PM 21.55 70.79 7.721 7.96 5.75 8.84
8/28/2023 6:15:00 PM 21.57 70.826 7.78 7.97 5.55 8.79
8/28/2023 6:30:00 PM 21.59 70.862 7.796 7.97 5.53 8.75
8/28/2023 6:45:00 PM 21.61 70.898 7.804 7.97 5.74 8.7
8/28/2023 7:00:00 PM 21.62 70.916 7.796 7.97 5.49 8.65
8/28/2023 7:15:00 PM 21.63 70.934 7.819 7.97 5.51 8.58
8/28/2023 7:30:00 PM 21.62 70.916 7.868 7.96 5.3 8.48
8/28/2023 7:45:00 PM 21.61 70.898 7.868 7.96 6.16 8.38
8/28/2023 8:00:00 PM 21.59 70.862 7.888 7.95 5.67 8.28
8/28/2023 8:15:00 PM 21.55 70.79 7.87 7.94 6.63 8.18
8/28/2023 8:30:00 PM 21.51 70.718 8.059 7.93 7.22 8.08
8/28/2023 8:45:00 PM 21.46 70.628 8.081 7.93 7.57 8
8/28/2023 9:00:00 PM 21.42 70.556 8.074 7.92 8.22 7.93
8/28/2023 9:15:00 PM 21.37 70.466 8.092 7.91 8.47 7.88
8/28/2023 9:30:00 PM 21.32 70.376 8.084 7.91 8.63 7.84
8/28/2023 9:45:00 PM 21.28 70.304 8.087 7.9 8.28 7.82
8/28/2023 10:00:00 PM 21.23 70.214 8.076 7.9 8.68 7.8
8/28/2023 10:15:00 PM 21.19 70.142 8.069 7.9 9.14 7.8
8/28/2023 10:30:00 PM 21.14 70.052 8.058 7.9 9.45 7.77
8/28/2023 10:45:00 PM 21.09 69.962 7.935 7.9 9.36 7.77
8/28/2023 11:00:00 PM 21.04 69.872 7.928 7.89 10.27 7.75
8/28/2023 11:15:00 PM 20.98 69.764 7.958 7.89 10.55 7.73
8/28/2023 11:30:00 PM 20.92 69.656 7.965 7.89 11.25 7.7
8/28/2023 11:45:00 PM 20.86 69.548 7.936 7.88 11.16 7.68
8/29/2023 12:00:00 AM 20.8 69.44 7.948 7.88 11.76 7.66
8/29/2023 12:15:00 AM 20.74 69.332 7.926 7.87 11.2 7.63
8/29/2023 12:30:00 AM 20.68 69.224 7.946 7.87 13.7 7.6
8/29/2023 12:45:00 AM 20.61 69.098 7.937 7.86 13.54 7.58
8/29/2023 1:00:00 AM 20.54 68.972 7.939 7.86 13.36 7.56
8/29/2023 1:15:00 AM 20.48 68.864 7.929 7.85 13.32 7.53
8/29/2023 1:30:00 AM 20.42 68.756 7.956 7.84 11.89 7.5
8/29/2023 1:45:00 AM 20.35 68.63 7.947 7.84 11.27 7.47
8/29/2023 2:00:00 AM 20.29 68.522 7.965 7.83 11.63 7.43
8/29/2023 2:15:00 AM 20.22 68.396 7.959 7.82 11.66 7.39
8/29/2023 2:30:00 AM 20.17 68.306 7.975 7.82 11.08 7.36
8/29/2023 2:45:00 AM 20.11 68.198 7.973 7.81 11.15 7.34
8/29/2023 3:00:00 AM 20.06 68.108 8.01 7.81 11 7.32
8/29/2023 3:15:00 AM 20.02 68.036 8.015 7.8 11.3 7.29
8/29/2023 3:30:00 AM 19.98 67.964 8.02 7.8 11.6 7.27
8/29/2023 3:45:00 AM 19.94 67.892 8.039 7.8 12.17 7.26
8/29/2023 4:00:00 AM 19.92 67.856 8.066 7.8 12.44 7.24
8/29/2023 4:15:00 AM 19.89 67.802 8.073 7.79 12.35 7.23
8/29/2023 4:30:00 AM 19.87 67.766 8.116 7.79 12.82 7.21
8/29/2023 4:45:00 AM 19.86 67.748 8.102 7.79 13.9 7.2
8/29/2023 5:00:00 AM 19.84 67.712 8.117 7.79 15.39 7.19
8/29/2023 5:15:00 AM 19.83 67.694 8.125 7.79 15.29 7.18
8/29/2023 5:30:00 AM 19.81 67.658 8.121 7.79 16.31 7.16
8/29/2023 5:45:00 AM 19.8 67.64 8.136 7.78 15.12 7.17
8/29/2023 6:00:00 AM 19.79 67.622 8.14 7.78 14.65 7.16
8/29/2023 6:15:00 AM 19.77 67.586 8.146 7.78 14.53 7.16
8/29/2023 6:30:00 AM 19.76 67.568 8.138 7.78 14.41 7.14
8/29/2023 6:45:00 AM 19.74 67.532 8.165 7.78 14.72 7.15
8/29/2023 7:00:00 AM 19.73 67.514 8.124 7.78 14.44 7.16
8/29/2023 7:15:00 AM 19.72 67.496 8.083 7.78 14.49 7.18
8/29/2023 7:30:00 AM 19.71 67.478 8.127 7.78 13.47 7.2
8/29/2023 7:45:00 AM 19.7 67.46 8.109 7.78 11.78 7.22
8/29/2023 8:00:00 AM 19.69 67.442 8.126 7.79 11.05 7.25
8/29/2023 8:15:00 AM 19.68 67.424 8.102 7.79 10.45 7.29
8/29/2023 8:30:00 AM 19.68 67.424 8.113 7.79 9.66 7.34
8/29/2023 8:45:00 AM 19.68 67.424 8.13 7.8 8.94 7.38
8/29/2023 9:00:00 AM 19.67 67.406 8.144 7.8 8.78 7.43
8/29/2023 9:15:00 AM 19.67 67.406 8.122 7.81 8.76 7.49
8/29/2023 9:30:00 AM 19.67 67.406 8.046 7.81 8.73 7.56
8/29/2023 9:45:00 AM 19.67 67.406 8.081 7.82 8.87 7.63
8/29/2023 10:00:00 AM 19.68 67.424 8.032 7.82 8.33 7.69
8/29/2023 10:15:00 AM 19.67 67.406 7.991 7.82 8.91 7.74
8/29/2023 10:30:00 AM 19.68 67.424 7.934 7.83 9.04 7.87
8/29/2023 10:45:00 AM 19.71 67.478 7.903 7.84 8.95 8.04
8/29/2023 11:00:00 AM 19.73 67.514 7.848 7.85 7.93 8.18
8/29/2023 11:15:00 AM 19.74 67.532 7.785 7.86 7.88 8.3
8/29/2023 11:30:00 AM 19.77 67.586 7.802 7.88 7.37 8.45
8/29/2023 11:45:00 AM 19.81 67.658 7.736 7.89 7.25 8.59
8/29/2023 12:00:00 PM 19.84 67.712 7.682 7.89 7.41 8.65
8/29/2023 12:15:00 PM 19.86 67.748 7.668 7.9 6.98 8.66
8/29/2023 12:30:00 PM 19.89 67.802 7.646 7.9 6.87 8.65
8/29/2023 12:45:00 PM 19.92 67.856 7.611 7.91 7.08 8.68
8/29/2023 1:00:00 PM 19.91 67.838 7.618 7.9 7.04 8.64
8/29/2023 1:15:00 PM 19.9 67.82 7.602 7.9 6.79 8.59
8/29/2023 1:30:00 PM 19.91 67.838 7.618 7.9 6.72 8.67
8/29/2023 1:45:00 PM 19.91 67.838 7.649 7.91 6.84 8.76
8/29/2023 2:00:00 PM 19.91 67.838 7.583 7.91 6.46 8.84
8/29/2023 2:15:00 PM 19.9 67.82 7.594 7.91 6.47 8.8
8/29/2023 2:30:00 PM 19.9 67.82 7.594 7.91 6.32 8.71
8/29/2023 2:45:00 PM 19.94 67.892 7.622 7.92 6.22 8.71
8/29/2023 3:00:00 PM 19.99 67.982 7.651 7.92 6.02 8.73
8/29/2023 3:15:00 PM 20.04 68.07201 7.641 7.92 5.99 8.69
8/29/2023 3:30:00 PM 20.09 68.162 7.68 7.92 5.94 8.68
8/29/2023 3:45:00 PM 20.14 68.252 7.717 7.93 5.86 8.7
8/29/2023 4:00:00 PM 20.19 68.342 7.792 7.93 6.04 8.73
8/29/2023 4:15:00 PM 20.25 68.45 7.824 7.93 5.87 8.73
8/29/2023 4:30:00 PM 20.31 68.558 7.836 7.94 5.89 8.69
8/29/2023 4:45:00 PM 20.38 68.684 7.866 7.94 5.86 8.68
8/29/2023 5:00:00 PM 20.46 68.828 7.907 7.94 5.78 8.67
8/29/2023 5:15:00 PM 20.54 68.972 7.892 7.95 5.99 8.67
8/29/2023 5:30:00 PM 20.61 69.098 7.887 7.95 5.87 8.66
8/29/2023 5:45:00 PM 20.67 69.206 7.905 7.95 5.48 8.61
8/29/2023 6:00:00 PM 20.72 69.296 7.912 7.95 5.62 8.55
8/29/2023 6:15:00 PM 20.76 69.368 7.925 7.95 5.64 8.48
8/29/2023 6:30:00 PM 20.81 69.458 7.94 7.95 5.49 8.42
8/29/2023 6:45:00 PM 20.84 69.512 7.946 7.95 5.71 8.35
8/29/2023 7:00:00 PM 20.87 69.566 7.934 7.94 6.02 8.27
8/29/2023 7:15:00 PM 20.89 69.602 7.934 7.94 5.92 8.2
8/29/2023 7:30:00 PM 20.9 69.62 7.96 7.93 6.08 8.12
8/29/2023 7:45:00 PM 20.9 69.62 7.96 7.93 6.27 8.05
8/29/2023 8:00:00 PM 20.9 69.62 7.974 7.92 6.62 7.99
8/29/2023 8:15:00 PM 20.9 69.62 7.962 7.92 7.29 7.94
8/29/2023 8:30:00 PM 20.89 69.602 7.948 7.91 7.72 7.89
8/29/2023 8:45:00 PM 20.87 69.566 7.962 7.91 8.5 7.84
8/29/2023 9:00:00 PM 20.85 69.53 7.955 7.91 8.85 7.8
8/29/2023 9:15:00 PM 20.83 69.494 7.967 7.9 9.26 7.76
8/29/2023 9:30:00 PM 20.8 69.44 7.947 7.89 9.01 7.72
8/29/2023 9:45:00 PM 20.77 69.386 7.943 7.89 8.98 7.7
8/29/2023 10:00:00 PM 20.74 69.332 7.942 7.88 9.08 7.69
8/29/2023 10:15:00 PM 20.71 69.278 7.942 7.88 9.33 7.66
8/29/2023 10:30:00 PM 20.68 69.224 7.945 7.87 10.17 7.63
8/29/2023 10:45:00 PM 20.65 69.17 7.944 7.87 10.22 7.62
8/29/2023 11:00:00 PM 20.62 69.116 7.952 7.86 11.93 7.6
8/29/2023 11:15:00 PM 20.6 69.08 7.955 7.86 11.16 7.59
8/29/2023 11:30:00 PM 20.57 69.026 7.938 7.85 10.43 7.57
8/29/2023 11:45:00 PM 20.54 68.972 7.949 7.85 10.62 7.55
8/30/2023 12:00:00 AM 20.5 68.9 7.95 7.84 10.34 7.53
8/30/2023 12:15:00 AM 20.46 68.828 7.942 7.84 10.77 7.51
8/30/2023 12:30:00 AM 20.43 68.774 7.928 7.83 10.68 7.47
8/30/2023 12:45:00 AM 20.39 68.702 7.926 7.83 11.43 7.46
8/30/2023 1:00:00 AM 20.35 68.63 7.904 7.82 11.34 7.43
8/30/2023 1:15:00 AM 20.3 68.54 7.916 7.81 13.52 7.4
8/30/2023 1:30:00 AM 20.26 68.468 7.911 7.81 13.73 7.37
8/30/2023 1:45:00 AM 20.23 68.414 7.909 7.8 13.57 7.35
8/30/2023 2:00:00 AM 20.2 68.36 7.929 7.8 14.5 7.32
8/30/2023 2:15:00 AM 20.17 68.306 7.936 7.8 14.29 7.3
8/30/2023 2:30:00 AM 20.14 68.252 7.933 7.8 13.06 7.28
8/30/2023 2:45:00 AM 20.13 68.234 7.917 7.79 12.48 7.26
8/30/2023 3:00:00 AM 20.11 68.198 7.952 7.79 12.88 7.25
8/30/2023 3:15:00 AM 20.1 68.18 7.971 7.79 13.31 7.22
8/30/2023 3:30:00 AM 20.09 68.162 7.969 7.79 13.21 7.21
8/30/2023 3:45:00 AM 20.08 68.144 7.998 7.79 13.44 7.19
8/30/2023 4:00:00 AM 20.08 68.144 8.003 7.79 11.24 7.19
8/30/2023 4:15:00 AM 20.08 68.144 8.002 7.78 11.72 7.18
8/30/2023 4:30:00 AM 20.08 68.144 8.014 7.78 13.6 7.15
8/30/2023 4:45:00 AM 20.08 68.144 8.015 7.78 13.66 7.13
8/30/2023 5:00:00 AM 20.07 68.126 8.025 7.78 14.05 7.12
8/30/2023 5:15:00 AM 20.07 68.126 8.008 7.78 13.4 7.11
8/30/2023 5:30:00 AM 20.06 68.108 7.998 7.77 13.82 7.1
8/30/2023 5:45:00 AM 20.06 68.108 8.02 7.77 13.66 7.09
8/30/2023 6:00:00 AM 20.06 68.108 8.014 7.77 15.37 7.08
8/30/2023 6:15:00 AM 20.07 68.126 8.036 7.77 15.97 7.09
8/30/2023 6:30:00 AM 20.06 68.108 8.068 7.78 15.43 7.08
8/30/2023 6:45:00 AM 20.05 68.09 8.056 7.78 14.78 7.07
8/30/2023 7:00:00 AM 20.04 68.07201 8.037 7.78 13.9 7.08
8/30/2023 7:15:00 AM 20.03 68.054 8.028 7.78 13.68 7.11
8/30/2023 7:30:00 AM 20.02 68.036 8.06 7.79 12.47 7.13
8/30/2023 7:45:00 AM 20.02 68.036 8.031 7.79 12.03 7.17
8/30/2023 8:00:00 AM 20.02 68.036 8.01 7.79 11.9 7.21
8/30/2023 8:15:00 AM 20.01 68.018 7.962 7.8 11.58 7.27
8/30/2023 8:30:00 AM 20 68 7.991 7.8 11.66 7.29
8/30/2023 8:45:00 AM 20 68 7.942 7.8 11.98 7.32
8/30/2023 9:00:00 AM 20 68 7.917 7.8 10.3 7.36
8/30/2023 9:15:00 AM 20.03 68.054 7.898 7.81 9.85 7.42
8/30/2023 9:30:00 AM 20.06 68.108 7.842 7.81 9.79 7.51
8/30/2023 9:45:00 AM 20.08 68.144 7.805 7.82 10.08 7.6
8/30/2023 10:00:00 AM 20.13 68.234 7.762 7.83 10.59 7.73
8/30/2023 10:15:00 AM 20.18 68.324 7.699 7.84 11.06 7.86
8/30/2023 10:30:00 AM 20.24 68.432 7.636 7.85 11.92 7.98
8/30/2023 10:45:00 AM 20.3 68.54 7.591 7.86 11.99 8.11
8/30/2023 11:00:00 AM 20.34 68.612 7.545 7.86 11.48 8.2
8/30/2023 11:15:00 AM 20.36 68.648 7.461 7.87 11.02 8.29
8/30/2023 11:30:00 AM 20.39 68.702 7.455 7.88 9.54 8.37
8/30/2023 11:45:00 AM 20.45 68.81 7.397 7.88 8.74 8.47
8/30/2023 12:00:00 PM 20.54 68.972 7.326 7.89 8.47 8.58
8/30/2023 12:15:00 PM 20.59 69.062 7.31 7.9 7.64 8.63
8/30/2023 12:30:00 PM 20.65 69.17 7.314 7.9 7.55 8.64
8/30/2023 12:45:00 PM 20.78 69.404 7.292 7.91 7.37 8.72
8/30/2023 1:00:00 PM 20.93 69.674 7.255 7.92 7.44 8.86
8/30/2023 1:15:00 PM 21.05 69.89 7.302 7.94 7.06 8.95
8/30/2023 1:30:00 PM 21.16 70.088 7.267 7.94 6.86 9.01
8/30/2023 1:45:00 PM 21.23 70.214 7.292 7.95 7.21 9.01
8/30/2023 2:00:00 PM 21.37 70.466 7.259 7.95 7.78 9.03
8/30/2023 2:15:00 PM 21.6 70.88 7.289 7.96 7.46 9.15
8/30/2023 2:30:00 PM 21.72 71.096 7.31 7.97 9.7 9.16
8/30/2023 2:45:00 PM 21.81 71.258 7.362 7.97 9.57 9.11
8/30/2023 3:00:00 PM 21.93 71.474 7.354 7.98 8.21 9.12
8/30/2023 3:15:00 PM 22.07 71.726 7.367 7.99 7.98 9.16
8/30/2023 3:30:00 PM 22.18 71.924 7.373 8 7.98 9.15
8/30/2023 3:45:00 PM 22.25 72.05 7.375 8.01 6.75 9.1
8/30/2023 4:00:00 PM 22.28 72.104 7.347 8.02 6.47 9.07
8/30/2023 4:15:00 PM 22.3 72.14 7.353 8.02 7.25 9.05
8/30/2023 4:30:00 PM 22.35 72.23 7.341 8.03 7.02 9.01
8/30/2023 4:45:00 PM 22.36 72.248 7.559 8.03 6.86 8.97
8/30/2023 5:00:00 PM 22.34 72.212 7.531 8.03 6.59 8.9
8/30/2023 5:15:00 PM 22.33 72.194 7.55 8.03 6.09 8.84
8/30/2023 5:30:00 PM 22.31 72.158 7.51 8.03 6.3 8.8
8/30/2023 5:45:00 PM 22.3 72.14 7.473 8.03 7.12 8.75
8/30/2023 6:00:00 PM 22.29 72.122 7.582 8.03 6.47 8.67
8/30/2023 6:15:00 PM 22.26 72.068 7.606 8.03 6.16 8.59
8/30/2023 6:30:00 PM 22.24 72.032 7.564 8.02 6 8.52
8/30/2023 6:45:00 PM 22.22 71.996 7.731 8.02 7.16 8.44
8/30/2023 7:00:00 PM 22.21 71.978 7.721 8.02 5.79 8.36
8/30/2023 7:15:00 PM 22.2 71.96 7.743 8.01 5.63 8.27
8/30/2023 7:30:00 PM 22.19 71.942 7.798 8 5.52 8.17
8/30/2023 7:45:00 PM 22.17 71.906 7.821 8 6.28 8.07
8/30/2023 8:00:00 PM 22.14 71.852 7.797 7.99 6.61 8.01
8/30/2023 8:15:00 PM 22.1 71.78 7.754 7.98 7.32 7.93
8/30/2023 8:30:00 PM 22.06 71.708 7.803 7.98 8.15 7.87
8/30/2023 8:45:00 PM 22.02 71.636 7.765 7.97 8.63 7.8
8/30/2023 9:00:00 PM 21.98 71.564 7.809 7.96 8.67 7.75
8/30/2023 9:15:00 PM 21.94 71.492 7.795 7.96 8.94 7.7
8/30/2023 9:30:00 PM 21.88 71.384 7.711 7.95 11.67 7.65
8/30/2023 9:45:00 PM 21.82 71.276 7.794 7.95 10.33 7.62
8/30/2023 10:00:00 PM 21.74 71.132 7.789 7.94 9.51 7.61
8/30/2023 10:15:00 PM 21.67 71.006 7.779 7.93 9.96 7.58
8/30/2023 10:30:00 PM 21.58 70.844 7.768 7.93 10.2 7.56
8/30/2023 10:45:00 PM 21.48 70.664 7.742 7.92 10.9 7.52
8/30/2023 11:00:00 PM 21.38 70.484 7.742 7.91 10.44 7.51
8/30/2023 11:15:00 PM 21.28 70.304 7.732 7.9 10.62 7.49
8/30/2023 11:30:00 PM 21.18 70.124 7.72 7.9 10.44 7.46
8/30/2023 11:45:00 PM 21.06 69.908 7.734 7.89 11.05 7.46
8/31/2023 12:00:00 AM 20.94 69.692 7.779 7.88 10.5 7.43
8/31/2023 12:15:00 AM 20.83 69.494 7.74 7.87 10.95 7.39
8/31/2023 12:30:00 AM 20.71 69.278 7.732 7.86 11.02 7.38
8/31/2023 12:45:00 AM 20.6 69.08 7.707 7.86 13.44 7.36
8/31/2023 1:00:00 AM 20.49 68.882 7.701 7.85 11.16 7.34
8/31/2023 1:15:00 AM 20.39 68.702 7.702 7.84 10.23 7.33
8/31/2023 1:30:00 AM 20.29 68.522 7.707 7.84 10.33 7.3
8/31/2023 1:45:00 AM 20.2 68.36 7.736 7.83 10.17 7.27
8/31/2023 2:00:00 AM 20.11 68.198 7.781 7.82 9.71 7.25
8/31/2023 2:15:00 AM 20.03 68.054 7.8 7.82 9.37 7.23
8/31/2023 2:30:00 AM 19.94 67.892 7.81 7.81 9.34 7.22
8/31/2023 2:45:00 AM 19.86 67.748 7.811 7.81 9.43 7.21
8/31/2023 3:00:00 AM 19.79 67.622 7.812 7.81 9.02 7.2
8/31/2023 3:15:00 AM 19.72 67.496 7.793 7.8 9.43 7.19
8/31/2023 3:30:00 AM 19.65 67.37 7.821 7.8 9.51 7.18
8/31/2023 3:45:00 AM 19.59 67.262 7.833 7.8 9.58 7.15
8/31/2023 4:00:00 AM 19.53 67.154 7.805 7.8 10.3 7.16
8/31/2023 4:15:00 AM 19.47 67.046 7.851 7.8 10.11 7.16
8/31/2023 4:30:00 AM 19.4 66.92 7.853 7.79 10.76 7.17
8/31/2023 4:45:00 AM 19.34 66.812 7.852 7.79 11.84 7.17
8/31/2023 5:00:00 AM 19.29 66.722 7.863 7.79 11.97 7.16
8/31/2023 5:15:00 AM 19.23 66.614 7.926 7.79 12.93 7.16
8/31/2023 5:30:00 AM 19.17 66.506 7.914 7.79 13.57 7.16
8/31/2023 5:45:00 AM 19.12 66.416 7.939 7.79 15.46 7.16
8/31/2023 6:00:00 AM 19.06 66.308 7.936 7.79 14.72 7.16
8/31/2023 6:15:00 AM 19.01 66.218 7.961 7.79 13.77 7.16
8/31/2023 6:30:00 AM 18.95 66.11 7.944 7.79 13.3 7.18
8/31/2023 6:45:00 AM 18.91 66.038 7.951 7.79 12.3 7.2
8/31/2023 7:00:00 AM 18.85 65.93 7.954 7.79 14.31 7.23
8/31/2023 7:15:00 AM 18.81 65.858 7.974 7.79 13.18 7.26
8/31/2023 7:30:00 AM 18.77 65.786 7.92 7.8 11.79 7.29
8/31/2023 7:45:00 AM 18.73 65.714 7.953 7.8 11.3 7.34
8/31/2023 8:00:00 AM 18.7 65.66 8.002 7.8 10.25 7.4
8/31/2023 8:15:00 AM 18.66 65.588 7.958 7.81 9.42 7.46
8/31/2023 8:30:00 AM 18.61 65.498 7.966 7.81 8.98 7.49
8/31/2023 8:45:00 AM 18.57 65.426 7.966 7.81 9.24 7.51
8/31/2023 9:00:00 AM 18.53 65.354 7.91 7.82 8.9 7.56
8/31/2023 9:15:00 AM 18.5 65.3 7.898 7.82 8.67 7.64
8/31/2023 9:30:00 AM 18.48 65.264 7.88 7.83 8.18 7.74
8/31/2023 9:45:00 AM 18.46 65.228 7.826 7.84 8.15 7.85
8/31/2023 10:00:00 AM 18.45 65.21 7.778 7.85 7.91 7.99
8/31/2023 10:15:00 AM 18.46 65.228 7.758 7.86 7.95 8.14
8/31/2023 10:30:00 AM 18.5 65.3 7.769 7.87 7.95 8.29
8/31/2023 10:45:00 AM 18.58 65.444 7.688 7.87 7.71 8.42
8/31/2023 11:00:00 AM 18.66 65.588 7.675 7.89 7.63 8.54
8/31/2023 11:15:00 AM 18.72 65.696 7.63 7.89 7.27 8.63
8/31/2023 11:30:00 AM 18.79 65.82201 7.565 7.91 7.3 8.72
8/31/2023 11:45:00 AM 18.85 65.93 7.498 7.91 7.1 8.8
8/31/2023 12:00:00 PM 18.93 66.074 7.56 7.92 6.74 8.87
8/31/2023 12:15:00 PM 19.01 66.218 7.458 7.93 6.53 8.95
8/31/2023 12:30:00 PM 19.12 66.416 7.401 7.94 6.59 9.04
8/31/2023 12:45:00 PM 19.24 66.632 7.416 7.95 6.38 9.1
8/31/2023 1:00:00 PM 19.38 66.884 7.369 7.95 6.39 9.15
8/31/2023 1:15:00 PM 19.52 67.136 7.366 7.96 6.45 9.21
8/31/2023 1:30:00 PM 19.65 67.37 7.291 7.97 6.39 9.26
8/31/2023 1:45:00 PM 19.77 67.586 7.248 7.97 6.38 9.34
8/31/2023 2:00:00 PM 19.9 67.82 7.293 7.98 6.22 9.37
8/31/2023 2:15:00 PM 20.02 68.036 7.292 7.99 6.52 9.41
8/31/2023 2:30:00 PM 20.13 68.234 7.27 7.99 6.43 9.43
8/31/2023 2:45:00 PM 20.24 68.432 7.291 8 6.12 9.43
8/31/2023 3:00:00 PM 20.33 68.594 7.319 8.01 6.27 9.43
8/31/2023 3:15:00 PM 20.43 68.774 7.342 8.01 6.1 9.42
8/31/2023 3:30:00 PM 20.53 68.954 7.376 8.01 5.93 9.4
8/31/2023 3:45:00 PM 20.61 69.098 7.4 8.02 5.85 9.36
8/31/2023 4:00:00 PM 20.69 69.242 7.442 8.02 5.78 9.31
8/31/2023 4:15:00 PM 20.76 69.368 7.517 8.02 5.73 9.25
8/31/2023 4:30:00 PM 20.83 69.494 7.576 8.03 5.74 9.19
8/31/2023 4:45:00 PM 20.89 69.602 7.589 8.03 5.81 9.13
8/31/2023 5:00:00 PM 20.94 69.692 7.622 8.03 5.72 9.07
8/31/2023 5:15:00 PM 20.98 69.764 7.659 8.03 5.69 9
8/31/2023 5:30:00 PM 20.99 69.782 7.649 8.03 5.48 8.93
8/31/2023 5:45:00 PM 21 69.8 7.663 8.03 5.78 8.88
8/31/2023 6:00:00 PM 20.99 69.782 7.659 8.03 5.51 8.79
8/31/2023 6:15:00 PM 20.98 69.764 7.666 8.03 5.69 8.71
8/31/2023 6:30:00 PM 20.95 69.71 7.676 8.03 5.47 8.64
8/31/2023 6:45:00 PM 20.93 69.674 7.677 8.03 5.51 8.57
8/31/2023 7:00:00 PM 20.89 69.602 7.731 8.02 5.68 8.5
8/31/2023 7:15:00 PM 20.84 69.512 7.683 8.02 5.67 8.44
8/31/2023 7:30:00 PM 20.8 69.44 7.742 8.02 5.77 8.37
8/31/2023 7:45:00 PM 20.75 69.35 7.807 8.02 5.8 8.3
8/31/2023 8:00:00 PM 20.71 69.278 7.81 8.01 6.27 8.23
8/31/2023 8:15:00 PM 20.66 69.188 7.825 8 6.79 8.17
8/31/2023 8:30:00 PM 20.61 69.098 7.793 8 7.51 8.11
8/31/2023 8:45:00 PM 20.58 69.044 7.786 8 7.98 8.06
8/31/2023 9:00:00 PM 20.54 68.972 7.845 7.99 8.8 8.02
8/31/2023 9:15:00 PM 20.5 68.9 7.831 7.99 8.54 7.98
8/31/2023 9:30:00 PM 20.46 68.828 7.801 7.99 8.94 7.95
8/31/2023 9:45:00 PM 20.41 68.738 7.861 7.98 9.11 7.93
8/31/2023 10:00:00 PM 20.35 68.63 7.819 7.98 8.85 7.91
8/31/2023 10:15:00 PM 20.28 68.504 7.812 7.98 8.97 7.89
8/31/2023 10:30:00 PM 20.2 68.36 7.84 7.97 9.38 7.86
8/31/2023 10:45:00 PM 20.11 68.198 7.848 7.96 10.4 7.86
8/31/2023 11:00:00 PM 20.02 68.036 7.807 7.96 9.98 7.84
8/31/2023 11:15:00 PM 19.91 67.838 7.8 7.95 11.01 7.84
8/31/2023 11:30:00 PM 19.82 67.676 7.786 7.95 10.63 7.82
8/31/2023 11:45:00 PM 19.71 67.478 7.789 7.94 10.74 7.81
9/1/2023 12:00:00 AM 19.59 67.262 7.755 7.93 10.4 7.8
9/1/2023 12:15:00 AM 19.47 67.046 7.755 7.93 9.9 7.79
9/1/2023 12:30:00 AM 19.35 66.83 7.824 7.92 9.89 7.77
9/1/2023 12:45:00 AM 19.23 66.614 7.766 7.91 10.14 7.76
9/1/2023 1:00:00 AM 19.1 66.38 7.843 7.9 10.08 7.74
9/1/2023 1:15:00 AM 18.98 66.164 7.82 7.89 9.99 7.72
9/1/2023 1:30:00 AM 18.86 65.948 7.791 7.88 10.33 7.71
9/1/2023 1:45:00 AM 18.74 65.732 7.798 7.87 11.11 7.7
9/1/2023 2:00:00 AM 18.63 65.534 7.825 7.87 12.18 7.67
9/1/2023 2:15:00 AM 18.52 65.336 7.843 7.86 11.9 7.66
9/1/2023 2:30:00 AM 18.4 65.12 7.829 7.85 10.67 7.66
9/1/2023 2:45:00 AM 18.3 64.94 7.885 7.85 11.4 7.64
9/1/2023 3:00:00 AM 18.2 64.76 7.905 7.84 10.33 7.64
9/1/2023 3:15:00 AM 18.11 64.598 7.883 7.84 10.37 7.64
9/1/2023 3:30:00 AM 18.03 64.454 7.895 7.84 10.86 7.64
9/1/2023 3:45:00 AM 17.94 64.292 7.921 7.83 10.72 7.64
9/1/2023 4:00:00 AM 17.85 64.13 7.927 7.83 10.45 7.65
9/1/2023 4:15:00 AM 17.76 63.968 7.968 7.83 9.61 7.65
9/1/2023 4:30:00 AM 17.68 63.824 7.97 7.83 9.26 7.66
9/1/2023 4:45:00 AM 17.6 63.68 7.995 7.82 9.36 7.65
9/1/2023 5:00:00 AM 17.53 63.554 7.978 7.82 10.59 7.64
9/1/2023 5:15:00 AM 17.46 63.428 7.989 7.82 10.07 7.64
9/1/2023 5:30:00 AM 17.38 63.284 7.971 7.81 10.6 7.65
9/1/2023 5:45:00 AM 17.3 63.14 7.938 7.81 11.17 7.66
9/1/2023 6:00:00 AM 17.22 62.996 7.992 7.81 12.41 7.67
9/1/2023 6:15:00 AM 17.15 62.87 7.989 7.81 12.04 7.69
9/1/2023 6:30:00 AM 17.08 62.744 8.005 7.81 11.51 7.7
9/1/2023 6:45:00 AM 17.02 62.636 7.998 7.81 11.03 7.72
9/1/2023 7:00:00 AM 16.94 62.492 8.01 7.81 11.18 7.74
9/1/2023 7:15:00 AM 16.87 62.366 8.025 7.81 10.66 7.77
9/1/2023 7:30:00 AM 16.82 62.276 8.048 7.81 10.26 7.81
9/1/2023 7:45:00 AM 16.77 62.186 8.048 7.82 9.76 7.84
9/1/2023 8:00:00 AM 16.74 62.132 8.05 7.82 9.43 7.88
9/1/2023 8:15:00 AM 16.72 62.096 8.025 7.82 8.47 7.93
9/1/2023 8:30:00 AM 16.71 62.078 8.024 7.82 8.3 7.97
9/1/2023 8:45:00 AM 16.71 62.078 8.025 7.83 7.66 8.02
9/1/2023 9:00:00 AM 16.72 62.096 8.021 7.83 7.48 8.06
9/1/2023 9:15:00 AM 16.74 62.132 7.997 7.84 7.15 8.13
9/1/2023 9:30:00 AM 16.78 62.204 7.963 7.84 6.96 8.21
9/1/2023 9:45:00 AM 16.84 62.312 7.938 7.85 6.92 8.32
9/1/2023 10:00:00 AM 16.93 62.474 7.92 7.86 6.59 8.45
9/1/2023 10:15:00 AM 17.04 62.672 7.882 7.87 6.58 8.61
9/1/2023 10:30:00 AM 17.16 62.888 7.845 7.89 6.63 8.75
9/1/2023 10:45:00 AM 17.28 63.104 7.793 7.9 6.98 8.87
9/1/2023 11:00:00 AM 17.4 63.32 7.742 7.91 7.37 8.96
9/1/2023 11:15:00 AM 17.5 63.5 7.678 7.92 6.93 9.04
9/1/2023 11:30:00 AM 17.61 63.698 7.575 7.92 6.85 9.1
9/1/2023 11:45:00 AM 17.73 63.914 7.526 7.93 7.19 9.2
9/1/2023 12:00:00 PM 17.85 64.13 7.436 7.92 9.66 9.28
9/1/2023 12:15:00 PM 17.96 64.328 7.43 7.94 6.53 9.34
9/1/2023 12:30:00 PM 18.09 64.562 7.4 7.95 6.18 9.4
9/1/2023 12:45:00 PM 18.24 64.832 7.372 7.95 6.28 9.45
9/1/2023 1:00:00 PM 18.4 65.12 7.34 7.96 6.13 9.51
9/1/2023 1:15:00 PM 18.56 65.408 7.31 7.97 6.07 9.58
9/1/2023 1:30:00 PM 18.7 65.66 7.276 7.98 5.94 9.62
9/1/2023 1:45:00 PM 18.85 65.93 7.284 7.98 5.95 9.66
9/1/2023 2:00:00 PM 19.01 66.218 7.247 7.99 5.81 9.69
9/1/2023 2:15:00 PM 19.17 66.506 7.246 8 5.94 9.74
9/1/2023 2:30:00 PM 19.33 66.794 7.212 8 6.03 9.76
9/1/2023 2:45:00 PM 19.46 67.028 7.184 8.01 5.83 9.76
9/1/2023 3:00:00 PM 19.6 67.28 7.196 8.02 5.85 9.74
9/1/2023 3:15:00 PM 19.73 67.514 7.209 8.02 5.74 9.74
9/1/2023 3:30:00 PM 19.84 67.712 7.165 8.03 5.57 9.71
9/1/2023 3:45:00 PM 19.96 67.92799 7.226 8.03 5.71 9.68
9/1/2023 4:00:00 PM 20.07 68.126 7.236 8.03 5.62 9.64
9/1/2023 4:15:00 PM 20.16 68.288 7.253 8.04 5.7 9.58
9/1/2023 4:30:00 PM 20.23 68.414 7.279 8.04 5.74 9.5
9/1/2023 4:45:00 PM 20.31 68.558 7.274 8.04 5.57 9.43
9/1/2023 5:00:00 PM 20.4 68.72 7.34 8.04 5.52 9.37
9/1/2023 5:15:00 PM 20.46 68.828 7.354 8.04 5.62 9.28
9/1/2023 5:30:00 PM 20.52 68.936 7.361 8.03 5.67 9.2
9/1/2023 5:45:00 PM 20.57 69.026 7.398 8.04 5.7 9.12
9/1/2023 6:00:00 PM 20.6 69.08 7.479 8.04 5.68 9.03
9/1/2023 6:15:00 PM 20.64 69.152 7.489 8.04 5.77 8.95
9/1/2023 6:30:00 PM 20.65 69.17 7.491 8.04 5.63 8.88
9/1/2023 6:45:00 PM 20.66 69.188 7.477 8.04 5.82 8.8
9/1/2023 7:00:00 PM 20.65 69.17 7.489 8.03 5.55 8.73
9/1/2023 7:15:00 PM 20.64 69.152 7.521 8.03 5.51 8.66
9/1/2023 7:30:00 PM 20.62 69.116 7.528 8.03 5.7 8.59
9/1/2023 7:45:00 PM 20.59 69.062 7.536 8.03 5.81 8.51
9/1/2023 8:00:00 PM 20.55 68.99 7.52 8.02 6.39 8.43
9/1/2023 8:15:00 PM 20.5 68.9 7.528 8.02 7.24 8.37
9/1/2023 8:30:00 PM 20.46 68.828 7.553 8.01 8.15 8.31
9/1/2023 8:45:00 PM 20.42 68.756 7.56 8 8.26 8.25
9/1/2023 9:00:00 PM 20.38 68.684 7.554 8.01 8.56 8.2
9/1/2023 9:15:00 PM 20.33 68.594 7.533 8 8.96 8.15
9/1/2023 9:30:00 PM 20.28 68.504 7.544 8 9.11 8.12
9/1/2023 9:45:00 PM 20.23 68.414 7.566 7.99 9.21 8.08
9/1/2023 10:00:00 PM 20.16 68.288 7.565 7.99 9.62 8.05
9/1/2023 10:15:00 PM 20.1 68.18 7.565 7.98 10.49 8.03
9/1/2023 10:30:00 PM 20.02 68.036 7.543 7.98 10.19 8.01
9/1/2023 10:45:00 PM 19.94 67.892 7.551 7.97 10.4 7.97
9/1/2023 11:00:00 PM 19.85 67.73 7.539 7.97 12.02 7.95
9/1/2023 11:15:00 PM 19.77 67.586 7.53 7.96 10.9 7.93
9/1/2023 11:30:00 PM 19.67 67.406 7.588 7.95 11.08 7.91
9/1/2023 11:45:00 PM 19.58 67.244 7.574 7.95 12.99 7.88
9/2/2023 12:00:00 AM 19.48 67.064 7.59 7.94 10.71 7.87
9/2/2023 12:15:00 AM 19.38 66.884 7.585 7.93 10.82 7.85
9/2/2023 12:30:00 AM 19.29 66.722 7.661 7.92 10.78 7.82
9/2/2023 12:45:00 AM 19.19 66.542 7.645 7.91 10.77 7.8
9/2/2023 1:00:00 AM 19.09 66.362 7.647 7.9 10.81 7.77
9/2/2023 1:15:00 AM 18.99 66.182 7.614 7.9 11.16 7.74
9/2/2023 1:30:00 AM 18.88 65.984 7.631 7.89 11.58 7.72
9/2/2023 1:45:00 AM 18.77 65.786 7.612 7.88 12.72 7.69
9/2/2023 2:00:00 AM 18.66 65.588 7.66 7.87 14.08 7.68
9/2/2023 2:15:00 AM 18.55 65.39 7.665 7.86 13.25 7.65
9/2/2023 2:30:00 AM 18.45 65.21 7.668 7.86 13.55 7.64
9/2/2023 2:45:00 AM 18.35 65.03 7.666 7.85 13.56 7.63
9/2/2023 3:00:00 AM 18.26 64.868 7.664 7.85 12.51 7.62
9/2/2023 3:15:00 AM 18.17 64.706 7.673 7.84 11.81 7.62
9/2/2023 3:30:00 AM 18.09 64.562 7.649 7.83 11.68 7.62
9/2/2023 3:45:00 AM 18.01 64.418 7.724 7.84 11.98 7.62
9/2/2023 4:00:00 AM 17.93 64.274 7.725 7.83 12.68 7.61
9/2/2023 4:15:00 AM 17.85 64.13 7.75 7.83 14.21 7.61
9/2/2023 4:30:00 AM 17.78 64.004 7.727 7.82 14.9 7.6
9/2/2023 4:45:00 AM 17.71 63.878 7.818 7.82 15.08 7.6
9/2/2023 5:00:00 AM 17.62 63.716 7.828 7.82 14.51 7.6
9/2/2023 5:15:00 AM 17.55 63.59 7.821 7.82 14.32 7.61
9/2/2023 5:30:00 AM 17.48 63.464 7.796 7.82 13.85 7.63
9/2/2023 5:45:00 AM 17.41 63.338 7.843 7.82 12.98 7.63
9/2/2023 6:00:00 AM 17.34 63.212 7.85 7.82 12.03 7.64
9/2/2023 6:15:00 AM 17.27 63.086 7.854 7.82 11.85 7.67
9/2/2023 6:30:00 AM 17.21 62.978 7.862 7.82 11.7 7.68
9/2/2023 6:45:00 AM 17.14 62.852 7.866 7.82 10.87 7.69
9/2/2023 7:00:00 AM 17.08 62.744 7.87 7.82 11.15 7.71
9/2/2023 7:15:00 AM 17.02 62.636 7.862 7.81 10.65 7.74
9/2/2023 7:30:00 AM 16.97 62.546 7.863 7.82 10.14 7.76
9/2/2023 7:45:00 AM 16.93 62.474 7.865 7.82 10.3 7.8
9/2/2023 8:00:00 AM 16.9 62.42 7.886 7.82 10.51 7.83
9/2/2023 8:15:00 AM 16.89 62.402 7.801 7.82 9.73 7.86
9/2/2023 8:30:00 AM 16.88 62.384 7.83 7.82 9.39 7.91
9/2/2023 8:45:00 AM 16.88 62.384 7.827 7.82 9.87 7.95
9/2/2023 9:00:00 AM 16.9 62.42 7.839 7.83 11.85 7.98
9/2/2023 9:15:00 AM 16.93 62.474 7.841 7.83 8.98 8.05
9/2/2023 9:30:00 AM 16.98 62.564 7.78 7.84 8.03 8.13
9/2/2023 9:45:00 AM 17.05 62.69 7.769 7.85 7.67 8.23
9/2/2023 10:00:00 AM 17.16 62.888 7.742 7.86 7.62 8.38
9/2/2023 10:15:00 AM 17.29 63.122 7.691 7.87 7.19 8.52
9/2/2023 10:30:00 AM 17.43 63.374 7.637 7.89 7.12 8.68
9/2/2023 10:45:00 AM 17.58 63.644 7.635 7.9 7.04 8.78
9/2/2023 11:00:00 AM 17.72 63.896 7.576 7.91 7.25 8.89
9/2/2023 11:15:00 AM 17.88 64.184 7.579 7.92 7.64 8.98
9/2/2023 11:30:00 AM 18.03 64.454 7.538 7.92 7.45 9.05
9/2/2023 11:45:00 AM 18.19 64.742 7.514 7.92 7.57 9.1
9/2/2023 12:00:00 PM 18.32 64.976 7.457 7.94 7.36 9.15
9/2/2023 12:15:00 PM 18.46 65.228 7.411 7.94 7.48 9.22
9/2/2023 12:30:00 PM 18.61 65.498 7.366 7.94 7.42 9.27
9/2/2023 12:45:00 PM 18.77 65.786 7.313 7.95 7.59 9.33
9/2/2023 1:00:00 PM 18.93 66.074 7.292 7.96 7.63 9.39
9/2/2023 1:15:00 PM 19.09 66.362 7.245 7.97 7.11 9.44
9/2/2023 1:30:00 PM 19.24 66.632 7.23 7.97 7.24 9.5
9/2/2023 1:45:00 PM 19.38 66.884 7.193 7.98 6.94 9.56
9/2/2023 2:00:00 PM 19.54 67.172 7.175 7.98 7 9.61
9/2/2023 2:15:00 PM 19.67 67.406 7.195 7.99 6.86 9.63
9/2/2023 2:30:00 PM 19.82 67.676 7.167 8 7.1 9.66
9/2/2023 2:45:00 PM 19.97 67.946 7.136 8.01 6.5 9.69
9/2/2023 3:00:00 PM 20.12 68.216 7.115 8.01 6.37 9.72
9/2/2023 3:15:00 PM 20.25 68.45 7.059 8.02 6.23 9.69
9/2/2023 3:30:00 PM 20.36 68.648 7.079 8.03 6.28 9.67
9/2/2023 3:45:00 PM 20.46 68.828 7.068 8.03 6.52 9.63
9/2/2023 4:00:00 PM 20.57 69.026 7.075 8.04 6.6 9.6
9/2/2023 4:15:00 PM 20.66 69.188 7.09 8.04 6.93 9.55
9/2/2023 4:30:00 PM 20.75 69.35 7.112 8.04 6.79 9.47
9/2/2023 4:45:00 PM 20.85 69.53 7.154 8.04 6.69 9.38
9/2/2023 5:00:00 PM 20.94 69.692 7.191 8.04 6.61 9.3
9/2/2023 5:15:00 PM 21.01 69.818 7.193 8.04 7.13 9.2
9/2/2023 5:30:00 PM 21.09 69.962 7.193 8.04 7.2 9.12
9/2/2023 5:45:00 PM 21.16 70.088 7.3 8.04 6.7 9.01
9/2/2023 6:00:00 PM 21.22 70.196 7.324 8.03 6.62 8.91
9/2/2023 6:15:00 PM 21.26 70.268 7.337 8.03 6.46 8.82
9/2/2023 6:30:00 PM 21.31 70.358 7.414 8.03 6.84 8.73
9/2/2023 6:45:00 PM 21.33 70.394 7.42 8.02 6.78 8.64
9/2/2023 7:00:00 PM 21.35 70.43 7.434 8.02 6.65 8.55
9/2/2023 7:15:00 PM 21.36 70.448 7.412 8.01 6.41 8.46
9/2/2023 7:30:00 PM 21.37 70.466 7.464 8.01 6.81 8.38
9/2/2023 7:45:00 PM 21.37 70.466 7.483 8.01 6.81 8.29
9/2/2023 8:00:00 PM 21.36 70.448 7.454 8 7.12 8.21
9/2/2023 8:15:00 PM 21.35 70.43 7.427 8 8.99 8.12
9/2/2023 8:30:00 PM 21.33 70.394 7.459 7.99 10.09 8.05
9/2/2023 8:45:00 PM 21.31 70.358 7.472 7.99 10.36 7.99
9/2/2023 9:00:00 PM 21.29 70.32201 7.545 7.99 10.22 7.95
9/2/2023 9:15:00 PM 21.26 70.268 7.537 7.98 10.21 7.9
9/2/2023 9:30:00 PM 21.24 70.232 7.51 7.98 10.73 7.85
9/2/2023 9:45:00 PM 21.21 70.17799 7.524 7.97 11.34 7.82
9/2/2023 10:00:00 PM 21.17 70.106 7.482 7.97 11.47 7.79
9/2/2023 10:15:00 PM 21.14 70.052 7.5 7.97 11.04 7.77
9/2/2023 10:30:00 PM 21.1 69.98 7.493 7.96 13.69 7.73
9/2/2023 10:45:00 PM 21.05 69.89 7.476 7.96 10.57 7.71
9/2/2023 11:00:00 PM 21 69.8 7.465 7.95 10.57 7.69
9/2/2023 11:15:00 PM 20.95 69.71 7.451 7.95 10.87 7.65
9/2/2023 11:30:00 PM 20.89 69.602 7.415 7.94 11.55 7.63
9/2/2023 11:45:00 PM 20.84 69.512 7.382 7.93 11.33 7.6
9/3/2023 12:00:00 AM 20.77 69.386 7.412 7.93 11.62 7.58
9/3/2023 12:15:00 AM 20.71 69.278 7.449 7.92 12.28 7.56
9/3/2023 12:30:00 AM 20.64 69.152 7.425 7.91 11.94 7.52
9/3/2023 12:45:00 AM 20.58 69.044 7.419 7.9 12.57 7.49
9/3/2023 1:00:00 AM 20.51 68.918 7.498 7.9 12.59 7.46
9/3/2023 1:15:00 AM 20.44 68.792 7.465 7.88 11.42 7.43
9/3/2023 1:30:00 AM 20.37 68.666 7.49 7.88 10.73 7.41
9/3/2023 1:45:00 AM 20.29 68.522 7.457 7.87 9.94 7.37
9/3/2023 2:00:00 AM 20.21 68.378 7.456 7.87 9.69 7.34
9/3/2023 2:15:00 AM 20.13 68.234 7.498 7.85 9.86 7.32
9/3/2023 2:30:00 AM 20.05 68.09 7.531 7.85 11.02 7.31
9/3/2023 2:45:00 AM 19.97 67.946 7.547 7.84 12.52 7.27
9/3/2023 3:00:00 AM 19.9 67.82 7.537 7.84 11.93 7.26
9/3/2023 3:15:00 AM 19.82 67.676 7.564 7.83 11.12 7.25
9/3/2023 3:30:00 AM 19.77 67.586 7.565 7.83 10.56 7.23
9/3/2023 3:45:00 AM 19.7 67.46 7.585 7.83 10.73 7.22
9/3/2023 4:00:00 AM 19.65 67.37 7.593 7.82 10.98 7.2
9/3/2023 4:15:00 AM 19.6 67.28 7.609 7.82 10.59 7.2
9/3/2023 4:30:00 AM 19.55 67.19 7.599 7.82 11.01 7.2
9/3/2023 4:45:00 AM 19.51 67.118 7.626 7.82 11.64 7.18
9/3/2023 5:00:00 AM 19.47 67.046 7.617 7.81 11.39 7.18
9/3/2023 5:15:00 AM 19.43 66.974 7.621 7.81 11.8 7.18
9/3/2023 5:30:00 AM 19.39 66.902 7.626 7.81 11.26 7.18
9/3/2023 5:45:00 AM 19.34 66.812 7.634 7.81 11.38 7.18
9/3/2023 6:00:00 AM 19.29 66.722 7.648 7.81 10.87 7.18
9/3/2023 6:15:00 AM 19.25 66.65 7.643 7.81 10.71 7.18
9/3/2023 6:30:00 AM 19.2 66.56 7.59 7.81 10.38 7.19
9/3/2023 6:45:00 AM 19.15 66.47 7.652 7.81 12.61 7.2
9/3/2023 7:00:00 AM 19.11 66.398 7.651 7.81 10.84 7.21
9/3/2023 7:15:00 AM 19.07 66.326 7.647 7.81 10.81 7.22
9/3/2023 7:30:00 AM 19.03 66.254 7.655 7.81 10.83 7.25
9/3/2023 7:45:00 AM 18.99 66.182 7.671 7.81 10.7 7.28
9/3/2023 8:00:00 AM 18.97 66.146 7.669 7.81 9.86 7.3
9/3/2023 8:15:00 AM 18.95 66.11 7.625 7.81 9.74 7.34
9/3/2023 8:30:00 AM 18.95 66.11 7.668 7.81 9.08 7.38
9/3/2023 8:45:00 AM 18.96 66.128 7.684 7.81 8.91 7.43
9/3/2023 9:00:00 AM 18.98 66.164 7.666 7.82 8.29 7.48
9/3/2023 9:15:00 AM 19.01 66.218 7.63 7.82 8.29 7.55
9/3/2023 9:30:00 AM 19.05 66.29 7.588 7.83 7.96 7.62
9/3/2023 9:45:00 AM 19.11 66.398 7.575 7.84 7.77 7.73
9/3/2023 10:00:00 AM 19.2 66.56 7.58 7.85 7.62 7.87
9/3/2023 10:15:00 AM 19.32 66.776 7.548 7.85 7.27 8.03
9/3/2023 10:30:00 AM 19.45 67.01 7.479 7.87 7.45 8.2
9/3/2023 10:45:00 AM 19.58 67.244 7.439 7.88 7.75 8.33
9/3/2023 11:00:00 AM 19.72 67.496 7.473 7.89 7.46 8.43
9/3/2023 11:15:00 AM 19.87 67.766 7.448 7.9 7.62 8.55
9/3/2023 11:30:00 AM 20.02 68.036 7.415 7.91 7.49 8.63
9/3/2023 11:45:00 AM 20.17 68.306 7.374 7.92 7.47 8.72
9/3/2023 12:00:00 PM 20.31 68.558 7.313 7.92 7.45 8.79
9/3/2023 12:15:00 PM 20.45 68.81 7.239 7.93 8.05 8.87
9/3/2023 12:30:00 PM 20.59 69.062 7.277 7.94 7.27 8.93
9/3/2023 12:45:00 PM 20.73 69.314 7.201 7.95 6.98 9
9/3/2023 1:00:00 PM 20.88 69.584 7.15 7.95 7.12 9.07
9/3/2023 1:15:00 PM 21 69.8 7.087 7.96 7.09 9.15
9/3/2023 1:30:00 PM 21.12 70.016 7.025 7.97 7.42 9.21
9/3/2023 1:45:00 PM 21.22 70.196 7.073 7.98 6.77 9.28
9/3/2023 2:00:00 PM 21.33 70.394 7.046 7.98 6.72 9.33
9/3/2023 2:15:00 PM 21.43 70.574 7.058 7.99 6.76 9.37
9/3/2023 2:30:00 PM 21.56 70.808 7.035 8 6.79 9.41
9/3/2023 2:45:00 PM 21.67 71.006 7.028 8.01 6.53 9.44
9/3/2023 3:00:00 PM 21.77 71.186 6.983 8.01 6.44 9.44
9/3/2023 3:15:00 PM 21.87 71.366 6.992 8.02 6.32 9.44
9/3/2023 3:30:00 PM 21.96 71.528 6.94 8.03 6.32 9.44
9/3/2023 3:45:00 PM 22.04 71.672 6.977 8.03 6.28 9.41
9/3/2023 4:00:00 PM 22.11 71.798 6.963 8.04 6.25 9.36
9/3/2023 4:15:00 PM 22.17 71.906 7.016 8.04 6.6 9.32
9/3/2023 4:30:00 PM 22.23 72.014 7.028 8.04 6.33 9.25
9/3/2023 4:45:00 PM 22.29 72.122 7.06 8.04 6.16 9.18
9/3/2023 5:00:00 PM 22.35 72.23 7.075 8.04 6.37 9.08
9/3/2023 5:15:00 PM 22.41 72.338 7.113 8.04 6.55 8.99
9/3/2023 5:30:00 PM 22.46 72.42799 7.177 8.04 6.45 8.89
9/3/2023 5:45:00 PM 22.5 72.5 7.234 8.04 6.22 8.8
9/3/2023 6:00:00 PM 22.54 72.57201 7.256 8.03 6.34 8.7
9/3/2023 6:15:00 PM 22.58 72.644 7.283 8.02 6.54 8.59
9/3/2023 6:30:00 PM 22.61 72.698 7.307 8.03 6.33 8.48
9/3/2023 6:45:00 PM 22.63 72.734 7.354 8.02 6.19 8.37
9/3/2023 7:00:00 PM 22.65 72.77 7.516 8.02 6.25 8.27
9/3/2023 7:15:00 PM 22.66 72.788 7.617 8.01 6.07 8.17
9/3/2023 7:30:00 PM 22.66 72.788 7.589 8.01 6.66 8.06
9/3/2023 7:45:00 PM 22.66 72.788 7.567 8 6.5 7.96
9/3/2023 8:00:00 PM 22.65 72.77 7.573 7.99 7.03 7.86
9/3/2023 8:15:00 PM 22.64 72.752 7.588 7.99 8.4 7.76
9/3/2023 8:30:00 PM 22.62 72.716 7.655 7.98 9.06 7.7
9/3/2023 8:45:00 PM 22.6 72.68 7.694 7.98 9.01 7.63
9/3/2023 9:00:00 PM 22.58 72.644 7.659 7.97 9.57 7.58
9/3/2023 9:15:00 PM 22.55 72.59 7.655 7.97 9.19 7.52
9/3/2023 9:30:00 PM 22.53 72.554 7.591 7.97 9.19 7.49
9/3/2023 9:45:00 PM 22.49 72.482 7.666 7.96 9.78 7.46
9/3/2023 10:00:00 PM 22.45 72.41 7.686 7.96 9.7 7.42
9/3/2023 10:15:00 PM 22.4 72.32 7.693 7.95 9.98 7.4
9/3/2023 10:30:00 PM 22.35 72.23 7.699 7.95 10.04 7.37
9/3/2023 10:45:00 PM 22.29 72.122 7.665 7.95 10.16 7.35
9/3/2023 11:00:00 PM 22.23 72.014 7.67 7.94 11.23 7.33
9/3/2023 11:15:00 PM 22.16 71.888 7.682 7.94 11.86 7.3
9/3/2023 11:30:00 PM 22.1 71.78 7.7 7.93 11.96 7.28
9/3/2023 11:45:00 PM 22.02 71.636 7.728 7.93 14.12 7.25
9/4/2023 12:00:00 AM 21.94 71.492 7.706 7.92 14.42 7.24
9/4/2023 12:15:00 AM 21.87 71.366 7.729 7.91 13.97 7.21
9/4/2023 12:30:00 AM 21.78 71.204 7.774 7.91 13.59 7.19
9/4/2023 12:45:00 AM 21.69 71.042 7.81 7.9 13.54 7.17
9/4/2023 1:00:00 AM 21.59 70.862 7.796 7.89 12.65 7.15
9/4/2023 1:15:00 AM 21.5 70.7 7.759 7.88 12.42 7.12
9/4/2023 1:30:00 AM 21.4 70.52 7.762 7.87 11.74 7.1
9/4/2023 1:45:00 AM 21.32 70.376 7.774 7.87 10.84 7.08
9/4/2023 2:00:00 AM 21.23 70.214 7.79 7.86 11.62 7.05
9/4/2023 2:15:00 AM 21.14 70.052 7.8 7.85 10.64 7.04
9/4/2023 2:30:00 AM 21.05 69.89 7.815 7.85 10.04 7.03
9/4/2023 2:45:00 AM 20.97 69.746 7.797 7.84 9.68 7.01
9/4/2023 3:00:00 AM 20.9 69.62 7.793 7.84 10.06 6.99
9/4/2023 3:15:00 AM 20.82 69.476 7.777 7.83 9.8 6.98
9/4/2023 3:30:00 AM 20.75 69.35 7.759 7.83 13.08 6.97
9/4/2023 3:45:00 AM 20.68 69.224 7.761 7.82 11.56 6.96
9/4/2023 4:00:00 AM 20.62 69.116 7.776 7.82 10.48 6.95
9/4/2023 4:15:00 AM 20.57 69.026 7.808 7.81 10.89 6.93
9/4/2023 4:30:00 AM 20.51 68.918 7.837 7.81 10.98 6.94
9/4/2023 4:45:00 AM 20.46 68.828 7.82 7.81 10.51 6.92
9/4/2023 5:00:00 AM 20.42 68.756 7.825 7.8 10.82 6.93
9/4/2023 5:15:00 AM 20.38 68.684 7.827 7.8 10.56 6.92
9/4/2023 5:30:00 AM 20.33 68.594 7.827 7.8 9.99 6.92
9/4/2023 5:45:00 AM 20.29 68.522 7.815 7.8 10.39 6.92
9/4/2023 6:00:00 AM 20.26 68.468 7.836 7.8 9.66 6.92
9/4/2023 6:15:00 AM 20.23 68.414 7.799 7.8 9.9 6.92
9/4/2023 6:30:00 AM 20.2 68.36 7.893 7.8 10.06 6.92
9/4/2023 6:45:00 AM 20.17 68.306 7.882 7.79 10.54 6.93
9/4/2023 7:00:00 AM 20.14 68.252 7.895 7.79 10.42 6.93
9/4/2023 7:15:00 AM 20.12 68.216 7.88 7.79 9.78 6.95
9/4/2023 7:30:00 AM 20.1 68.18 7.882 7.79 9.31 6.97
9/4/2023 7:45:00 AM 20.09 68.162 7.856 7.79 9.04 6.99
9/4/2023 8:00:00 AM 20.08 68.144 7.854 7.79 8.94 7.04
9/4/2023 8:15:00 AM 20.07 68.126 7.839 7.79 9.13 7.06
9/4/2023 8:30:00 AM 20.07 68.126 7.789 7.79 8.82 7.12
9/4/2023 8:45:00 AM 20.08 68.144 7.853 7.8 8.57 7.2
9/4/2023 9:00:00 AM 20.11 68.198 7.873 7.8 7.82 7.31
9/4/2023 9:15:00 AM 20.11 68.198 7.859 7.81 7.75 7.36
9/4/2023 9:30:00 AM 20.12 68.216 7.8 7.81 7.54 7.4
9/4/2023 9:45:00 AM 20.18 68.324 7.757 7.81 7.41 7.49
9/4/2023 10:00:00 AM 20.27 68.486 7.763 7.83 7.3 7.64
9/4/2023 10:15:00 AM 20.37 68.666 7.724 7.84 7.2 7.83
9/4/2023 10:30:00 AM 20.46 68.828 7.669 7.86 6.86 8
9/4/2023 10:45:00 AM 20.56 69.008 7.691 7.87 6.84 8.17
9/4/2023 11:00:00 AM 20.65 69.17 7.619 7.88 8.17 8.28
9/4/2023 11:15:00 AM 20.81 69.458 7.591 7.89 8.68 8.39
9/4/2023 11:30:00 AM 20.98 69.764 7.52 7.9 7.22 8.51
9/4/2023 11:45:00 AM 21.16 70.088 7.536 7.92 6.74 8.65
9/4/2023 12:00:00 PM 21.26 70.268 7.487 7.92 6.95 8.71
9/4/2023 12:15:00 PM 21.39 70.502 7.41 7.93 6.59 8.78
9/4/2023 12:30:00 PM 21.5 70.7 7.352 7.94 6.71 8.83
9/4/2023 12:45:00 PM 21.66 70.988 7.332 7.95 6.92 8.92
9/4/2023 1:00:00 PM 21.82 71.276 7.302 7.95 7 8.98
9/4/2023 1:15:00 PM 21.95 71.51 7.256 7.96 6.87 9.02
9/4/2023 1:30:00 PM 22.08 71.744 7.22 7.97 6.94 9.07
9/4/2023 1:45:00 PM 22.21 71.978 7.219 7.98 6.69 9.14
9/4/2023 2:00:00 PM 22.33 72.194 7.196 7.98 6.87 9.21
9/4/2023 2:15:00 PM 22.44 72.392 7.175 7.99 7.1 9.25
9/4/2023 2:30:00 PM 22.55 72.59 7.186 8 7.16 9.27
9/4/2023 2:45:00 PM 22.66 72.788 7.179 8 7.04 9.28
9/4/2023 3:00:00 PM 22.76 72.968 7.161 8.01 6.86 9.29
9/4/2023 3:15:00 PM 22.86 73.148 7.153 8.01 6.86 9.29
9/4/2023 3:30:00 PM 22.94 73.292 7.13 8.02 6.87 9.28
9/4/2023 3:45:00 PM 23.02 73.436 7.132 8.03 6.98 9.25
9/4/2023 4:00:00 PM 23.08 73.544 7.116 8.03 7.01 9.19
9/4/2023 4:15:00 PM 23.14 73.652 7.117 8.04 6.71 9.15
9/4/2023 4:30:00 PM 23.18 73.724 7.155 8.04 6.36 9.07
9/4/2023 4:45:00 PM 23.23 73.814 7.172 8.04 6.38 8.99
9/4/2023 5:00:00 PM 23.28 73.904 7.187 8.04 6.29 8.89
9/4/2023 5:15:00 PM 23.32 73.976 7.239 8.04 7.82 8.77
9/4/2023 5:30:00 PM 23.36 74.048 7.233 8.03 8.3 8.67
9/4/2023 5:45:00 PM 23.39 74.102 7.262 8.03 7.13 8.58
9/4/2023 6:00:00 PM 23.42 74.156 7.311 8.02 6.68 8.49
9/4/2023 6:15:00 PM 23.44 74.192 7.332 8.02 6.24 8.39
9/4/2023 6:30:00 PM 23.46 74.228 7.387 8.02 6.01 8.29
9/4/2023 6:45:00 PM 23.48 74.264 7.766 8.01 6.52 8.17
9/4/2023 7:00:00 PM 23.49 74.282 7.847 8.01 6.08 8.08
9/4/2023 7:15:00 PM 23.49 74.282 5.156 8 6.08 8.06
9/4/2023 7:30:00 PM 23.5 74.3 5.589 8 6.16 7.95
9/4/2023 7:45:00 PM 23.49 74.282 5.636 7.99 6.67 7.83
9/4/2023 8:00:00 PM 23.49 74.282 5.906 7.98 7.61 7.74
9/4/2023 8:15:00 PM 23.48 74.264 5.987 7.98 8.54 7.65
9/4/2023 8:30:00 PM 23.47 74.246 5.936 7.97 9.03 7.57
9/4/2023 8:45:00 PM 23.46 74.228 6.026 7.96 8.98 7.49
9/4/2023 9:00:00 PM 23.45 74.21 6.059 7.96 9.42 7.44
9/4/2023 9:15:00 PM 23.44 74.192 6.078 7.96 9.39 7.38
9/4/2023 9:30:00 PM 23.42 74.156 6.084 7.95 10.04 7.33
9/4/2023 9:45:00 PM 23.41 74.138 6.096 7.95 10.67 7.29
9/4/2023 10:00:00 PM 23.38 74.084 6.095 7.94 10.3 7.25
9/4/2023 10:15:00 PM 23.34 74.012 6.11 7.94 10.22 7.21
9/4/2023 10:30:00 PM 23.3 73.94 6.111 7.94 10.33 7.18
9/4/2023 10:45:00 PM 23.25 73.85 6.114 7.93 10.64 7.16
9/4/2023 11:00:00 PM 23.2 73.76 6.1 7.92 10.92 7.13
9/4/2023 11:15:00 PM 23.14 73.652 6.097 7.91 11.24 7.1
9/4/2023 11:30:00 PM 23.08 73.544 6.113 7.91 11.38 7.08
9/4/2023 11:45:00 PM 23 73.4 6.117 7.9 11.8 7.06
9/5/2023 12:00:00 AM 22.92 73.256 6.109 7.89 11.87 7.01
9/5/2023 12:15:00 AM 22.84 73.112 6.113 7.88 11.82 6.98
9/5/2023 12:30:00 AM 22.75 72.95 6.114 7.87 12.34 6.93
9/5/2023 12:45:00 AM 22.66 72.788 6.075 7.86 12.2 6.9
9/5/2023 1:00:00 AM 22.56 72.608 6.072 7.85 13.12 6.87
9/5/2023 1:15:00 AM 22.46 72.42799 6.073 7.85 12.96 6.83
9/5/2023 1:30:00 AM 22.37 72.266 6.085 7.84 13.43 6.82
9/5/2023 1:45:00 AM 22.28 72.104 6.093 7.83 13.19 6.79
9/5/2023 2:00:00 AM 22.19 71.942 6.083 7.82 13.08 6.76
9/5/2023 2:15:00 AM 22.11 71.798 6.091 7.81 13.73 6.74
9/5/2023 2:30:00 AM 22.02 71.636 6.093 7.81 12.82 6.72
9/5/2023 2:45:00 AM 21.94 71.492 6.098 7.8 12.66 6.71
9/5/2023 3:00:00 AM 21.88 71.384 6.083 7.8 11.98 6.67
9/5/2023 3:15:00 AM 21.81 71.258 6.099 7.8 11.98 6.68
9/5/2023 3:30:00 AM 21.74 71.132 6.113 7.79 13.34 6.67
9/5/2023 3:45:00 AM 21.68 71.024 6.118 7.79 14.15 6.66
9/5/2023 4:00:00 AM 21.62 70.916 6.12 7.78 13.57 6.65
9/5/2023 4:15:00 AM 21.57 70.826 6.119 7.78 13.17 6.63
9/5/2023 4:30:00 AM 21.51 70.718 6.124 7.78 12.45 6.61
9/5/2023 4:45:00 AM 21.46 70.628 6.14 7.78 12.72 6.62
9/5/2023 5:00:00 AM 21.41 70.538 6.136 7.77 11.87 6.61
9/5/2023 5:15:00 AM 21.36 70.448 6.136 7.77 12.15 6.6
9/5/2023 5:30:00 AM 21.31 70.358 6.108 7.77 11.94 6.61
9/5/2023 5:45:00 AM 21.26 70.268 6.137 7.77 12.24 6.62
9/5/2023 6:00:00 AM 21.21 70.17799 6.144 7.77 12.37 6.62
9/5/2023 6:15:00 AM 21.16 70.088 6.169 7.77 12.06 6.63
9/5/2023 6:30:00 AM 21.12 70.016 6.173 7.77 11.21 6.63
9/5/2023 6:45:00 AM 21.07 69.926 6.178 7.76 11.93 6.63
9/5/2023 7:00:00 AM 21.02 69.836 6.155 7.76 11.34 6.65
9/5/2023 7:15:00 AM 20.97 69.746 6.162 7.76 10.9 6.66
9/5/2023 7:30:00 AM 20.93 69.674 6.191 7.76 10.88 6.68
9/5/2023 7:45:00 AM 20.9 69.62 6.191 7.76 11.03 6.7
9/5/2023 8:00:00 AM 20.87 69.566 6.2 7.76 11.31 6.74
9/5/2023 8:15:00 AM 20.85 69.53 6.182 7.77 10.18 6.77
9/5/2023 8:30:00 AM 20.84 69.512 6.187 7.77 9.73 6.82
9/5/2023 8:45:00 AM 20.83 69.494 6.17 7.77 8.72 6.86
9/5/2023 9:00:00 AM 20.84 69.512 6.136 7.77 8.18 6.91
9/5/2023 9:15:00 AM 20.86 69.548 6.135 7.78 9.34 7.01
9/5/2023 9:30:00 AM 20.89 69.602 6.123 7.79 8.17 7.13
9/5/2023 9:45:00 AM 20.95 69.71 6.098 7.79 7.51 7.27
9/5/2023 10:00:00 AM 21.02 69.836 6.049 7.81 7.4 7.43
9/5/2023 10:15:00 AM 21.11 69.998 5.997 7.82 7.94 7.62
9/5/2023 10:30:00 AM 21.23 70.214 5.993 7.83 7.51 7.8
9/5/2023 10:45:00 AM 21.34 70.412 5.95 7.85 7.57 7.97
9/5/2023 11:00:00 AM 21.44 70.592 5.878 7.86 7.97 8.1
9/5/2023 11:15:00 AM 21.54 70.772 5.882 7.87 7.53 8.21
9/5/2023 11:30:00 AM 21.66 70.988 5.834 7.88 7.13 8.32
9/5/2023 11:45:00 AM 21.76 71.168 5.803 7.89 6.99 8.41
9/5/2023 12:00:00 PM 21.88 71.384 5.758 7.9 6.91 8.52
9/5/2023 12:15:00 PM 21.98 71.564 5.722 7.91 6.76 8.6
9/5/2023 12:30:00 PM 22.1 71.78 5.689 7.92 6.53 8.68
9/5/2023 12:45:00 PM 22.21 71.978 5.662 7.92 6.83 8.77
9/5/2023 1:00:00 PM 22.31 72.158 5.64 7.93 6.69 8.85
9/5/2023 1:15:00 PM 22.43 72.374 5.598 7.94 6.98 8.93
9/5/2023 1:30:00 PM 22.56 72.608 5.588 7.95 6.59 9.02
9/5/2023 1:45:00 PM 22.67 72.806 5.603 7.96 6.62 9.08
9/5/2023 2:00:00 PM 22.77 72.986 5.57 7.97 6.63 9.13
9/5/2023 2:15:00 PM 22.89 73.202 5.572 7.97 6.67 9.21
9/5/2023 2:30:00 PM 22.99 73.382 5.562 7.98 6.56 9.25
9/5/2023 2:45:00 PM 23.11 73.598 5.567 7.99 6.48 9.27
9/5/2023 3:00:00 PM 23.22 73.796 5.567 8 6.18 9.25
9/5/2023 3:15:00 PM 23.35 74.03 5.567 8.01 6.22 9.26
9/5/2023 3:30:00 PM 23.48 74.264 5.561 8.01 6.22 9.29
9/5/2023 3:45:00 PM 23.55 74.39 5.492 8.02 6.03 9.24
9/5/2023 4:00:00 PM 23.61 74.498 5.531 8.02 5.81 9.14
9/5/2023 4:15:00 PM 23.69 74.642 5.544 8.02 5.93 9.05
9/5/2023 4:30:00 PM 23.79 74.82201 5.552 8.02 5.58 9.01
9/5/2023 4:45:00 PM 23.88 74.984 5.582 8.03 5.59 8.97
9/5/2023 5:00:00 PM 23.95 75.11 5.577 8.02 5.65 8.86
9/5/2023 5:15:00 PM 23.99 75.182 5.576 8.03 5.7 8.74
9/5/2023 5:30:00 PM 24.01 75.218 5.631 8.02 5.72 8.61
9/5/2023 5:45:00 PM 24.03 75.254 5.645 8.02 5.66 8.54
9/5/2023 6:00:00 PM 24.07 75.326 5.667 8.01 5.52 8.45
9/5/2023 6:15:00 PM 24.1 75.38 5.657 8.01 5.54 8.37
9/5/2023 6:30:00 PM 24.12 75.416 5.668 8.01 5.67 8.29
9/5/2023 6:45:00 PM 24.13 75.434 5.689 8 5.65 8.18
9/5/2023 7:00:00 PM 24.12 75.416 5.677 8 5.51 8.08
9/5/2023 7:15:00 PM 24.12 75.416 5.737 7.99 6.54 7.99
9/5/2023 7:30:00 PM 24.11 75.398 5.714 7.99 6.23 7.88
9/5/2023 7:45:00 PM 24.1 75.38 5.773 7.98 6.77 7.77
9/5/2023 8:00:00 PM 24.08 75.344 5.784 7.97 6.71 7.66
9/5/2023 8:15:00 PM 24.06 75.308 5.766 7.96 8.13 7.56
9/5/2023 8:30:00 PM 24.04 75.272 5.8 7.96 8.49 7.47
9/5/2023 8:45:00 PM 24.02 75.236 5.783 7.94 8.79 7.4
9/5/2023 9:00:00 PM 24 75.2 5.798 7.95 8.62 7.33
9/5/2023 9:15:00 PM 23.98 75.164 5.771 7.94 9.19 7.27
9/5/2023 9:30:00 PM 23.96 75.128 5.831 7.93 9.56 7.21
9/5/2023 9:45:00 PM 23.93 75.074 5.833 7.93 10.46 7.18
9/5/2023 10:00:00 PM 23.91 75.038 5.83 7.93 9.9 7.15
9/5/2023 10:15:00 PM 23.87 74.966 5.833 7.92 11.53 7.12
9/5/2023 10:30:00 PM 23.83 74.894 5.835 7.92 12.75 7.09
9/5/2023 10:45:00 PM 23.78 74.804 5.841 7.91 10.74 7.08
9/5/2023 11:00:00 PM 23.72 74.696 5.839 7.91 10.35 7.05
9/5/2023 11:15:00 PM 23.65 74.57 5.817 7.9 11.01 7.03
9/5/2023 11:30:00 PM 23.58 74.444 5.824 7.9 10.67 7.01
9/5/2023 11:45:00 PM 23.49 74.282 5.87 7.89 11.05 6.99
9/6/2023 12:00:00 AM 23.4 74.12 5.869 7.88 11.25 6.94
9/6/2023 12:15:00 AM 23.3 73.94 5.88 7.86 12.4 6.91
9/6/2023 12:30:00 AM 23.21 73.778 5.889 7.86 11.5 6.89
9/6/2023 12:45:00 AM 23.11 73.598 5.912 7.85 11.12 6.86
9/6/2023 1:00:00 AM 23.01 73.418 5.922 7.84 11.13 6.84
9/6/2023 1:15:00 AM 22.9 73.22 5.92 7.84 11.36 6.82
9/6/2023 1:30:00 AM 22.8 73.04 5.926 7.83 12.73 6.79
9/6/2023 1:45:00 AM 22.71 72.878 5.957 7.82 11.86 6.75
9/6/2023 2:00:00 AM 22.61 72.698 5.955 7.81 11.35 6.72
9/6/2023 2:15:00 AM 22.51 72.518 5.957 7.8 11.98 6.7
9/6/2023 2:30:00 AM 22.43 72.374 5.967 7.8 11.6 6.66
9/6/2023 2:45:00 AM 22.35 72.23 5.981 7.79 11.6 6.64
9/6/2023 3:00:00 AM 22.27 72.086 5.983 7.78 11.35 6.62
9/6/2023 3:15:00 AM 22.2 71.96 6.001 7.78 11.03 6.6
9/6/2023 3:30:00 AM 22.12 71.816 6.016 7.77 12.02 6.59
9/6/2023 3:45:00 AM 22.05 71.69 6.011 7.77 12.15 6.58
9/6/2023 4:00:00 AM 21.99 71.582 6.035 7.77 11.96 6.57
9/6/2023 4:15:00 AM 21.93 71.474 6.051 7.76 12.14 6.56
9/6/2023 4:30:00 AM 21.88 71.384 6.056 7.76 12.95 6.53
9/6/2023 4:45:00 AM 21.82 71.276 6.074 7.75 14.03 6.54
9/6/2023 5:00:00 AM 21.76 71.168 6.139 7.75 14.76 6.53
9/6/2023 5:15:00 AM 21.71 71.078 6.195 7.75 14.38 6.52
9/6/2023 5:30:00 AM 21.67 71.006 6.199 7.75 15.01 6.52
9/6/2023 5:45:00 AM 21.62 70.916 6.216 7.75 15.06 6.51
9/6/2023 6:00:00 AM 21.57 70.826 6.233 7.74 15.6 6.52
9/6/2023 6:15:00 AM 21.52 70.736 6.233 7.74 15.11 6.52
9/6/2023 6:30:00 AM 21.48 70.664 6.242 7.74 13.55 6.52
9/6/2023 6:45:00 AM 21.44 70.592 6.227 7.74 12.8 6.53
9/6/2023 7:00:00 AM 21.4 70.52 6.231 7.74 11.74 6.54
9/6/2023 7:15:00 AM 21.37 70.466 6.241 7.74 11.11 6.57
9/6/2023 7:30:00 AM 21.34 70.412 6.257 7.74 10.01 6.59
9/6/2023 7:45:00 AM 21.32 70.376 6.248 7.74 9.61 6.63
9/6/2023 8:00:00 AM 21.3 70.34 6.256 7.74 9.44 6.67
9/6/2023 8:15:00 AM 21.29 70.32201 6.26 7.74 9.31 6.7
9/6/2023 8:30:00 AM 21.28 70.304 6.245 7.75 8.94 6.76
9/6/2023 8:45:00 AM 21.29 70.32201 6.23 7.75 8.47 6.82
9/6/2023 9:00:00 AM 21.3 70.34 6.216 7.75 8.29 6.86
9/6/2023 9:15:00 AM 21.33 70.394 6.195 7.76 7.85 6.94
9/6/2023 9:30:00 AM 21.37 70.466 6.194 7.76 7.76 7.05
9/6/2023 9:45:00 AM 21.46 70.628 6.156 7.77 7.93 7.24
9/6/2023 10:00:00 AM 21.53 70.754 6.14 7.79 7.73 7.46
9/6/2023 10:15:00 AM 21.62 70.916 6.114 7.8 7.81 7.65
9/6/2023 10:30:00 AM 21.7 71.06 6.095 7.82 7.97 7.8
9/6/2023 10:45:00 AM 21.82 71.276 6.065 7.83 7.79 7.96
9/6/2023 11:00:00 AM 21.94 71.492 5.997 7.84 7.64 8.08
9/6/2023 11:15:00 AM 22.07 71.726 5.956 7.86 7.67 8.21
9/6/2023 11:30:00 AM 22.13 71.834 5.903 7.86 7.58 8.26
9/6/2023 11:45:00 AM 22.17 71.906 5.879 7.87 7.6 8.29
9/6/2023 12:00:00 PM 22.25 72.05 5.836 7.88 7.15 8.41
9/6/2023 12:15:00 PM 22.34 72.212 5.817 7.89 6.83 8.53
9/6/2023 12:30:00 PM 22.38 72.284 5.791 7.9 6.83 8.58
9/6/2023 12:45:00 PM 22.53 72.554 5.767 7.91 6.54 8.69
9/6/2023 1:00:00 PM 22.67 72.806 5.728 7.92 6.38 8.83
9/6/2023 1:15:00 PM 22.81 73.058 5.701 7.93 6.32 8.95
9/6/2023 1:30:00 PM 22.92 73.256 5.659 7.93 5.98 9.01
9/6/2023 1:45:00 PM 23.02 73.436 5.664 7.95 5.91 9.05
9/6/2023 2:00:00 PM 23.13 73.634 5.646 7.96 5.97 9.11
9/6/2023 2:15:00 PM 23.2 73.76 5.634 7.97 5.64 9.13
9/6/2023 2:30:00 PM 23.31 73.958 5.617 7.98 5.59 9.14
9/6/2023 2:45:00 PM 23.43 74.174 5.604 7.98 5.84 9.18
9/6/2023 3:00:00 PM 23.53 74.354 5.594 7.99 5.85 9.19
9/6/2023 3:15:00 PM 23.6 74.48 5.606 8 5.96 9.18
9/6/2023 3:30:00 PM 23.67 74.606 5.61 8 5.75 9.17
9/6/2023 3:45:00 PM 23.73 74.714 5.621 8.01 5.89 9.15
9/6/2023 4:00:00 PM 23.78 74.804 5.637 8.01 5.84 9.08
9/6/2023 4:15:00 PM 23.84 74.912 5.663 8.01 6.17 9.05
9/6/2023 4:30:00 PM 23.91 75.038 5.694 8.01 5.89 8.96
9/6/2023 4:45:00 PM 23.96 75.128 5.725 8.01 5.86 8.86
9/6/2023 5:00:00 PM 24.01 75.218 5.752 8 5.73 8.73
9/6/2023 5:15:00 PM 24.06 75.308 5.787 8 5.75 8.64
9/6/2023 5:30:00 PM 24.1 75.38 5.807 8 5.71 8.52
9/6/2023 5:45:00 PM 24.14 75.452 5.839 7.99 5.82 8.41
9/6/2023 6:00:00 PM 24.17 75.506 5.862 7.99 5.56 8.29
9/6/2023 6:15:00 PM 24.19 75.542 5.879 7.99 5.48 8.19
9/6/2023 6:30:00 PM 24.2 75.56 5.892 7.98 5.48 8.09
9/6/2023 6:45:00 PM 24.21 75.578 5.897 7.98 5.26 8
9/6/2023 7:00:00 PM 24.2 75.56 5.928 7.98 5.57 7.91
9/6/2023 7:15:00 PM 24.19 75.542 5.935 7.97 6.03 7.82
9/6/2023 7:30:00 PM 24.17 75.506 5.912 7.97 5.56 7.73
9/6/2023 7:45:00 PM 24.14 75.452 5.939 7.96 5.92 7.64
9/6/2023 8:00:00 PM 24.1 75.38 5.941 7.96 6.66 7.54
9/6/2023 8:15:00 PM 24.06 75.308 5.96 7.95 7.62 7.44
9/6/2023 8:30:00 PM 24.02 75.236 5.966 7.94 8.56 7.36
9/6/2023 8:45:00 PM 23.98 75.164 5.973 7.94 8.44 7.29
9/6/2023 9:00:00 PM 23.94 75.092 5.983 7.93 9.03 7.24
9/6/2023 9:15:00 PM 23.91 75.038 5.987 7.93 9.75 7.17
9/6/2023 9:30:00 PM 23.87 74.966 5.985 7.92 9.14 7.15
9/6/2023 9:45:00 PM 23.84 74.912 6.004 7.91 9.47 7.13
9/6/2023 10:00:00 PM 23.81 74.858 6.016 7.91 9.79 7.08
9/6/2023 10:15:00 PM 23.78 74.804 6.038 7.91 10.69 7.06
9/6/2023 10:30:00 PM 23.75 74.75 6.041 7.91 11.22 7.03
9/6/2023 10:45:00 PM 23.71 74.67799 6.031 7.9 11.18 7
9/6/2023 11:00:00 PM 23.67 74.606 6.049 7.91 10.86 6.97
9/6/2023 11:15:00 PM 23.62 74.516 6.056 7.9 12.96 6.94
9/6/2023 11:30:00 PM 23.57 74.426 6.069 7.89 13.3 6.92
9/6/2023 11:45:00 PM 23.5 74.3 6.08 7.89 12.95 6.89
9/7/2023 12:00:00 AM 23.43 74.174 6.08 7.88 12.3 6.88
9/7/2023 12:15:00 AM 23.35 74.03 6.07 7.88 14.67 6.83
9/7/2023 12:30:00 AM 23.27 73.886 6.08 7.87 13.64 6.8
9/7/2023 12:45:00 AM 23.18 73.724 6.083 7.86 13.51 6.78
9/7/2023 1:00:00 AM 23.08 73.544 6.09 7.84 12.69 6.73
9/7/2023 1:15:00 AM 22.97 73.346 6.077 7.84 12.79 6.71
9/7/2023 1:30:00 AM 22.86 73.148 6.087 7.83 12.49 6.69
9/7/2023 1:45:00 AM 22.75 72.95 6.083 7.83 11.87 6.65
9/7/2023 2:00:00 AM 22.64 72.752 6.093 7.82 11.86 6.62
9/7/2023 2:15:00 AM 22.54 72.57201 6.096 7.81 12.06 6.6
9/7/2023 2:30:00 AM 22.45 72.41 6.097 7.8 12.22 6.58
9/7/2023 2:45:00 AM 22.35 72.23 6.105 7.79 12.04 6.55
9/7/2023 3:00:00 AM 22.28 72.104 6.08 7.79 13.17 6.54
9/7/2023 3:15:00 AM 22.2 71.96 6.112 7.78 13.15 6.52
9/7/2023 3:30:00 AM 22.13 71.834 6.114 7.77 13.29 6.49
9/7/2023 3:45:00 AM 22.06 71.708 6.127 7.77 12.47 6.47
9/7/2023 4:00:00 AM 22 71.6 6.147 7.76 12.18 6.46
9/7/2023 4:15:00 AM 21.94 71.492 6.173 7.76 11.64 6.46
9/7/2023 4:30:00 AM 21.89 71.402 6.186 7.76 11.65 6.43
9/7/2023 4:45:00 AM 21.84 71.312 6.195 7.76 11.84 6.43
9/7/2023 5:00:00 AM 21.79 71.222 6.216 7.75 11.25 6.42
9/7/2023 5:15:00 AM 21.75 71.15 6.226 7.75 11.56 6.42
9/7/2023 5:30:00 AM 21.71 71.078 6.229 7.75 11.31 6.41
9/7/2023 5:45:00 AM 21.67 71.006 6.244 7.75 10.44 6.41
9/7/2023 6:00:00 AM 21.63 70.934 6.252 7.75 10.5 6.42
9/7/2023 6:15:00 AM 21.59 70.862 6.247 7.75 10.3 6.42
9/7/2023 6:30:00 AM 21.55 70.79 6.255 7.75 10.41 6.41
9/7/2023 6:45:00 AM 21.52 70.736 6.265 7.75 10.13 6.41
9/7/2023 7:00:00 AM 21.49 70.682 6.277 7.75 10.11 6.43
9/7/2023 7:15:00 AM 21.46 70.628 6.281 7.75 9.75 6.45
9/7/2023 7:30:00 AM 21.44 70.592 6.29 7.75 9.27 6.48
9/7/2023 7:45:00 AM 21.43 70.574 6.293 7.75 9.33 6.53
9/7/2023 8:00:00 AM 21.43 70.574 6.299 7.75 8.88 6.59
9/7/2023 8:15:00 AM 21.42 70.556 6.278 7.76 8.56 6.63
9/7/2023 8:30:00 AM 21.43 70.574 6.296 7.76 8.14 6.71
9/7/2023 8:45:00 AM 21.44 70.592 6.285 7.77 7.96 6.79
9/7/2023 9:00:00 AM 21.46 70.628 6.278 7.77 7.78 6.87
9/7/2023 9:15:00 AM 21.48 70.664 6.296 7.78 7.8 6.94
9/7/2023 9:30:00 AM 21.52 70.736 6.275 7.78 7.8 7.02
9/7/2023 9:45:00 AM 21.58 70.844 6.26 7.79 7.66 7.17
9/7/2023 10:00:00 AM 21.66 70.988 6.233 7.81 7.59 7.33
9/7/2023 10:15:00 AM 21.76 71.168 6.226 7.82 8.09 7.52
9/7/2023 10:30:00 AM 21.85 71.33 6.197 7.84 7.53 7.7
9/7/2023 10:45:00 AM 21.95 71.51 6.182 7.85 7.44 7.88
9/7/2023 11:00:00 AM 22.04 71.672 6.151 7.87 7.48 8.04
9/7/2023 11:15:00 AM 22.15 71.87 6.105 7.88 7.39 8.16
9/7/2023 11:30:00 AM 22.25 72.05 6.054 7.89 7.73 8.29
9/7/2023 11:45:00 AM 22.36 72.248 6.007 7.9 7.48 8.4
9/7/2023 12:00:00 PM 22.45 72.41 5.967 7.91 7.35 8.51
9/7/2023 12:15:00 PM 22.57 72.626 5.936 7.92 6.97 8.65
9/7/2023 12:30:00 PM 22.68 72.824 5.897 7.93 6.78 8.75
9/7/2023 12:45:00 PM 22.78 73.004 5.86 7.93 7.21 8.82
9/7/2023 1:00:00 PM 22.8 73.04 5.843 7.94 6.97 8.74
9/7/2023 1:15:00 PM 22.81 73.058 5.823 7.94 6.57 8.59
9/7/2023 1:30:00 PM 22.84 73.112 5.81 7.94 6.52 8.57
9/7/2023 1:45:00 PM 22.89 73.202 5.77 7.94 6.35 8.62
9/7/2023 2:00:00 PM 22.95 73.31 5.753 7.95 6.35 8.7
9/7/2023 2:15:00 PM 23.04 73.472 5.742 7.96 6.43 8.84
9/7/2023 2:30:00 PM 23.04 73.472 5.753 7.96 6.37 8.85
9/7/2023 2:45:00 PM 23.07 73.526 5.732 7.97 6.34 8.91
9/7/2023 3:00:00 PM 23.12 73.616 5.749 7.98 5.98 8.97
9/7/2023 3:15:00 PM 23.14 73.652 5.751 7.98 5.93 8.9
9/7/2023 3:30:00 PM 23.16 73.688 5.763 7.98 6.31 8.75
9/7/2023 3:45:00 PM 23.26 73.868 5.761 7.98 6.15 8.72
9/7/2023 4:00:00 PM 23.38 74.084 5.776 7.99 5.94 8.74
9/7/2023 4:15:00 PM 23.44 74.192 5.799 7.99 8.56 8.69
9/7/2023 4:30:00 PM 23.48 74.264 5.829 7.98 7.94 8.5
9/7/2023 4:45:00 PM 23.43 74.174 5.86 7.97 7.28 8.28
9/7/2023 5:00:00 PM 23.33 73.994 7.634 7.98 7.24 8.03
9/7/2023 5:15:00 PM 23.24 73.832 7.644 7.97 8.07 7.94
9/7/2023 5:30:00 PM 23.18 73.724 7.668 7.97 7.15 7.83
9/7/2023 5:45:00 PM 23.15 73.67 7.796 7.97 7.4 7.74
9/7/2023 6:00:00 PM 23.11 73.598 7.784 7.96 7.71 7.62
9/7/2023 6:15:00 PM 23.07 73.526 7.783 7.96 6.95 7.51
9/7/2023 6:30:00 PM 23.02 73.436 7.776 7.95 6.89 7.43
9/7/2023 6:45:00 PM 22.99 73.382 7.802 7.95 7.27 7.38
9/7/2023 7:00:00 PM 22.99 73.382 7.745 7.95 8.17 7.27
9/7/2023 7:15:00 PM 22.99 73.382 9.95 7.95 8.05 7.17
9/7/2023 7:30:00 PM 22.89 73.202 11.053 7.97 10.93 7.28
9/7/2023 7:45:00 PM 22.92 73.256 14.227 7.99 44.85 7.29
9/7/2023 8:00:00 PM 22.96 73.328 12.488 7.96 71.41 7.31
9/7/2023 8:15:00 PM 22.93 73.274 12.607 7.95 79.84 7.37
9/7/2023 8:30:00 PM 22.83 73.094 12.373 7.93 63.09 7.26
9/7/2023 8:45:00 PM 22.63 72.734 12.283 7.89 55.67 7.12
9/7/2023 9:00:00 PM 22.37 72.266 12.144 7.85 56.56 6.96
9/7/2023 9:15:00 PM 22 71.6 12.144 7.77 150.7 6.76
9/7/2023 9:30:00 PM 21.66 70.988 11.397 7.71 192.41 6.67
9/7/2023 9:45:00 PM 21.28 70.304 10.249 7.64 174.69 6.7
9/7/2023 10:00:00 PM 21.46 70.628 9.542 7.58 144.47 6.56
9/7/2023 10:15:00 PM 21.62 70.916 8.506 7.55 122.28 6.61
9/7/2023 10:30:00 PM 21.64 70.952 7.495 7.52 93.47 6.7
9/7/2023 10:45:00 PM 21.63 70.934 6.748 7.51 76.83 6.8
9/7/2023 11:00:00 PM 21.63 70.934 6.472 7.49 67.25 6.89
9/7/2023 11:15:00 PM 21.63 70.934 6.365 7.48 54.77 6.88
9/7/2023 11:30:00 PM 21.62 70.916 6.386 7.46 48.63 6.84
9/7/2023 11:45:00 PM 21.61 70.898 6.498 7.46 43.04 6.79
9/8/2023 12:00:00 AM 21.6 70.88 6.704 7.45 37.73 6.72
9/8/2023 12:15:00 AM 21.58 70.844 6.875 7.46 34.83 6.68
9/8/2023 12:30:00 AM 21.56 70.808 6.978 7.45 32.23 6.61
9/8/2023 12:45:00 AM 21.54 70.772 7.026 7.45 28.22 6.57
9/8/2023 1:00:00 AM 21.52 70.736 7.235 7.45 24.8 6.5
9/8/2023 1:15:00 AM 21.49 70.682 7.518 7.45 25.54 6.51
9/8/2023 1:30:00 AM 21.45 70.61 7.624 7.44 24.14 6.44
9/8/2023 1:45:00 AM 21.42 70.556 7.714 7.45 21.98 6.45
9/8/2023 2:00:00 AM 21.38 70.484 7.793 7.45 20.44 6.45
9/8/2023 2:15:00 AM 21.33 70.394 7.889 7.46 20.07 6.45
9/8/2023 2:30:00 AM 21.29 70.32201 7.897 7.46 18.66 6.43
9/8/2023 2:45:00 AM 21.24 70.232 8.066 7.47 16.45 6.44
9/8/2023 3:00:00 AM 21.19 70.142 8.134 7.48 17.84 6.43
9/8/2023 3:15:00 AM 21.14 70.052 8.317 7.48 16.53 6.45
9/8/2023 3:30:00 AM 21.09 69.962 8.37 7.48 15.15 6.44
9/8/2023 3:45:00 AM 21.05 69.89 8.375 7.49 15.79 6.42
9/8/2023 4:00:00 AM 21.01 69.818 8.481 7.49 14.57 6.41
9/8/2023 4:15:00 AM 20.96 69.728 8.479 7.49 14.52 6.35
9/8/2023 4:30:00 AM 20.92 69.656 8.518 7.49 15.24 6.4
9/8/2023 4:45:00 AM 20.88 69.584 8.533 7.5 15.37 6.4
9/8/2023 5:00:00 AM 20.83 69.494 8.552 7.5 15.72 6.43
9/8/2023 5:15:00 AM 20.78 69.404 8.572 7.51 14.57 6.44
9/8/2023 5:30:00 AM 20.74 69.332 8.633 7.51 14.48 6.39
9/8/2023 5:45:00 AM 20.69 69.242 8.65 7.51 13.54 6.41
9/8/2023 6:00:00 AM 20.65 69.17 8.686 7.52 14.25 6.39
9/8/2023 6:15:00 AM 20.59 69.062 8.731 7.52 15.99 6.42
9/8/2023 6:30:00 AM 20.54 68.972 8.792 7.52 14.75 6.43
9/8/2023 6:45:00 AM 20.49 68.882 8.762 7.53 14.57 6.42
9/8/2023 7:00:00 AM 20.43 68.774 8.864 7.52 13.56 6.46
9/8/2023 7:15:00 AM 20.39 68.702 8.895 7.54 14.44 6.47
9/8/2023 7:30:00 AM 20.34 68.612 8.87 7.54 13.99 6.52
9/8/2023 7:45:00 AM 20.3 68.54 8.916 7.55 12.97 6.6
9/8/2023 8:00:00 AM 20.27 68.486 8.941 7.55 12.15 6.6
9/8/2023 8:15:00 AM 20.24 68.432 8.909 7.57 12.21 6.71
9/8/2023 8:30:00 AM 20.22 68.396 9.079 7.58 11.58 6.78
9/8/2023 8:45:00 AM 20.2 68.36 9.149 7.58 12.14 6.88
9/8/2023 9:00:00 AM 20.19 68.342 9.103 7.6 10.31 6.96
9/8/2023 9:15:00 AM 20.18 68.324 9.16 7.62 10.58 7.05
9/8/2023 9:30:00 AM 20.18 68.324 9.294 7.63 10.35 7.15
9/8/2023 9:45:00 AM 20.19 68.342 9.278 7.65 10.08 7.27
9/8/2023 10:00:00 AM 20.19 68.342 9.294 7.66 9.16 7.38
9/8/2023 10:15:00 AM 20.19 68.342 9.464 7.67 9.74 7.51
9/8/2023 10:30:00 AM 20.22 68.396 9.458 7.69 9.44 7.66
9/8/2023 10:45:00 AM 20.24 68.432 9.408 7.71 16.57 7.78
9/8/2023 11:00:00 AM 20.24 68.432 9.463 7.72 8.63 7.9
9/8/2023 11:15:00 AM 20.26 68.468 9.488 7.74 8.61 8
9/8/2023 11:30:00 AM 20.31 68.558 9.498 7.74 23.64 8.03
9/8/2023 11:45:00 AM 20.4 68.72 9.612 7.76 16.29 8.18
9/8/2023 12:00:00 PM 20.48 68.864 9.701 7.78 13.15 8.32
9/8/2023 12:15:00 PM 20.58 69.044 9.729 7.79 15.93 8.44
9/8/2023 12:30:00 PM 20.67 69.206 9.699 7.82 8.53 8.6
9/8/2023 12:45:00 PM 20.79 69.422 9.667 7.83 7.55 8.72
9/8/2023 1:00:00 PM 20.91 69.638 9.628 7.84 6.71 8.86
9/8/2023 1:15:00 PM 21 69.8 9.714 7.87 6.46 8.93
9/8/2023 1:30:00 PM 21.12 70.016 9.771 7.88 6.56 9.01
9/8/2023 1:45:00 PM 21.26 70.268 9.786 7.89 6.72 9.1
9/8/2023 2:00:00 PM 21.36 70.448 9.904 7.9 6.85 9.08
9/8/2023 2:15:00 PM 21.52 70.736 10.03 7.91 6.97 9.09
9/8/2023 2:30:00 PM 21.68 71.024 10.015 7.92 6.84 9.1
9/8/2023 2:45:00 PM 21.84 71.312 10.099 7.92 7.28 9.09
9/8/2023 3:00:00 PM 21.99 71.582 10.112 7.93 6.27 9.03
9/8/2023 3:15:00 PM 22.13 71.834 10.077 7.93 6.53 8.99
9/8/2023 3:30:00 PM 22.27 72.086 10.118 7.93 10.41 8.93
9/8/2023 3:45:00 PM 22.39 72.302 10.061 7.93 6.28 8.88
9/8/2023 4:00:00 PM 22.49 72.482 10.073 7.94 6.03 8.8
9/8/2023 4:15:00 PM 22.56 72.608 10.063 7.94 7.25 8.72
9/8/2023 4:30:00 PM 22.61 72.698 10.182 7.93 6.17 8.61
9/8/2023 4:45:00 PM 22.65 72.77 10.177 7.93 6.32 8.52
9/8/2023 5:00:00 PM 22.69 72.842 10.151 7.92 5.47 8.43
9/8/2023 5:15:00 PM 22.74 72.932 10.141 7.93 5.59 8.37
9/8/2023 5:30:00 PM 22.76 72.968 10.164 7.92 5.88 8.29
9/8/2023 5:45:00 PM 22.75 72.95 10.284 7.92 5.71 8.2
9/8/2023 6:00:00 PM 22.73 72.914 10.196 7.91 5.92 8.09
9/8/2023 6:15:00 PM 22.72 72.896 10.204 7.91 5.8 8.01
9/8/2023 6:30:00 PM 22.73 72.914 10.214 7.9 5.85 8
9/8/2023 6:45:00 PM 22.75 72.95 11.273 7.92 6.75 7.93
9/8/2023 7:00:00 PM 22.74 72.932 13.144 7.92 7.77 7.77
9/8/2023 7:15:00 PM 22.76 72.968 12.98 7.91 8.84 7.63
9/8/2023 7:30:00 PM 22.73 72.914 12.783 7.9 7.59 7.54
9/8/2023 7:45:00 PM 22.68 72.824 12.678 7.9 7.77 7.5
9/8/2023 8:00:00 PM 22.65 72.77 12.737 7.89 9.67 7.43
9/8/2023 8:15:00 PM 22.61 72.698 12.591 7.88 10.33 7.36
9/8/2023 8:30:00 PM 22.56 72.608 12.579 7.87 10.14 7.29
9/8/2023 8:45:00 PM 22.51 72.518 12.817 7.87 10.35 7.24
9/8/2023 9:00:00 PM 22.46 72.42799 12.702 7.86 9.64 7.2
9/8/2023 9:15:00 PM 22.42 72.356 12.677 7.85 9.58 7.18
9/8/2023 9:30:00 PM 22.37 72.266 12.7 7.85 10.54 7.14
9/8/2023 9:45:00 PM 22.33 72.194 12.742 7.84 10.68 7.09
9/8/2023 10:00:00 PM 22.26 72.068 1.351 7.82 11.4 7.35
9/8/2023 10:15:00 PM 22.18 71.924 13.878 7.83 12.45 7.04
9/8/2023 10:30:00 PM 22.09 71.762 13.654 7.83 12.1 7.03
9/8/2023 10:45:00 PM 22.01 71.618 1.338 7.8 12.15 7.28
9/8/2023 11:00:00 PM 21.94 71.492 13.915 7.81 12.58 6.93
9/8/2023 11:15:00 PM 21.86 71.348 1.304 7.78 12.54 7.18
9/8/2023 11:30:00 PM 21.78 71.204 1.299 7.76 12.17 7.13
9/8/2023 11:45:00 PM 21.7 71.06 12.536 7.78 13.18 6.83
9/9/2023 12:00:00 AM 21.61 70.898 1.308 7.75 13.55 7.09
9/9/2023 12:15:00 AM 21.53 70.754 17.194 7.77 13.44 6.68
9/9/2023 12:30:00 AM 21.45 70.61 13.527 7.75 13.96 6.78
9/9/2023 12:45:00 AM 21.37 70.466 13.453 7.75 15.87 6.77
9/9/2023 1:00:00 AM 21.29 70.32201 13.336 7.74 16.51 6.75
9/9/2023 1:15:00 AM 21.24 70.232 13.337 7.73 20.78 6.72
9/9/2023 1:30:00 AM 21.2 70.16 13.263 7.72 18.62 6.69
9/9/2023 1:45:00 AM 21.16 70.088 12.977 7.71 22.82 6.7
9/9/2023 2:00:00 AM 21.09 69.962 12.998 7.7 14.83 6.72
9/9/2023 2:15:00 AM 21.01 69.818 12.862 7.7 16.53 6.74
9/9/2023 2:30:00 AM 20.91 69.638 12.705 7.7 14.23 6.76
9/9/2023 2:45:00 AM 20.82 69.476 12.597 7.7 12.35 6.79
9/9/2023 3:00:00 AM 20.74 69.332 12.763 7.7 16.6 6.81
9/9/2023 3:15:00 AM 20.68 69.224 12.716 7.7 16.17 6.82
9/9/2023 3:30:00 AM 20.63 69.134 12.644 7.69 15.27 6.78
9/9/2023 3:45:00 AM 20.6 69.08 12.614 7.69 13.07 6.78
9/9/2023 4:00:00 AM 20.57 69.026 12.558 7.69 12.57 6.77
9/9/2023 4:15:00 AM 20.54 68.972 12.511 7.69 13.49 6.74
9/9/2023 4:30:00 AM 20.52 68.936 12.424 7.68 12.49 6.73
9/9/2023 4:45:00 AM 20.49 68.882 12.343 7.68 14.01 6.73
9/9/2023 5:00:00 AM 20.45 68.81 12.188 7.68 13.26 6.73
9/9/2023 5:15:00 AM 20.41 68.738 12.042 7.67 14.09 6.73
9/9/2023 5:30:00 AM 20.37 68.666 11.955 7.67 14.99 6.72
9/9/2023 5:45:00 AM 20.33 68.594 11.834 7.66 13.84 6.72
9/9/2023 6:00:00 AM 20.28 68.504 11.736 7.67 12.39 6.73
9/9/2023 6:15:00 AM 20.24 68.432 11.63 7.67 12.27 6.73
9/9/2023 6:30:00 AM 20.21 68.378 11.568 7.67 12.92 6.74
9/9/2023 6:45:00 AM 20.17 68.306 11.485 7.66 12.79 6.73
9/9/2023 7:00:00 AM 20.15 68.27 11.416 7.66 12.24 6.73
9/9/2023 7:15:00 AM 20.13 68.234 11.319 7.65 11.8 6.72
9/9/2023 7:30:00 AM 20.12 68.216 11.323 7.65 11.02 6.73
9/9/2023 7:45:00 AM 20.12 68.216 11.308 7.65 10.59 6.74
9/9/2023 8:00:00 AM 20.12 68.216 11.316 7.65 10.69 6.8
9/9/2023 8:15:00 AM 20.13 68.234 11.273 7.65 9.35 6.85
9/9/2023 8:30:00 AM 20.16 68.288 11.267 7.65 9.45 6.91
9/9/2023 8:45:00 AM 20.19 68.342 11.22 7.65 9 6.97
9/9/2023 9:00:00 AM 20.21 68.378 11.228 7.66 8.72 7.04
9/9/2023 9:15:00 AM 20.26 68.468 11.068 7.67 8.3 7.11
9/9/2023 9:30:00 AM 20.32 68.576 11.121 7.67 8.61 7.22
9/9/2023 9:45:00 AM 20.4 68.72 11.083 7.68 8.42 7.33
9/9/2023 10:00:00 AM 20.46 68.828 11.094 7.69 8.51 7.42
9/9/2023 10:15:00 AM 20.52 68.936 10.959 7.7 7.89 7.51
9/9/2023 10:30:00 AM 20.6 69.08 11.041 7.71 7.67 7.62
9/9/2023 10:45:00 AM 20.69 69.242 11.014 7.72 8.06 7.74
9/9/2023 11:00:00 AM 20.75 69.35 10.943 7.73 8.21 7.85
9/9/2023 11:15:00 AM 20.8 69.44 10.898 7.74 8.35 7.91
9/9/2023 11:30:00 AM 20.87 69.566 10.891 7.74 10.83 8
9/9/2023 11:45:00 AM 20.95 69.71 10.926 7.76 8.33 8.13
9/9/2023 12:00:00 PM 21.02 69.836 10.903 7.77 7.66 8.24
9/9/2023 12:15:00 PM 21.08 69.944 10.974 7.78 7.36 8.32
9/9/2023 12:30:00 PM 21.17 70.106 10.972 7.8 7.39 8.42
9/9/2023 12:45:00 PM 21.27 70.286 10.958 7.81 7.15 8.53
9/9/2023 1:00:00 PM 21.36 70.448 10.99 7.83 7.37 8.63
9/9/2023 1:15:00 PM 21.45 70.61 10.842 7.83 6.77 8.74
9/9/2023 1:30:00 PM 21.51 70.718 10.919 7.86 7.47 8.81
9/9/2023 1:45:00 PM 21.59 70.862 10.896 7.87 7.2 8.91
9/9/2023 2:00:00 PM 21.7 71.06 10.904 7.89 6.51 9.01
9/9/2023 2:15:00 PM 21.82 71.276 10.885 7.9 6.38 9.1
9/9/2023 2:30:00 PM 21.93 71.474 10.99 7.91 6.36 9.15
9/9/2023 2:45:00 PM 22.03 71.654 11.026 7.92 6.17 9.19
9/9/2023 3:00:00 PM 22.14 71.852 11.129 7.93 6.11 9.19
9/9/2023 3:15:00 PM 22.24 72.032 11.181 7.94 6.66 9.14
9/9/2023 3:30:00 PM 22.35 72.23 11.295 7.94 6.61 9.09
9/9/2023 3:45:00 PM 22.45 72.41 11.344 7.94 6.99 9.02
9/9/2023 4:00:00 PM 22.55 72.59 11.42 7.95 6.66 8.96
9/9/2023 4:15:00 PM 22.6 72.68 11.453 7.94 9.38 8.84
9/9/2023 4:30:00 PM 22.62 72.716 11.54 7.94 7.35 8.69
9/9/2023 4:45:00 PM 22.65 72.77 11.55 7.94 6.55 8.56
9/9/2023 5:00:00 PM 22.68 72.824 11.711 7.93 7.14 8.4
9/9/2023 5:15:00 PM 22.72 72.896 11.721 7.93 7.93 8.33
9/9/2023 5:30:00 PM 22.74 72.932 11.785 7.93 6.98 8.25
9/9/2023 5:45:00 PM 22.72 72.896 11.882 7.92 6.62 8.13
9/9/2023 6:00:00 PM 22.69 72.842 11.943 7.91 6.39 8.01
9/9/2023 6:15:00 PM 22.68 72.824 11.9 7.91 6.46 7.92
9/9/2023 6:30:00 PM 22.67 72.806 11.964 7.9 6.52 7.85
9/9/2023 6:45:00 PM 22.68 72.824 11.946 7.9 6.28 7.79
9/9/2023 7:00:00 PM 22.69 72.842 11.931 7.9 6.19 7.73
9/9/2023 7:15:00 PM 22.69 72.842 11.909 7.89 5.97 7.67
9/9/2023 7:30:00 PM 22.68 72.824 11.905 7.89 6.84 7.59
9/9/2023 7:45:00 PM 22.67 72.806 11.895 7.88 7.06 7.52
9/9/2023 8:00:00 PM 22.62 72.716 11.94 7.87 7.55 7.46
9/9/2023 8:15:00 PM 22.58 72.644 11.892 7.87 7.75 7.41
9/9/2023 8:30:00 PM 22.53 72.554 12.834 7.87 7.99 7.32
9/9/2023 8:45:00 PM 22.48 72.464 12.816 7.86 14.1 7.26
9/9/2023 9:00:00 PM 22.41 72.338 12.855 7.86 7.48 7.23
9/9/2023 9:15:00 PM 22.33 72.194 12.753 7.85 7.78 7.21
9/9/2023 9:30:00 PM 22.25 72.05 12.75 7.84 9 7.19
9/9/2023 9:45:00 PM 22.16 71.888 12.765 7.84 8.21 7.16
9/9/2023 10:00:00 PM 22.08 71.744 12.704 7.84 8.61 7.13
9/9/2023 10:15:00 PM 21.98 71.564 12.665 7.83 9.71 7.11
9/9/2023 10:30:00 PM 21.86 71.348 12.513 7.83 14.69 7.11
9/9/2023 10:45:00 PM 21.7 71.06 12.528 7.8 26.59 7.1
9/9/2023 11:00:00 PM 21.52 70.736 12.527 7.78 29.55 7.08
9/9/2023 11:15:00 PM 21.35 70.43 12.612 7.76 27.18 7.03
9/9/2023 11:30:00 PM 21.21 70.17799 12.564 7.74 24.27 6.96
9/9/2023 11:45:00 PM 21.09 69.962 12.572 7.73 22.18 6.93
9/10/2023 12:00:00 AM 20.99 69.782 12.486 7.71 18.79 6.92
9/10/2023 12:15:00 AM 20.9 69.62 12.525 7.72 17.07 6.91
9/10/2023 12:30:00 AM 20.83 69.494 12.506 7.71 14.68 6.9
9/10/2023 12:45:00 AM 20.77 69.386 12.584 7.71 14.83 6.89
9/10/2023 1:00:00 AM 20.72 69.296 12.454 7.71 13.56 6.89
9/10/2023 1:15:00 AM 20.67 69.206 12.31 7.71 13.34 6.92
9/10/2023 1:30:00 AM 20.61 69.098 12.077 7.71 12.66 6.94
9/10/2023 1:45:00 AM 20.54 68.972 11.933 7.71 12.9 6.98
9/10/2023 2:00:00 AM 20.45 68.81 11.698 7.72 13.19 7.04
9/10/2023 2:15:00 AM 20.34 68.612 11.48 7.72 12.07 7.08
9/10/2023 2:30:00 AM 20.24 68.432 11.337 7.72 11.45 7.1
9/10/2023 2:45:00 AM 20.15 68.27 11.18 7.72 11.94 7.13
9/10/2023 3:00:00 AM 20.08 68.144 11.002 7.71 13.25 7.13
9/10/2023 3:15:00 AM 20.03 68.054 10.894 7.71 12.46 7.12
9/10/2023 3:30:00 AM 20 68 10.791 7.69 11.83 7.08
9/10/2023 3:45:00 AM 19.99 67.982 10.796 7.69 12.68 7.05
9/10/2023 4:00:00 AM 20 68 10.789 7.68 13.32 6.98
9/10/2023 4:15:00 AM 20.03 68.054 10.797 7.67 13.46 6.92
9/10/2023 4:30:00 AM 20.06 68.108 10.776 7.65 11.85 6.87
9/10/2023 4:45:00 AM 20.1 68.18 10.795 7.66 12.77 6.82
9/10/2023 5:00:00 AM 20.13 68.234 10.733 7.65 12.85 6.78
9/10/2023 5:15:00 AM 20.16 68.288 10.782 7.63 12.65 6.74
9/10/2023 5:30:00 AM 20.19 68.342 10.84 7.64 12.97 6.7
9/10/2023 5:45:00 AM 20.21 68.378 10.863 7.62 13.38 6.69
9/10/2023 6:00:00 AM 20.23 68.414 10.913 7.63 14.32 6.66
9/10/2023 6:15:00 AM 20.24 68.432 10.961 7.63 14.09 6.66
9/10/2023 6:30:00 AM 20.24 68.432 10.887 7.63 12.57 6.68
9/10/2023 6:45:00 AM 20.23 68.414 10.913 7.62 11.75 6.67
9/10/2023 7:00:00 AM 20.22 68.396 10.919 7.63 12.93 6.7
9/10/2023 7:15:00 AM 20.21 68.378 10.89 7.63 9.99 6.69
9/10/2023 7:30:00 AM 20.18 68.324 10.816 7.62 10.27 6.72
9/10/2023 7:45:00 AM 20.16 68.288 10.748 7.62 9.65 6.78
9/10/2023 8:00:00 AM 20.13 68.234 10.779 7.63 10.33 6.81
9/10/2023 8:15:00 AM 20.1 68.18 10.787 7.63 9.38 6.84
9/10/2023 8:30:00 AM 20.07 68.126 10.808 7.64 9.7 6.92
9/10/2023 8:45:00 AM 20.04 68.07201 10.772 7.64 9.07 6.98
9/10/2023 9:00:00 AM 20.01 68.018 10.741 7.65 9 7.08
9/10/2023 9:15:00 AM 19.99 67.982 10.661 7.67 8.81 7.2
9/10/2023 9:30:00 AM 19.97 67.946 10.741 7.67 8.33 7.33
9/10/2023 9:45:00 AM 19.94 67.892 10.649 7.7 7.27 7.48
9/10/2023 10:00:00 AM 19.93 67.874 10.64 7.7 7.77 7.63
9/10/2023 10:15:00 AM 19.91 67.838 10.792 7.72 8 7.78
9/10/2023 10:30:00 AM 19.89 67.802 10.71 7.74 7.87 7.88
9/10/2023 10:45:00 AM 19.88 67.784 10.778 7.75 7.73 8.01
9/10/2023 11:00:00 AM 19.86 67.748 10.83 7.77 7.26 8.13
9/10/2023 11:15:00 AM 19.86 67.748 10.901 7.78 7.1 8.23
9/10/2023 11:30:00 AM 19.85 67.73 11.074 7.8 6.75 8.37
9/10/2023 11:45:00 AM 19.86 67.748 11.073 7.81 8.2 8.51
9/10/2023 12:00:00 PM 19.83 67.694 11.078 7.82 6.59 8.54
9/10/2023 12:15:00 PM 19.82 67.676 11.144 7.83 7.13 8.6
9/10/2023 12:30:00 PM 19.83 67.694 11.069 7.84 7.07 8.66
9/10/2023 12:45:00 PM 19.85 67.73 11.161 7.85 7.14 8.75
9/10/2023 1:00:00 PM 19.87 67.766 11.174 7.86 6.71 8.86
9/10/2023 1:15:00 PM 19.88 67.784 11.119 7.87 6.71 8.92
9/10/2023 1:30:00 PM 19.9 67.82 11.104 7.87 6.26 9
9/10/2023 1:45:00 PM 19.95 67.91 11.08 7.89 6.88 9.15
9/10/2023 2:00:00 PM 20.03 68.054 10.952 7.91 6.59 9.22
9/10/2023 2:15:00 PM 20.12 68.216 11.082 7.92 6.37 9.27
9/10/2023 2:30:00 PM 20.23 68.414 11.152 7.93 6.47 9.32
9/10/2023 2:45:00 PM 20.36 68.648 11.255 7.93 6.69 9.37
9/10/2023 3:00:00 PM 20.48 68.864 11.268 7.94 7.82 9.36
9/10/2023 3:15:00 PM 20.57 69.026 11.411 7.95 6.79 9.3
9/10/2023 3:30:00 PM 20.69 69.242 11.462 7.95 6.29 9.25
9/10/2023 3:45:00 PM 20.77 69.386 11.461 7.94 6.14 9.07
9/10/2023 4:00:00 PM 20.83 69.494 11.509 7.94 6.23 8.91
9/10/2023 4:15:00 PM 20.87 69.566 11.547 7.93 6.63 8.8
9/10/2023 4:30:00 PM 20.88 69.584 11.607 7.93 7.47 8.65
9/10/2023 4:45:00 PM 20.9 69.62 11.669 7.92 9.17 8.52
9/10/2023 5:00:00 PM 21.02 69.836 11.477 7.91 9.59 8.32
9/10/2023 5:15:00 PM 20.96 69.728 11.477 7.9 9.09 8.18
9/10/2023 5:30:00 PM 20.87 69.566 11.584 7.9 11.21 8.11
9/10/2023 5:45:00 PM 20.86 69.548 11.488 7.9 14.85 8.1
9/10/2023 6:00:00 PM 21.01 69.818 11.202 7.89 27.22 8.04
9/10/2023 6:15:00 PM 20.98 69.764 11.16 7.88 36.9 8.04
9/10/2023 6:30:00 PM 20.97 69.746 11.12 7.86 53.8 8.06
9/10/2023 6:45:00 PM 21.03 69.854 10.928 7.85 60.92 8.04
9/10/2023 7:00:00 PM 21.05 69.89 10.641 7.8 72.94 7.87
9/10/2023 7:15:00 PM 20.85 69.53 10.73 7.75 68.34 7.7
9/10/2023 7:30:00 PM 20.74 69.332 10.696 7.71 60.2 7.58
9/10/2023 7:45:00 PM 20.84 69.512 10.268 7.68 60.65 7.49
9/10/2023 8:00:00 PM 20.83 69.494 9.651 7.65 54.58 7.49
9/10/2023 8:15:00 PM 20.7 69.26 9.298 7.64 50.94 7.53
9/10/2023 8:30:00 PM 20.73 69.314 8.929 7.61 47.39 7.49
9/10/2023 8:45:00 PM 20.89 69.602 8.65 7.59 47.63 7.42
9/10/2023 9:00:00 PM 21.05 69.89 8.375 7.57 44.63 7.36
9/10/2023 9:15:00 PM 21.18 70.124 8.118 7.56 43.72 7.3
9/10/2023 9:30:00 PM 21.28 70.304 7.97 7.53 40.27 7.24
9/10/2023 9:45:00 PM 21.36 70.448 7.853 7.52 34.02 7.18
9/10/2023 10:00:00 PM 21.43 70.574 7.775 7.49 34.12 7.13
9/10/2023 10:15:00 PM 21.48 70.664 7.872 7.5 33.76 7.08
9/10/2023 10:30:00 PM 21.51 70.718 7.929 7.49 32.02 7.04
9/10/2023 10:45:00 PM 21.52 70.736 7.929 7.49 30.94 7
9/10/2023 11:00:00 PM 21.51 70.718 8.035 7.48 30.76 6.98
9/10/2023 11:15:00 PM 21.5 70.7 8.101 7.48 29.47 6.94
9/10/2023 11:30:00 PM 21.47 70.646 8.174 7.47 27.18 6.92
9/10/2023 11:45:00 PM 21.44 70.592 8.321 7.48 29.73 6.92
9/11/2023 12:00:00 AM 21.4 70.52 8.374 7.48 29.11 6.9
9/11/2023 12:15:00 AM 21.36 70.448 8.517 7.47 29.2 6.9
9/11/2023 12:30:00 AM 21.32 70.376 8.509 7.49 29.05 6.89
9/11/2023 12:45:00 AM 21.27 70.286 8.588 7.49 27.34 6.92
9/11/2023 1:00:00 AM 21.22 70.196 8.742 7.5 28.04 6.94
9/11/2023 1:15:00 AM 21.19 70.142 8.773 7.5 25.38 6.96
9/11/2023 1:30:00 AM 21.15 70.07 8.861 7.51 26.49 6.98
9/11/2023 1:45:00 AM 21.07 69.926 9.018 7.52 24.97 7.02
9/11/2023 2:00:00 AM 20.99 69.782 9.06 7.51 27.79 7.03
9/11/2023 2:15:00 AM 20.9 69.62 9.069 7.53 27.28 7.08
9/11/2023 2:30:00 AM 20.83 69.494 9.115 7.53 28.31 7.13
9/11/2023 2:45:00 AM 20.74 69.332 9.101 7.53 27.43 7.16
9/11/2023 3:00:00 AM 20.66 69.188 9.136 7.54 29.95 7.2
9/11/2023 3:15:00 AM 20.62 69.116 8.776 7.54 42.59 7.27
9/11/2023 3:30:00 AM 20.59 69.062 8.578 7.52 32.44 7.3
9/11/2023 3:45:00 AM 20.56 69.008 8.417 7.53 32.42 7.3
9/11/2023 4:00:00 AM 20.52 68.936 8.347 7.52 31.23 7.29
9/11/2023 4:15:00 AM 20.48 68.864 8.494 7.52 28.52 7.26
9/11/2023 4:30:00 AM 20.44 68.792 8.546 7.52 25.62 7.21
9/11/2023 4:45:00 AM 20.4 68.72 8.674 7.52 23.38 7.17
9/11/2023 5:00:00 AM 20.35 68.63 8.853 7.52 21.04 7.14
9/11/2023 5:15:00 AM 20.3 68.54 9.057 7.53 21.02 7.12
9/11/2023 5:30:00 AM 20.25 68.45 9.137 7.54 23.97 7.1
9/11/2023 5:45:00 AM 20.2 68.36 9.322 7.54 18.21 7.09
9/11/2023 6:00:00 AM 20.15 68.27 9.325 7.53 20.86 7.09
9/11/2023 6:15:00 AM 20.1 68.18 9.447 7.55 23.43 7.09
9/11/2023 6:30:00 AM 20.04 68.07201 9.473 7.54 21.62 7.09
9/11/2023 6:45:00 AM 19.98 67.964 9.567 7.56 15.43 7.11
9/11/2023 7:00:00 AM 19.92 67.856 9.644 7.56 17.65 7.13
9/11/2023 7:15:00 AM 19.86 67.748 9.701 7.57 16.68 7.16
9/11/2023 7:30:00 AM 19.79 67.622 9.701 7.57 15.33 7.19
9/11/2023 7:45:00 AM 19.72 67.496 9.809 7.58 14.56 7.22
9/11/2023 8:00:00 AM 19.66 67.388 9.855 7.58 16.28 7.28
9/11/2023 8:15:00 AM 19.59 67.262 9.846 7.6 13.56 7.32
9/11/2023 8:30:00 AM 19.53 67.154 9.956 7.61 13.25 7.42
9/11/2023 8:45:00 AM 19.47 67.046 9.954 7.62 12.43 7.5
9/11/2023 9:00:00 AM 19.41 66.938 10.016 7.63 11.54 7.58
9/11/2023 9:15:00 AM 19.36 66.848 10.041 7.64 12.52 7.63
9/11/2023 9:30:00 AM 19.31 66.758 10.016 7.65 10.48 7.71
9/11/2023 9:45:00 AM 19.27 66.686 10.018 7.66 10.12 7.82
9/11/2023 10:00:00 AM 19.25 66.65 10.112 7.67 10.44 7.95
9/11/2023 10:15:00 AM 19.23 66.614 10.156 7.68 21.2 8.05
9/11/2023 10:30:00 AM 19.22 66.596 10.158 7.69 8.51 8.12
9/11/2023 10:45:00 AM 19.22 66.596 10.15 7.7 14.29 8.18
9/11/2023 11:00:00 AM 19.25 66.65 10.17 7.71 11.66 8.26
9/11/2023 11:15:00 AM 19.27 66.686 10.189 7.72 12.02 8.35
9/11/2023 11:30:00 AM 19.28 66.704 10.23 7.73 9.1 8.4
9/11/2023 11:45:00 AM 19.3 66.74 10.25 7.74 7.51 8.49
9/11/2023 12:00:00 PM 19.34 66.812 10.138 7.75 9.06 8.63
9/11/2023 12:15:00 PM 19.37 66.866 10.261 7.76 9.19 8.71
9/11/2023 12:30:00 PM 19.55 67.19 10.25 7.78 8.63 8.85
9/11/2023 12:45:00 PM 19.75 67.55 10.292 7.81 10.93 9
9/11/2023 1:00:00 PM 19.93 67.874 10.302 7.81 7.24 9.06
9/11/2023 1:15:00 PM 20.04 68.07201 10.37 7.82 11.65 8.98
9/11/2023 1:30:00 PM 20.18 68.324 10.246 7.81 7.53 8.86
9/11/2023 1:45:00 PM 20.32 68.576 10.377 7.82 8.76 8.77
9/11/2023 2:00:00 PM 20.41 68.738 10.347 7.82 8.55 8.7
9/11/2023 2:15:00 PM 20.42 68.756 10.245 7.82 8.42 8.59
9/11/2023 2:30:00 PM 20.38 68.684 10.386 7.81 7.81 8.48
9/11/2023 2:45:00 PM 20.41 68.738 10.6 7.82 7.13 8.55
9/11/2023 3:00:00 PM 20.49 68.882 10.515 7.83 7.18 8.68
9/11/2023 3:15:00 PM 20.5 68.9 10.609 7.83 7.65 8.64
9/11/2023 3:30:00 PM 20.5 68.9 10.548 7.82 7.11 8.51
9/11/2023 3:45:00 PM 20.54 68.972 10.519 7.82 11.19 8.47
9/11/2023 4:00:00 PM 20.57 69.026 10.514 7.81 14 8.45
9/11/2023 4:15:00 PM 20.54 68.972 10.57 7.81 13.28 8.35
9/11/2023 4:30:00 PM 20.51 68.918 10.587 7.8 10.68 8.29
9/11/2023 4:45:00 PM 20.55 68.99 10.565 7.8 10.35 8.35
9/11/2023 5:00:00 PM 20.62 69.116 10.233 7.8 14.16 8.3
9/11/2023 5:15:00 PM 20.7 69.26 10.133 7.77 15.96 8.23
9/11/2023 5:30:00 PM 20.75 69.35 10.178 7.77 19.54 8.22
9/11/2023 5:45:00 PM 20.69 69.242 10.288 7.76 17.37 8.15
9/11/2023 6:00:00 PM 20.64 69.152 10.602 7.75 13.74 8.1
9/11/2023 6:15:00 PM 20.62 69.116 10.587 7.75 12.89 8.08
9/11/2023 6:30:00 PM 20.58 69.044 10.63 7.74 12.55 8.03
9/11/2023 6:45:00 PM 20.53 68.954 10.569 7.73 11.24 7.94

These are provisional data and have not been subject to a quality assurance process, but rather are the raw data reported by the instrument.
H: value is above sensor operating range
L: value is below sensor operating range
Offline: station is not reporting data
NC: parameter is not collected at site

Data Availability & Limitations

Uncertainty and potential for error can be associated with environmental monitoring data. Provisional data have not been subject to a quality assurance process, but rather are the raw data reported by the instrument. Data users are cautioned to consider carefully the provisional nature of the information before using it for decisions that concern personal or public safety or the conduct of business that involves substantial monetary or operational consequences.

Approved data are currently available by request by emailing: [email protected]. Approved data have been subject to a quality assurance process to correct for equipment or fouling drift. Data recorded during equipment malfunctions have been removed.

View Historical Stations that have been discontinued.